<?xml version='1.0' encoding='UTF-8'?><gpx version="1.1" creator="JPX - https://github.com/jenetics/jpx" xmlns="http://www.topografix.com/GPX/1/1"><trk><trkseg><trkpt lat="44.85974040596912" lon="11.508862091425453"><ele>10.0</ele><time>2026-03-24T17:14:53Z</time></trkpt><trkpt lat="44.85967695983964" lon="11.508791691369746"><ele>10.0</ele><time>2026-03-24T17:14:55Z</time></trkpt><trkpt lat="44.859620968812294" lon="11.508746435733647"><ele>10.0</ele><time>2026-03-24T17:14:57Z</time></trkpt><trkpt lat="44.859543987532625" lon="11.508802587639506"><ele>10.0</ele><time>2026-03-24T17:14:59Z</time></trkpt><trkpt lat="44.85947170836766" lon="11.508940447028923"><ele>10.0</ele><time>2026-03-24T17:15:01Z</time></trkpt><trkpt lat="44.85943123849355" lon="11.509010188250159"><ele>10.0</ele><time>2026-03-24T17:15:02Z</time></trkpt><trkpt lat="44.85937070681875" lon="11.509064939506885"><ele>10.0</ele><time>2026-03-24T17:15:03Z</time></trkpt><trkpt lat="44.85932793681337" lon="11.50914392784731"><ele>10.0</ele><time>2026-03-24T17:15:03.999Z</time></trkpt><trkpt lat="44.85929142183122" lon="11.509227857310648"><ele>10.0</ele><time>2026-03-24T17:15:04.999Z</time></trkpt><trkpt lat="44.859278178618894" lon="11.509331528695437"><ele>10.0</ele><time>2026-03-24T17:15:05.999Z</time></trkpt><trkpt lat="44.859306669108456" lon="11.509433868869456"><ele>10.0</ele><time>2026-03-24T17:15:06.999Z</time></trkpt><trkpt lat="44.8593235010222" lon="11.509526747008785"><ele>10.0</ele><time>2026-03-24T17:15:07.999Z</time></trkpt><trkpt lat="44.85936029292454" lon="11.509676987997334"><ele>9.8</ele><time>2026-03-24T17:15:09.999Z</time></trkpt><trkpt lat="44.85938490727316" lon="11.509791616004161"><ele>9.6</ele><time>2026-03-24T17:15:11.999Z</time></trkpt><trkpt lat="44.85938578837525" lon="11.509891480101466"><ele>9.4</ele><time>2026-03-24T17:15:14.999Z</time></trkpt><trkpt lat="44.859542087860085" lon="11.509839091809956"><ele>9.2</ele><time>2026-03-24T17:15:16.999Z</time></trkpt><trkpt lat="44.85959767454035" lon="11.5097771676016"><ele>9.0</ele><time>2026-03-24T17:15:17.999Z</time></trkpt><trkpt lat="44.85967015719012" lon="11.50973915952659"><ele>9.0</ele><time>2026-03-24T17:15:18.999Z</time></trkpt><trkpt lat="44.859749588644796" lon="11.509707285278175"><ele>9.0</ele><time>2026-03-24T17:15:19.999Z</time></trkpt><trkpt lat="44.859826296090354" lon="11.509670967279066"><ele>9.0</ele><time>2026-03-24T17:15:20.999Z</time></trkpt><trkpt lat="44.85990828567834" lon="11.509627703965174"><ele>9.0</ele><time>2026-03-24T17:15:21.999Z</time></trkpt><trkpt lat="44.85998867009942" lon="11.509587659561422"><ele>9.0</ele><time>2026-03-24T17:15:22.999Z</time></trkpt><trkpt lat="44.86006663368016" lon="11.509538289471472"><ele>9.0</ele><time>2026-03-24T17:15:23.999Z</time></trkpt><trkpt lat="44.86015010817032" lon="11.509497498002707"><ele>9.166666666666666</ele><time>2026-03-24T17:15:24.999Z</time></trkpt><trkpt lat="44.86023253277974" lon="11.509456364684095"><ele>9.333333333333334</ele><time>2026-03-24T17:15:25.999Z</time></trkpt><trkpt lat="44.86031060441808" lon="11.509409875153608"><ele>9.5</ele><time>2026-03-24T17:15:26.999Z</time></trkpt><trkpt lat="44.860386245613334" lon="11.50937223479348"><ele>9.666666666666668</ele><time>2026-03-24T17:15:27.999Z</time></trkpt><trkpt lat="44.86046108159552" lon="11.50933345163785"><ele>9.833333333333334</ele><time>2026-03-24T17:15:28.999Z</time></trkpt><trkpt lat="44.86053874129563" lon="11.5092993806943"><ele>10.0</ele><time>2026-03-24T17:15:29.999Z</time></trkpt><trkpt lat="44.86061650741047" lon="11.50925921223821"><ele>10.0</ele><time>2026-03-24T17:15:30.999Z</time></trkpt><trkpt lat="44.860693273126216" lon="11.50922107727139"><ele>10.0</ele><time>2026-03-24T17:15:31.999Z</time></trkpt><trkpt lat="44.860770593296735" lon="11.509183260234714"><ele>10.0</ele><time>2026-03-24T17:15:32.999Z</time></trkpt><trkpt lat="44.860847741743484" lon="11.509142098516811"><ele>10.0</ele><time>2026-03-24T17:15:33.999Z</time></trkpt><trkpt lat="44.860917020864854" lon="11.50911320484094"><ele>10.0</ele><time>2026-03-24T17:15:34.999Z</time></trkpt><trkpt lat="44.86097806771188" lon="11.509080113354942"><ele>10.0</ele><time>2026-03-24T17:15:35.999Z</time></trkpt><trkpt lat="44.86106055011746" lon="11.50902682232215"><ele>10.0</ele><time>2026-03-24T17:15:37.999Z</time></trkpt><trkpt lat="44.8611207892936" lon="11.508971217721003"><ele>10.0</ele><time>2026-03-24T17:15:40.999Z</time></trkpt><trkpt lat="44.86103334844362" lon="11.508793098669006"><ele>10.0</ele><time>2026-03-24T17:15:45.999Z</time></trkpt><trkpt lat="44.8609763759864" lon="11.5087157515181"><ele>10.0</ele><time>2026-03-24T17:15:46.999Z</time></trkpt><trkpt lat="44.86091986078407" lon="11.508632568523472"><ele>10.0</ele><time>2026-03-24T17:15:47.999Z</time></trkpt><trkpt lat="44.86084933375561" lon="11.508532255008404"><ele>10.0</ele><time>2026-03-24T17:15:48.999Z</time></trkpt><trkpt lat="44.860787140544986" lon="11.50842870188731"><ele>10.0</ele><time>2026-03-24T17:15:49.999Z</time></trkpt><trkpt lat="44.86071468936412" lon="11.508323586979198"><ele>10.0</ele><time>2026-03-24T17:15:50.999Z</time></trkpt><trkpt lat="44.860640896905636" lon="11.508209362315567"><ele>10.0</ele><time>2026-03-24T17:15:51.999Z</time></trkpt><trkpt lat="44.86056208835546" lon="11.508081141861606"><ele>10.0</ele><time>2026-03-24T17:15:52.999Z</time></trkpt><trkpt lat="44.860482935468546" lon="11.507945748305083"><ele>10.0</ele><time>2026-03-24T17:15:53.999Z</time></trkpt><trkpt lat="44.86040226517575" lon="11.507818442391523"><ele>10.0</ele><time>2026-03-24T17:15:54.999Z</time></trkpt><trkpt lat="44.86031406300387" lon="11.507707006550854"><ele>10.0</ele><time>2026-03-24T17:15:55.999Z</time></trkpt><trkpt lat="44.86023811911737" lon="11.507589566063949"><ele>10.0</ele><time>2026-03-24T17:15:56.999Z</time></trkpt><trkpt lat="44.86013915459923" lon="11.507497496200017"><ele>9.8</ele><time>2026-03-24T17:15:57.999Z</time></trkpt><trkpt lat="44.860035756502" lon="11.50746091134783"><ele>9.6</ele><time>2026-03-24T17:15:58.999Z</time></trkpt><trkpt lat="44.85995459288946" lon="11.50739091960721"><ele>9.4</ele><time>2026-03-24T17:15:59.999Z</time></trkpt><trkpt lat="44.859868838290154" lon="11.507366392056664"><ele>9.2</ele><time>2026-03-24T17:16:00.999Z</time></trkpt><trkpt lat="44.859783421251066" lon="11.507299130291672"><ele>9.0</ele><time>2026-03-24T17:16:01.999Z</time></trkpt><trkpt lat="44.859702874087354" lon="11.507210738545636"><ele>9.0</ele><time>2026-03-24T17:16:02.999Z</time></trkpt><trkpt lat="44.85962925650139" lon="11.507118829747974"><ele>9.0</ele><time>2026-03-24T17:16:03.999Z</time></trkpt><trkpt lat="44.85957098639827" lon="11.507011788430141"><ele>9.0</ele><time>2026-03-24T17:16:04.999Z</time></trkpt><trkpt lat="44.8594913674165" lon="11.506931059213995"><ele>9.0</ele><time>2026-03-24T17:16:05.999Z</time></trkpt><trkpt lat="44.859434068966856" lon="11.50683331455946"><ele>9.0</ele><time>2026-03-24T17:16:06.999Z</time></trkpt><trkpt lat="44.85938481602327" lon="11.506729741765502"><ele>9.0</ele><time>2026-03-24T17:16:07.999Z</time></trkpt><trkpt lat="44.85933441149656" lon="11.506620823610593"><ele>9.0</ele><time>2026-03-24T17:16:09Z</time></trkpt><trkpt lat="44.85927216216548" lon="11.506539401330885"><ele>9.0</ele><time>2026-03-24T17:16:10Z</time></trkpt><trkpt lat="44.859304859344135" lon="11.506331009475012"><ele>9.0</ele><time>2026-03-24T17:16:11Z</time></trkpt><trkpt lat="44.85928036963306" lon="11.506191938719164"><ele>9.0</ele><time>2026-03-24T17:16:12Z</time></trkpt><trkpt lat="44.85923893771624" lon="11.50605903308787"><ele>9.0</ele><time>2026-03-24T17:16:13Z</time></trkpt><trkpt lat="44.859177527943366" lon="11.505931451588381"><ele>9.0</ele><time>2026-03-24T17:16:14Z</time></trkpt><trkpt lat="44.859097345567825" lon="11.50581100190512"><ele>9.0</ele><time>2026-03-24T17:16:15Z</time></trkpt><trkpt lat="44.859028827840966" lon="11.505672073303593"><ele>9.0</ele><time>2026-03-24T17:16:16Z</time></trkpt><trkpt lat="44.858949177363385" lon="11.505548466949763"><ele>9.0</ele><time>2026-03-24T17:16:17Z</time></trkpt><trkpt lat="44.85887098692529" lon="11.505425588784567"><ele>9.0</ele><time>2026-03-24T17:16:18Z</time></trkpt><trkpt lat="44.8587863913607" lon="11.50532701977446"><ele>9.0</ele><time>2026-03-24T17:16:19Z</time></trkpt><trkpt lat="44.85872267283129" lon="11.50522352613235"><ele>9.0</ele><time>2026-03-24T17:16:20Z</time></trkpt><trkpt lat="44.858663603910834" lon="11.505138281835457"><ele>9.0</ele><time>2026-03-24T17:16:21Z</time></trkpt><trkpt lat="44.858611335255496" lon="11.50506088743534"><ele>9.0</ele><time>2026-03-24T17:16:22Z</time></trkpt><trkpt lat="44.85856490390341" lon="11.504989694193151"><ele>9.0</ele><time>2026-03-24T17:16:23Z</time></trkpt><trkpt lat="44.85851962992379" lon="11.504919157380442"><ele>9.0</ele><time>2026-03-24T17:16:24Z</time></trkpt><trkpt lat="44.85847293681249" lon="11.504817553391351"><ele>9.0</ele><time>2026-03-24T17:16:25Z</time></trkpt><trkpt lat="44.85840109610569" lon="11.504731819583291"><ele>9.0</ele><time>2026-03-24T17:16:26Z</time></trkpt><trkpt lat="44.858330548377516" lon="11.504624918172551"><ele>9.0</ele><time>2026-03-24T17:16:27Z</time></trkpt><trkpt lat="44.858255613674196" lon="11.504506118325626"><ele>9.0</ele><time>2026-03-24T17:16:28Z</time></trkpt><trkpt lat="44.85817654077442" lon="11.504380977939466"><ele>9.0</ele><time>2026-03-24T17:16:29Z</time></trkpt><trkpt lat="44.85809776470639" lon="11.504259299043014"><ele>9.0</ele><time>2026-03-24T17:16:30Z</time></trkpt><trkpt lat="44.85801388224421" lon="11.504128965742202"><ele>9.0</ele><time>2026-03-24T17:16:31Z</time></trkpt><trkpt lat="44.857925580257394" lon="11.503990976446808"><ele>9.0</ele><time>2026-03-24T17:16:32Z</time></trkpt><trkpt lat="44.857834485747475" lon="11.503850067376176"><ele>9.0</ele><time>2026-03-24T17:16:33Z</time></trkpt><trkpt lat="44.85774571339194" lon="11.50371028265118"><ele>9.0</ele><time>2026-03-24T17:16:34Z</time></trkpt><trkpt lat="44.85765126319225" lon="11.503563731040954"><ele>9.0</ele><time>2026-03-24T17:16:35Z</time></trkpt><trkpt lat="44.857554230526645" lon="11.50341633808823"><ele>9.0</ele><time>2026-03-24T17:16:36Z</time></trkpt><trkpt lat="44.85745736469446" lon="11.50326406820021"><ele>9.0</ele><time>2026-03-24T17:16:37Z</time></trkpt><trkpt lat="44.857357717843755" lon="11.503110731649265"><ele>9.0</ele><time>2026-03-24T17:16:38Z</time></trkpt><trkpt lat="44.857255172011875" lon="11.502956272751003"><ele>9.0</ele><time>2026-03-24T17:16:39Z</time></trkpt><trkpt lat="44.857152333055694" lon="11.502801790286181"><ele>9.0</ele><time>2026-03-24T17:16:40Z</time></trkpt><trkpt lat="44.85705213188131" lon="11.502650622062312"><ele>9.0</ele><time>2026-03-24T17:16:41Z</time></trkpt><trkpt lat="44.8569581942013" lon="11.502504648594622"><ele>9.0</ele><time>2026-03-24T17:16:42Z</time></trkpt><trkpt lat="44.85686487949431" lon="11.502364810557419"><ele>9.0</ele><time>2026-03-24T17:16:43Z</time></trkpt><trkpt lat="44.85677388678194" lon="11.50222581436216"><ele>9.0</ele><time>2026-03-24T17:16:44Z</time></trkpt><trkpt lat="44.856687948540596" lon="11.502086611472821"><ele>9.0</ele><time>2026-03-24T17:16:45Z</time></trkpt><trkpt lat="44.85660412926967" lon="11.501957026890885"><ele>9.0</ele><time>2026-03-24T17:16:46Z</time></trkpt><trkpt lat="44.85651763830797" lon="11.501828156094154"><ele>9.0</ele><time>2026-03-24T17:16:47Z</time></trkpt><trkpt lat="44.85643444456595" lon="11.501708162022434"><ele>9.0</ele><time>2026-03-24T17:16:48Z</time></trkpt><trkpt lat="44.856354994958515" lon="11.501602771694314"><ele>9.0</ele><time>2026-03-24T17:16:49Z</time></trkpt><trkpt lat="44.856268464704776" lon="11.501513396232516"><ele>9.0</ele><time>2026-03-24T17:16:50Z</time></trkpt><trkpt lat="44.85618615525329" lon="11.501438855222416"><ele>9.0</ele><time>2026-03-24T17:16:51Z</time></trkpt><trkpt lat="44.85610737329499" lon="11.501368495011283"><ele>9.0</ele><time>2026-03-24T17:16:52Z</time></trkpt><trkpt lat="44.85603401090829" lon="11.501300700203863"><ele>9.166666666666666</ele><time>2026-03-24T17:16:53Z</time></trkpt><trkpt lat="44.855964255179416" lon="11.501237055633801"><ele>9.333333333333334</ele><time>2026-03-24T17:16:54Z</time></trkpt><trkpt lat="44.855900123105584" lon="11.501176839676607"><ele>9.5</ele><time>2026-03-24T17:16:55Z</time></trkpt><trkpt lat="44.85583898662596" lon="11.501120275322135"><ele>9.666666666666668</ele><time>2026-03-24T17:16:56Z</time></trkpt><trkpt lat="44.85577756897743" lon="11.50106768463165"><ele>9.833333333333334</ele><time>2026-03-24T17:16:57Z</time></trkpt><trkpt lat="44.85571705555208" lon="11.501016314558491"><ele>10.0</ele><time>2026-03-24T17:16:58Z</time></trkpt><trkpt lat="44.855649901017415" lon="11.500957463783203"><ele>9.5</ele><time>2026-03-24T17:16:59Z</time></trkpt><trkpt lat="44.85556960292711" lon="11.500884808236327"><ele>9.0</ele><time>2026-03-24T17:17:00Z</time></trkpt><trkpt lat="44.85547252860957" lon="11.500798579291251"><ele>8.5</ele><time>2026-03-24T17:17:01Z</time></trkpt><trkpt lat="44.855357976551765" lon="11.500696192117067"><ele>8.0</ele><time>2026-03-24T17:17:02Z</time></trkpt><trkpt lat="44.85523088372935" lon="11.500587171263236"><ele>8.0</ele><time>2026-03-24T17:17:03Z</time></trkpt><trkpt lat="44.85510633710965" lon="11.500474345063521"><ele>8.0</ele><time>2026-03-24T17:17:04Z</time></trkpt><trkpt lat="44.854975194263524" lon="11.500356830059909"><ele>8.0</ele><time>2026-03-24T17:17:05Z</time></trkpt><trkpt lat="44.85484001525942" lon="11.50023614144304"><ele>7.666666666666666</ele><time>2026-03-24T17:17:05.999Z</time></trkpt><trkpt lat="44.854697870520816" lon="11.500109771659112"><ele>7.333333333333334</ele><time>2026-03-24T17:17:06.999Z</time></trkpt><trkpt lat="44.85455469506445" lon="11.499979417317927"><ele>7.0</ele><time>2026-03-24T17:17:07.999Z</time></trkpt><trkpt lat="44.85440907896568" lon="11.499849856708453"><ele>7.333333333333334</ele><time>2026-03-24T17:17:08.999Z</time></trkpt><trkpt lat="44.85425918490796" lon="11.499717611592413"><ele>7.666666666666666</ele><time>2026-03-24T17:17:09.999Z</time></trkpt><trkpt lat="44.85410802705455" lon="11.499585181281732"><ele>8.0</ele><time>2026-03-24T17:17:10.999Z</time></trkpt><trkpt lat="44.85395682502343" lon="11.499450464010033"><ele>8.0</ele><time>2026-03-24T17:17:11.999Z</time></trkpt><trkpt lat="44.85380689159187" lon="11.49931692478411"><ele>8.0</ele><time>2026-03-24T17:17:12.999Z</time></trkpt><trkpt lat="44.85365924783233" lon="11.49918357903667"><ele>8.0</ele><time>2026-03-24T17:17:13.999Z</time></trkpt><trkpt lat="44.85351030576008" lon="11.49905073427394"><ele>8.0</ele><time>2026-03-24T17:17:14.999Z</time></trkpt><trkpt lat="44.85335940828836" lon="11.498919246777463"><ele>8.0</ele><time>2026-03-24T17:17:15.999Z</time></trkpt><trkpt lat="44.85321150372408" lon="11.498786934157373"><ele>8.0</ele><time>2026-03-24T17:17:16.999Z</time></trkpt><trkpt lat="44.85306116596705" lon="11.498652461483546"><ele>8.0</ele><time>2026-03-24T17:17:17.999Z</time></trkpt><trkpt lat="44.852909422539824" lon="11.498516407608756"><ele>8.0</ele><time>2026-03-24T17:17:18.999Z</time></trkpt><trkpt lat="44.85275654225657" lon="11.498379294641744"><ele>8.0</ele><time>2026-03-24T17:17:19.999Z</time></trkpt><trkpt lat="44.85260240604652" lon="11.498242339676214"><ele>8.0</ele><time>2026-03-24T17:17:20.999Z</time></trkpt><trkpt lat="44.852448631265304" lon="11.498103927784513"><ele>8.0</ele><time>2026-03-24T17:17:21.999Z</time></trkpt><trkpt lat="44.852292851099364" lon="11.49796439883993"><ele>8.0</ele><time>2026-03-24T17:17:22.999Z</time></trkpt><trkpt lat="44.852135908290904" lon="11.497825727065788"><ele>8.0</ele><time>2026-03-24T17:17:23.999Z</time></trkpt><trkpt lat="44.851978060571675" lon="11.497685773889055"><ele>8.0</ele><time>2026-03-24T17:17:24.999Z</time></trkpt><trkpt lat="44.85182150886852" lon="11.49754442889822"><ele>8.0</ele><time>2026-03-24T17:17:25.999Z</time></trkpt><trkpt lat="44.851662393281" lon="11.49740277146475"><ele>7.666666666666666</ele><time>2026-03-24T17:17:26.999Z</time></trkpt><trkpt lat="44.8515048046569" lon="11.497258471567635"><ele>7.333333333333334</ele><time>2026-03-24T17:17:27.999Z</time></trkpt><trkpt lat="44.85134551551819" lon="11.497115835615931"><ele>7.0</ele><time>2026-03-24T17:17:28.999Z</time></trkpt><trkpt lat="44.851185014127445" lon="11.496974790471947"><ele>7.0</ele><time>2026-03-24T17:17:29.999Z</time></trkpt><trkpt lat="44.851025493470196" lon="11.49683174023032"><ele>7.0</ele><time>2026-03-24T17:17:30.999Z</time></trkpt><trkpt lat="44.85086399183989" lon="11.496688128853158"><ele>7.0</ele><time>2026-03-24T17:17:31.999Z</time></trkpt><trkpt lat="44.85070364197065" lon="11.496544565502287"><ele>7.0</ele><time>2026-03-24T17:17:32.999Z</time></trkpt><trkpt lat="44.85054281162603" lon="11.496401806837069"><ele>7.0</ele><time>2026-03-24T17:17:33.999Z</time></trkpt><trkpt lat="44.85038293366312" lon="11.496257779810133"><ele>7.0</ele><time>2026-03-24T17:17:34.999Z</time></trkpt><trkpt lat="44.850222651841655" lon="11.496115519844567"><ele>7.333333333333334</ele><time>2026-03-24T17:17:35.999Z</time></trkpt><trkpt lat="44.85006615284307" lon="11.495975538601188"><ele>7.666666666666666</ele><time>2026-03-24T17:17:36.999Z</time></trkpt><trkpt lat="44.8499156106314" lon="11.49584153902035"><ele>8.0</ele><time>2026-03-24T17:17:37.999Z</time></trkpt><trkpt lat="44.84976325430067" lon="11.495706527353367"><ele>8.0</ele><time>2026-03-24T17:17:38.999Z</time></trkpt><trkpt lat="44.84962011121381" lon="11.495576636172803"><ele>8.0</ele><time>2026-03-24T17:17:39.999Z</time></trkpt><trkpt lat="44.84947719484596" lon="11.495449373409947"><ele>8.0</ele><time>2026-03-24T17:17:40.999Z</time></trkpt><trkpt lat="44.849335256918025" lon="11.495322123876386"><ele>9.0</ele><time>2026-03-24T17:17:41.999Z</time></trkpt><trkpt lat="44.849190306544514" lon="11.49519108755938"><ele>10.0</ele><time>2026-03-24T17:17:42.999Z</time></trkpt><trkpt lat="44.84904610354852" lon="11.49506114511132"><ele>11.0</ele><time>2026-03-24T17:17:43.999Z</time></trkpt><trkpt lat="44.84890023289787" lon="11.494931867818474"><ele>11.0</ele><time>2026-03-24T17:17:44.999Z</time></trkpt><trkpt lat="44.8487544401196" lon="11.49480547155772"><ele>11.0</ele><time>2026-03-24T17:17:45.999Z</time></trkpt><trkpt lat="44.848610555463615" lon="11.49467739909248"><ele>11.0</ele><time>2026-03-24T17:17:46.999Z</time></trkpt><trkpt lat="44.848465170750565" lon="11.494550336366757"><ele>10.0</ele><time>2026-03-24T17:17:47.999Z</time></trkpt><trkpt lat="44.84833137903952" lon="11.494403319983194"><ele>9.0</ele><time>2026-03-24T17:17:48.999Z</time></trkpt><trkpt lat="44.84818970979746" lon="11.49427632308898"><ele>8.0</ele><time>2026-03-24T17:17:49.999Z</time></trkpt><trkpt lat="44.848055620238775" lon="11.494156073961884"><ele>8.0</ele><time>2026-03-24T17:17:50.999Z</time></trkpt><trkpt lat="44.8479259599758" lon="11.494038005702887"><ele>8.0</ele><time>2026-03-24T17:17:51.999Z</time></trkpt><trkpt lat="44.847799180756255" lon="11.49392585609157"><ele>8.0</ele><time>2026-03-24T17:17:52.999Z</time></trkpt><trkpt lat="44.84767616885994" lon="11.493816263156914"><ele>8.0</ele><time>2026-03-24T17:17:53.999Z</time></trkpt><trkpt lat="44.847556696846546" lon="11.493709823959135"><ele>8.75</ele><time>2026-03-24T17:17:54.999Z</time></trkpt><trkpt lat="44.84744055866228" lon="11.493606474439815"><ele>9.5</ele><time>2026-03-24T17:17:55.999Z</time></trkpt><trkpt lat="44.84733320103363" lon="11.493511290038569"><ele>10.25</ele><time>2026-03-24T17:17:56.999Z</time></trkpt><trkpt lat="44.84723332042556" lon="11.49342311384897"><ele>11.0</ele><time>2026-03-24T17:17:57.999Z</time></trkpt><trkpt lat="44.84713069330128" lon="11.493357880336422"><ele>11.0</ele><time>2026-03-24T17:17:58.999Z</time></trkpt><trkpt lat="44.847043514437466" lon="11.493277684720677"><ele>11.0</ele><time>2026-03-24T17:17:59.999Z</time></trkpt><trkpt lat="44.846959643251736" lon="11.493203685591775"><ele>11.0</ele><time>2026-03-24T17:18:00.999Z</time></trkpt><trkpt lat="44.846881994519" lon="11.493132939803921"><ele>11.0</ele><time>2026-03-24T17:18:01.999Z</time></trkpt><trkpt lat="44.84681269394538" lon="11.493072338862806"><ele>11.0</ele><time>2026-03-24T17:18:02.999Z</time></trkpt><trkpt lat="44.84674530203749" lon="11.493012550167618"><ele>10.8</ele><time>2026-03-24T17:18:03.999Z</time></trkpt><trkpt lat="44.84668618785884" lon="11.492956660458624"><ele>10.600000000000001</ele><time>2026-03-24T17:18:04.999Z</time></trkpt><trkpt lat="44.84663293938368" lon="11.492907970491396"><ele>10.4</ele><time>2026-03-24T17:18:05.999Z</time></trkpt><trkpt lat="44.846535943920344" lon="11.49281796335912"><ele>10.2</ele><time>2026-03-24T17:18:07.999Z</time></trkpt><trkpt lat="44.846443443815666" lon="11.49273494006993"><ele>10.0</ele><time>2026-03-24T17:18:09.999Z</time></trkpt><trkpt lat="44.84636955571181" lon="11.49265008282984"><ele>10.0</ele><time>2026-03-24T17:18:11.999Z</time></trkpt><trkpt lat="44.84631316478617" lon="11.492599574673797"><ele>10.0</ele><time>2026-03-24T17:18:13.999Z</time></trkpt><trkpt lat="44.846238443472956" lon="11.492529029819133"><ele>10.0</ele><time>2026-03-24T17:18:16Z</time></trkpt><trkpt lat="44.846183739415714" lon="11.49248014667866"><ele>10.0</ele><time>2026-03-24T17:18:17Z</time></trkpt><trkpt lat="44.84611797415953" lon="11.492428337947137"><ele>10.0</ele><time>2026-03-24T17:18:18Z</time></trkpt><trkpt lat="44.84605287971102" lon="11.492366028876605"><ele>10.0</ele><time>2026-03-24T17:18:19Z</time></trkpt><trkpt lat="44.84597519991563" lon="11.49229251470553"><ele>10.0</ele><time>2026-03-24T17:18:20Z</time></trkpt><trkpt lat="44.8458875075451" lon="11.49220116810842"><ele>10.0</ele><time>2026-03-24T17:18:21Z</time></trkpt><trkpt lat="44.84578927846609" lon="11.492098585710536"><ele>10.0</ele><time>2026-03-24T17:18:22Z</time></trkpt><trkpt lat="44.84568042242954" lon="11.491988076524926"><ele>10.0</ele><time>2026-03-24T17:18:23Z</time></trkpt><trkpt lat="44.84557071949134" lon="11.491860604155244"><ele>10.0</ele><time>2026-03-24T17:18:24Z</time></trkpt><trkpt lat="44.845444513622354" lon="11.491716954853374"><ele>10.0</ele><time>2026-03-24T17:18:25Z</time></trkpt><trkpt lat="44.84531721309772" lon="11.491579213542847"><ele>10.0</ele><time>2026-03-24T17:18:26Z</time></trkpt><trkpt lat="44.84518198049562" lon="11.491430006065762"><ele>10.0</ele><time>2026-03-24T17:18:27Z</time></trkpt><trkpt lat="44.84504750000635" lon="11.49128310611621"><ele>10.0</ele><time>2026-03-24T17:18:28Z</time></trkpt><trkpt lat="44.84490953974171" lon="11.491138419636291"><ele>10.0</ele><time>2026-03-24T17:18:29Z</time></trkpt><trkpt lat="44.844766033800916" lon="11.490995166553398"><ele>9.666666666666668</ele><time>2026-03-24T17:18:30Z</time></trkpt><trkpt lat="44.84461593809968" lon="11.490852517433607"><ele>9.333333333333334</ele><time>2026-03-24T17:18:31Z</time></trkpt><trkpt lat="44.84446358453654" lon="11.490711656795767"><ele>9.0</ele><time>2026-03-24T17:18:32Z</time></trkpt><trkpt lat="44.84432326141465" lon="11.49058670113712"><ele>9.333333333333334</ele><time>2026-03-24T17:18:33Z</time></trkpt><trkpt lat="44.84418578637414" lon="11.490464058781718"><ele>9.666666666666668</ele><time>2026-03-24T17:18:34Z</time></trkpt><trkpt lat="44.8440544687449" lon="11.490344189220908"><ele>10.0</ele><time>2026-03-24T17:18:35Z</time></trkpt><trkpt lat="44.843925646597334" lon="11.490235463329297"><ele>10.0</ele><time>2026-03-24T17:18:36Z</time></trkpt><trkpt lat="44.843796542946485" lon="11.490131290304037"><ele>10.0</ele><time>2026-03-24T17:18:37Z</time></trkpt><trkpt lat="44.843676122413065" lon="11.490027725459349"><ele>10.0</ele><time>2026-03-24T17:18:38Z</time></trkpt><trkpt lat="44.843560954863825" lon="11.489925782060359"><ele>10.0</ele><time>2026-03-24T17:18:39Z</time></trkpt><trkpt lat="44.843450492729815" lon="11.48982721607599"><ele>10.0</ele><time>2026-03-24T17:18:40Z</time></trkpt><trkpt lat="44.843349993129635" lon="11.489740716651893"><ele>10.0</ele><time>2026-03-24T17:18:41Z</time></trkpt><trkpt lat="44.843255629929004" lon="11.48966108386266"><ele>10.0</ele><time>2026-03-24T17:18:42Z</time></trkpt><trkpt lat="44.84317653572809" lon="11.489590899875653"><ele>10.0</ele><time>2026-03-24T17:18:43Z</time></trkpt><trkpt lat="44.84310391554857" lon="11.489526191976799"><ele>10.0</ele><time>2026-03-24T17:18:44Z</time></trkpt><trkpt lat="44.843044328737435" lon="11.48947191896221"><ele>9.833333333333334</ele><time>2026-03-24T17:18:45Z</time></trkpt><trkpt lat="44.8429867915825" lon="11.48942193720893"><ele>9.666666666666668</ele><time>2026-03-24T17:18:46Z</time></trkpt><trkpt lat="44.84288485428608" lon="11.489332253858425"><ele>9.5</ele><time>2026-03-24T17:18:48Z</time></trkpt><trkpt lat="44.8428225905471" lon="11.489275792311947"><ele>9.333333333333334</ele><time>2026-03-24T17:18:49Z</time></trkpt><trkpt lat="44.842748357050944" lon="11.48921227055036"><ele>9.166666666666666</ele><time>2026-03-24T17:18:50Z</time></trkpt><trkpt lat="44.84266519471482" lon="11.489142830893801"><ele>9.0</ele><time>2026-03-24T17:18:51Z</time></trkpt><trkpt lat="44.84257397354018" lon="11.489060465393734"><ele>9.0</ele><time>2026-03-24T17:18:52Z</time></trkpt><trkpt lat="44.842473886832046" lon="11.488973472691253"><ele>9.0</ele><time>2026-03-24T17:18:53Z</time></trkpt><trkpt lat="44.842387997665156" lon="11.488899282844606"><ele>9.0</ele><time>2026-03-24T17:18:54Z</time></trkpt><trkpt lat="44.842290006864346" lon="11.488816344847113"><ele>9.0</ele><time>2026-03-24T17:18:55Z</time></trkpt><trkpt lat="44.8421851660056" lon="11.488724291728836"><ele>9.0</ele><time>2026-03-24T17:18:56Z</time></trkpt><trkpt lat="44.84209023414153" lon="11.48864249111523"><ele>9.0</ele><time>2026-03-24T17:18:57Z</time></trkpt><trkpt lat="44.84199289539161" lon="11.48857342604046"><ele>9.0</ele><time>2026-03-24T17:18:58Z</time></trkpt><trkpt lat="44.841883049622396" lon="11.488522776279458"><ele>9.0</ele><time>2026-03-24T17:18:59Z</time></trkpt><trkpt lat="44.8417629016956" lon="11.488487542598124"><ele>9.5</ele><time>2026-03-24T17:19:00Z</time></trkpt><trkpt lat="44.84163545387076" lon="11.488477880256367"><ele>10.0</ele><time>2026-03-24T17:19:01Z</time></trkpt><trkpt lat="44.84149930359863" lon="11.488489430424238"><ele>10.5</ele><time>2026-03-24T17:19:02Z</time></trkpt><trkpt lat="44.84135790900665" lon="11.488511640584443"><ele>11.0</ele><time>2026-03-24T17:19:03Z</time></trkpt><trkpt lat="44.84121814430219" lon="11.488544265473873"><ele>11.0</ele><time>2026-03-24T17:19:04Z</time></trkpt><trkpt lat="44.84107911426883" lon="11.488576558762416"><ele>11.0</ele><time>2026-03-24T17:19:05Z</time></trkpt><trkpt lat="44.840955331464784" lon="11.488606922143852"><ele>11.0</ele><time>2026-03-24T17:19:06Z</time></trkpt><trkpt lat="44.84084004530593" lon="11.488633767957037"><ele>11.0</ele><time>2026-03-24T17:19:07Z</time></trkpt><trkpt lat="44.840734526476645" lon="11.488660129707922"><ele>11.200000000000001</ele><time>2026-03-24T17:19:08Z</time></trkpt><trkpt lat="44.84063943315695" lon="11.48868563012295"><ele>11.4</ele><time>2026-03-24T17:19:09Z</time></trkpt><trkpt lat="44.84055357048683" lon="11.48870904065956"><ele>11.6</ele><time>2026-03-24T17:19:10Z</time></trkpt><trkpt lat="44.840475040801635" lon="11.48872933001331"><ele>11.8</ele><time>2026-03-24T17:19:11Z</time></trkpt><trkpt lat="44.84040428969927" lon="11.488738165813034"><ele>12.0</ele><time>2026-03-24T17:19:12Z</time></trkpt><trkpt lat="44.8402856223895" lon="11.488755562612118"><ele>12.166666666666666</ele><time>2026-03-24T17:19:13.999Z</time></trkpt><trkpt lat="44.840191721424894" lon="11.488775261933402"><ele>12.333333333333332</ele><time>2026-03-24T17:19:15.999Z</time></trkpt><trkpt lat="44.840121116575084" lon="11.488791737413"><ele>12.5</ele><time>2026-03-24T17:19:17.999Z</time></trkpt><trkpt lat="44.84004432095988" lon="11.488806085189557"><ele>12.666666666666666</ele><time>2026-03-24T17:19:21.999Z</time></trkpt><trkpt lat="44.839968725207555" lon="11.488802398497374"><ele>12.833333333333332</ele><time>2026-03-24T17:19:25.999Z</time></trkpt><trkpt lat="44.83990675551519" lon="11.488781559249846"><ele>13.0</ele><time>2026-03-24T17:19:29.999Z</time></trkpt><trkpt lat="44.83986193714494" lon="11.488681550084069"><ele>13.499999999999998</ele><time>2026-03-24T17:19:33.999Z</time></trkpt><trkpt lat="44.839846952487115" lon="11.48858999205405"><ele>14.0</ele><time>2026-03-24T17:19:34.999Z</time></trkpt><trkpt lat="44.83982828158307" lon="11.488489684647373"><ele>14.5</ele><time>2026-03-24T17:19:35.999Z</time></trkpt><trkpt lat="44.8398081192812" lon="11.488396918182204"><ele>15.0</ele><time>2026-03-24T17:19:36.999Z</time></trkpt><trkpt lat="44.83978571961149" lon="11.488283007392267"><ele>15.499999999999998</ele><time>2026-03-24T17:19:37.999Z</time></trkpt><trkpt lat="44.83976294755477" lon="11.488158858449415"><ele>16.0</ele><time>2026-03-24T17:19:38.999Z</time></trkpt><trkpt lat="44.83973632531232" lon="11.48801574655903"><ele>16.0</ele><time>2026-03-24T17:19:39.999Z</time></trkpt><trkpt lat="44.83970868127499" lon="11.487878033000927"><ele>16.0</ele><time>2026-03-24T17:19:40.999Z</time></trkpt><trkpt lat="44.83967655103032" lon="11.487728661210468"><ele>16.0</ele><time>2026-03-24T17:19:41.999Z</time></trkpt><trkpt lat="44.83964361589732" lon="11.487566390643108"><ele>16.0</ele><time>2026-03-24T17:19:42.999Z</time></trkpt><trkpt lat="44.839609108582486" lon="11.48739582032271"><ele>16.0</ele><time>2026-03-24T17:19:43.999Z</time></trkpt><trkpt lat="44.83957012078233" lon="11.487223807173049"><ele>16.0</ele><time>2026-03-24T17:19:44.999Z</time></trkpt><trkpt lat="44.83953972390779" lon="11.487056955180737"><ele>16.0</ele><time>2026-03-24T17:19:45.999Z</time></trkpt><trkpt lat="44.839506472580815" lon="11.486885893922636"><ele>16.0</ele><time>2026-03-24T17:19:46.999Z</time></trkpt><trkpt lat="44.83946512866641" lon="11.48670732995002"><ele>16.0</ele><time>2026-03-24T17:19:47.999Z</time></trkpt><trkpt lat="44.83942228060267" lon="11.48652512791262"><ele>16.0</ele><time>2026-03-24T17:19:48.999Z</time></trkpt><trkpt lat="44.8393752994361" lon="11.48633893458702"><ele>16.0</ele><time>2026-03-24T17:19:49.999Z</time></trkpt><trkpt lat="44.83932344317175" lon="11.48615302237194"><ele>16.0</ele><time>2026-03-24T17:19:50.999Z</time></trkpt><trkpt lat="44.83926787118359" lon="11.48596783662225"><ele>16.0</ele><time>2026-03-24T17:19:51.999Z</time></trkpt><trkpt lat="44.83921305564683" lon="11.485783444991478"><ele>16.0</ele><time>2026-03-24T17:19:52.999Z</time></trkpt><trkpt lat="44.83915679985068" lon="11.485596201407045"><ele>16.0</ele><time>2026-03-24T17:19:53.999Z</time></trkpt><trkpt lat="44.83910224754474" lon="11.485417267549526"><ele>16.0</ele><time>2026-03-24T17:19:54.999Z</time></trkpt><trkpt lat="44.839047631922725" lon="11.485245967533444"><ele>15.25</ele><time>2026-03-24T17:19:55.999Z</time></trkpt><trkpt lat="44.83900630595815" lon="11.485076961866497"><ele>14.5</ele><time>2026-03-24T17:19:56.999Z</time></trkpt><trkpt lat="44.838953466379" lon="11.484919252999566"><ele>13.75</ele><time>2026-03-24T17:19:57.999Z</time></trkpt><trkpt lat="44.83889899657973" lon="11.484761886222254"><ele>13.0</ele><time>2026-03-24T17:19:58.999Z</time></trkpt><trkpt lat="44.83884432836231" lon="11.484603200620361"><ele>12.75</ele><time>2026-03-24T17:19:59.999Z</time></trkpt><trkpt lat="44.83878162912117" lon="11.484438104359247"><ele>12.5</ele><time>2026-03-24T17:20:00.999Z</time></trkpt><trkpt lat="44.838716684443945" lon="11.48427326146768"><ele>12.25</ele><time>2026-03-24T17:20:01.999Z</time></trkpt><trkpt lat="44.83865361058907" lon="11.484106751249659"><ele>12.0</ele><time>2026-03-24T17:20:02.999Z</time></trkpt><trkpt lat="44.8385886151953" lon="11.483941987982563"><ele>12.0</ele><time>2026-03-24T17:20:03.999Z</time></trkpt><trkpt lat="44.83852490457132" lon="11.483789899283723"><ele>12.0</ele><time>2026-03-24T17:20:04.999Z</time></trkpt><trkpt lat="44.838463461130374" lon="11.483636173160203"><ele>12.0</ele><time>2026-03-24T17:20:05.999Z</time></trkpt><trkpt lat="44.83839888836145" lon="11.483484451675384"><ele>12.0</ele><time>2026-03-24T17:20:06.999Z</time></trkpt><trkpt lat="44.83833278759577" lon="11.483336783580238"><ele>13.0</ele><time>2026-03-24T17:20:07.999Z</time></trkpt><trkpt lat="44.83826577607625" lon="11.483185371084472"><ele>14.0</ele><time>2026-03-24T17:20:08.999Z</time></trkpt><trkpt lat="44.83819423288819" lon="11.483033522141065"><ele>15.0</ele><time>2026-03-24T17:20:09.999Z</time></trkpt><trkpt lat="44.83812390798732" lon="11.48287762525861"><ele>16.0</ele><time>2026-03-24T17:20:10.999Z</time></trkpt><trkpt lat="44.83805085400862" lon="11.482719754600643"><ele>16.0</ele><time>2026-03-24T17:20:11.999Z</time></trkpt><trkpt lat="44.83797462072023" lon="11.482562502415078"><ele>16.0</ele><time>2026-03-24T17:20:12.999Z</time></trkpt><trkpt lat="44.83789195253806" lon="11.482408259425931"><ele>16.0</ele><time>2026-03-24T17:20:13.999Z</time></trkpt><trkpt lat="44.83780966587935" lon="11.482249011392497"><ele>16.0</ele><time>2026-03-24T17:20:14.999Z</time></trkpt><trkpt lat="44.837724202819274" lon="11.482091355870264"><ele>15.25</ele><time>2026-03-24T17:20:15.999Z</time></trkpt><trkpt lat="44.83763466886342" lon="11.481938752474122"><ele>14.5</ele><time>2026-03-24T17:20:16.999Z</time></trkpt><trkpt lat="44.83755058695643" lon="11.481787800314322"><ele>13.75</ele><time>2026-03-24T17:20:17.999Z</time></trkpt><trkpt lat="44.83746302122574" lon="11.481637614202864"><ele>13.0</ele><time>2026-03-24T17:20:18.999Z</time></trkpt><trkpt lat="44.83736852576677" lon="11.481484372207078"><ele>13.0</ele><time>2026-03-24T17:20:19.999Z</time></trkpt><trkpt lat="44.837283811015396" lon="11.481340280059367"><ele>13.0</ele><time>2026-03-24T17:20:21Z</time></trkpt><trkpt lat="44.83719792948977" lon="11.481196141283405"><ele>13.0</ele><time>2026-03-24T17:20:22Z</time></trkpt><trkpt lat="44.83710902392949" lon="11.481048934405568"><ele>13.0</ele><time>2026-03-24T17:20:23Z</time></trkpt><trkpt lat="44.837016685220114" lon="11.480903347847777"><ele>13.0</ele><time>2026-03-24T17:20:24Z</time></trkpt><trkpt lat="44.83692218827196" lon="11.480755050048865"><ele>13.0</ele><time>2026-03-24T17:20:25Z</time></trkpt><trkpt lat="44.83683038008857" lon="11.480607850328573"><ele>13.0</ele><time>2026-03-24T17:20:26Z</time></trkpt><trkpt lat="44.83673910407822" lon="11.480463753266738"><ele>13.0</ele><time>2026-03-24T17:20:27Z</time></trkpt><trkpt lat="44.83665101739623" lon="11.480321227988357"><ele>13.0</ele><time>2026-03-24T17:20:28Z</time></trkpt><trkpt lat="44.836561095044175" lon="11.48017965395983"><ele>13.0</ele><time>2026-03-24T17:20:29Z</time></trkpt><trkpt lat="44.83646806065047" lon="11.480036994023934"><ele>13.0</ele><time>2026-03-24T17:20:30Z</time></trkpt><trkpt lat="44.83637957012426" lon="11.47989689312828"><ele>13.0</ele><time>2026-03-24T17:20:31Z</time></trkpt><trkpt lat="44.83629283679593" lon="11.479755283468325"><ele>13.0</ele><time>2026-03-24T17:20:32Z</time></trkpt><trkpt lat="44.83620880134328" lon="11.47961570975177"><ele>13.0</ele><time>2026-03-24T17:20:33Z</time></trkpt><trkpt lat="44.836127041698845" lon="11.479480401489429"><ele>13.0</ele><time>2026-03-24T17:20:34Z</time></trkpt><trkpt lat="44.83604174242064" lon="11.479339941357884"><ele>13.0</ele><time>2026-03-24T17:20:35Z</time></trkpt><trkpt lat="44.83596057545385" lon="11.479198630586763"><ele>13.0</ele><time>2026-03-24T17:20:36Z</time></trkpt><trkpt lat="44.83588258776294" lon="11.479057726744717"><ele>13.0</ele><time>2026-03-24T17:20:37Z</time></trkpt><trkpt lat="44.835806554907265" lon="11.478915514483187"><ele>13.0</ele><time>2026-03-24T17:20:38Z</time></trkpt><trkpt lat="44.83572665063884" lon="11.478771053145113"><ele>13.0</ele><time>2026-03-24T17:20:39Z</time></trkpt><trkpt lat="44.83564691663244" lon="11.4786222492896"><ele>13.0</ele><time>2026-03-24T17:20:40Z</time></trkpt><trkpt lat="44.83556758699071" lon="11.478474405316199"><ele>13.0</ele><time>2026-03-24T17:20:41Z</time></trkpt><trkpt lat="44.835495957766675" lon="11.478335001232486"><ele>13.0</ele><time>2026-03-24T17:20:42Z</time></trkpt><trkpt lat="44.8354214613341" lon="11.478194637866006"><ele>13.0</ele><time>2026-03-24T17:20:43Z</time></trkpt><trkpt lat="44.835349760409414" lon="11.478057273412801"><ele>13.0</ele><time>2026-03-24T17:20:44Z</time></trkpt><trkpt lat="44.83528260977979" lon="11.47792752460264"><ele>13.0</ele><time>2026-03-24T17:20:45Z</time></trkpt><trkpt lat="44.83521828649071" lon="11.477798472449564"><ele>13.0</ele><time>2026-03-24T17:20:46Z</time></trkpt><trkpt lat="44.83515429249671" lon="11.477669226571201"><ele>13.0</ele><time>2026-03-24T17:20:47Z</time></trkpt><trkpt lat="44.83509102938364" lon="11.477538418684965"><ele>13.0</ele><time>2026-03-24T17:20:48Z</time></trkpt><trkpt lat="44.83502729171922" lon="11.477402346015404"><ele>13.0</ele><time>2026-03-24T17:20:49Z</time></trkpt><trkpt lat="44.83496353804704" lon="11.4772684683126"><ele>13.0</ele><time>2026-03-24T17:20:50Z</time></trkpt><trkpt lat="44.83489954896516" lon="11.47713133258569"><ele>13.0</ele><time>2026-03-24T17:20:51Z</time></trkpt><trkpt lat="44.83483576247795" lon="11.476991493999693"><ele>13.5</ele><time>2026-03-24T17:20:52Z</time></trkpt><trkpt lat="44.834772837566575" lon="11.476847001930919"><ele>14.0</ele><time>2026-03-24T17:20:53Z</time></trkpt><trkpt lat="44.83471168477697" lon="11.476699959513635"><ele>14.5</ele><time>2026-03-24T17:20:54Z</time></trkpt><trkpt lat="44.83465257759415" lon="11.476552817273628"><ele>15.0</ele><time>2026-03-24T17:20:55Z</time></trkpt><trkpt lat="44.83459716775534" lon="11.476403530810314"><ele>14.8</ele><time>2026-03-24T17:20:56Z</time></trkpt><trkpt lat="44.83454443677934" lon="11.476263464079752"><ele>14.6</ele><time>2026-03-24T17:20:57Z</time></trkpt><trkpt lat="44.834493812981506" lon="11.476124592474227"><ele>14.399999999999999</ele><time>2026-03-24T17:20:58Z</time></trkpt><trkpt lat="44.83444515695409" lon="11.475984275490292"><ele>14.2</ele><time>2026-03-24T17:20:59Z</time></trkpt><trkpt lat="44.834391419041346" lon="11.475848808855838"><ele>14.0</ele><time>2026-03-24T17:21:00Z</time></trkpt><trkpt lat="44.834340602444485" lon="11.475710104520525"><ele>14.0</ele><time>2026-03-24T17:21:01Z</time></trkpt><trkpt lat="44.834289516556794" lon="11.475572247061237"><ele>13.999999999999998</ele><time>2026-03-24T17:21:02Z</time></trkpt><trkpt lat="44.83423968610444" lon="11.475433212795904"><ele>13.999999999999998</ele><time>2026-03-24T17:21:03Z</time></trkpt><trkpt lat="44.834191330676255" lon="11.475297575982514"><ele>14.0</ele><time>2026-03-24T17:21:04Z</time></trkpt><trkpt lat="44.83414354335148" lon="11.475162093164423"><ele>14.0</ele><time>2026-03-24T17:21:05Z</time></trkpt><trkpt lat="44.83409563543333" lon="11.475025706282283"><ele>14.2</ele><time>2026-03-24T17:21:06Z</time></trkpt><trkpt lat="44.83404545037607" lon="11.474883055908165"><ele>14.399999999999999</ele><time>2026-03-24T17:21:07Z</time></trkpt><trkpt lat="44.833993957793474" lon="11.474738297219293"><ele>14.6</ele><time>2026-03-24T17:21:08Z</time></trkpt><trkpt lat="44.833944769420654" lon="11.47460220326211"><ele>14.8</ele><time>2026-03-24T17:21:09Z</time></trkpt><trkpt lat="44.833900362836125" lon="11.474475562923775"><ele>15.0</ele><time>2026-03-24T17:21:10Z</time></trkpt><trkpt lat="44.833854220331745" lon="11.474350421271335"><ele>15.0</ele><time>2026-03-24T17:21:11Z</time></trkpt><trkpt lat="44.83380697291561" lon="11.474223047488941"><ele>15.0</ele><time>2026-03-24T17:21:12Z</time></trkpt><trkpt lat="44.83376062103293" lon="11.474095585962482"><ele>15.0</ele><time>2026-03-24T17:21:13Z</time></trkpt><trkpt lat="44.833714846317626" lon="11.47397037545695"><ele>15.0</ele><time>2026-03-24T17:21:14Z</time></trkpt><trkpt lat="44.83367145192182" lon="11.473838169566067"><ele>15.0</ele><time>2026-03-24T17:21:15Z</time></trkpt><trkpt lat="44.83362340965985" lon="11.47370588945901"><ele>14.75</ele><time>2026-03-24T17:21:15.999Z</time></trkpt><trkpt lat="44.83356577217091" lon="11.473566126303187"><ele>14.5</ele><time>2026-03-24T17:21:16.999Z</time></trkpt><trkpt lat="44.83351527647569" lon="11.473426921890791"><ele>14.25</ele><time>2026-03-24T17:21:17.999Z</time></trkpt><trkpt lat="44.83346146091093" lon="11.473284685452548"><ele>14.0</ele><time>2026-03-24T17:21:18.999Z</time></trkpt><trkpt lat="44.833405895337194" lon="11.473143597073557"><ele>14.0</ele><time>2026-03-24T17:21:19.999Z</time></trkpt><trkpt lat="44.83335139107035" lon="11.473002843222382"><ele>13.999999999999998</ele><time>2026-03-24T17:21:20.999Z</time></trkpt><trkpt lat="44.83329811922484" lon="11.472871451561232"><ele>13.999999999999998</ele><time>2026-03-24T17:21:21.999Z</time></trkpt><trkpt lat="44.83324086646064" lon="11.472738370314852"><ele>14.0</ele><time>2026-03-24T17:21:22.999Z</time></trkpt><trkpt lat="44.833183341245004" lon="11.472601417405516"><ele>14.0</ele><time>2026-03-24T17:21:23.999Z</time></trkpt><trkpt lat="44.83312785592026" lon="11.47246372205311"><ele>14.0</ele><time>2026-03-24T17:21:24.999Z</time></trkpt><trkpt lat="44.83307091784874" lon="11.472331104653446"><ele>13.999999999999998</ele><time>2026-03-24T17:21:25.999Z</time></trkpt><trkpt lat="44.833018501451" lon="11.47220940911193"><ele>13.999999999999998</ele><time>2026-03-24T17:21:26.999Z</time></trkpt><trkpt lat="44.83296380428997" lon="11.472090443037144"><ele>14.0</ele><time>2026-03-24T17:21:27.999Z</time></trkpt><trkpt lat="44.83290891700487" lon="11.471980657169224"><ele>14.0</ele><time>2026-03-24T17:21:28.999Z</time></trkpt><trkpt lat="44.83285488601686" lon="11.47188594270503"><ele>14.166666666666668</ele><time>2026-03-24T17:21:29.999Z</time></trkpt><trkpt lat="44.832808946614456" lon="11.471803092650807"><ele>14.333333333333334</ele><time>2026-03-24T17:21:30.999Z</time></trkpt><trkpt lat="44.83276860209389" lon="11.471726162264332"><ele>14.5</ele><time>2026-03-24T17:21:31.999Z</time></trkpt><trkpt lat="44.83273306331203" lon="11.471647957317222"><ele>14.666666666666668</ele><time>2026-03-24T17:21:32.999Z</time></trkpt><trkpt lat="44.832635239887644" lon="11.471553805899553"><ele>14.833333333333334</ele><time>2026-03-24T17:21:34.999Z</time></trkpt><trkpt lat="44.832570470779395" lon="11.471557041441997"><ele>15.0</ele><time>2026-03-24T17:21:35.999Z</time></trkpt><trkpt lat="44.83250234558301" lon="11.471592697256176"><ele>15.0</ele><time>2026-03-24T17:21:36.999Z</time></trkpt><trkpt lat="44.83243202264961" lon="11.471658440498578"><ele>15.0</ele><time>2026-03-24T17:21:37.999Z</time></trkpt><trkpt lat="44.83235647587469" lon="11.471740780799038"><ele>15.0</ele><time>2026-03-24T17:21:38.999Z</time></trkpt><trkpt lat="44.832268843686066" lon="11.471814966613318"><ele>15.0</ele><time>2026-03-24T17:21:39.999Z</time></trkpt><trkpt lat="44.83217129179336" lon="11.471905558762964"><ele>15.0</ele><time>2026-03-24T17:21:40.999Z</time></trkpt><trkpt lat="44.832062023753366" lon="11.472005769891437"><ele>15.0</ele><time>2026-03-24T17:21:41.999Z</time></trkpt><trkpt lat="44.83194367792228" lon="11.472112917711092"><ele>15.0</ele><time>2026-03-24T17:21:42.999Z</time></trkpt><trkpt lat="44.831814837472194" lon="11.47222950032617"><ele>15.0</ele><time>2026-03-24T17:21:43.999Z</time></trkpt><trkpt lat="44.83168348956627" lon="11.47234741139358"><ele>15.0</ele><time>2026-03-24T17:21:44.999Z</time></trkpt><trkpt lat="44.83154852629463" lon="11.472470200963778"><ele>14.666666666666668</ele><time>2026-03-24T17:21:45.999Z</time></trkpt><trkpt lat="44.83141122573685" lon="11.472600201317935"><ele>14.333333333333334</ele><time>2026-03-24T17:21:46.999Z</time></trkpt><trkpt lat="44.831266895685104" lon="11.472732796596944"><ele>14.0</ele><time>2026-03-24T17:21:47.999Z</time></trkpt><trkpt lat="44.8311219439315" lon="11.472866477297362"><ele>14.0</ele><time>2026-03-24T17:21:48.999Z</time></trkpt><trkpt lat="44.83097960496205" lon="11.472999183789431"><ele>14.0</ele><time>2026-03-24T17:21:49.999Z</time></trkpt><trkpt lat="44.830832166890374" lon="11.473135389483602"><ele>14.0</ele><time>2026-03-24T17:21:50.999Z</time></trkpt><trkpt lat="44.8306854140567" lon="11.47327568056188"><ele>13.333333333333334</ele><time>2026-03-24T17:21:51.999Z</time></trkpt><trkpt lat="44.83053591244341" lon="11.473417156796527"><ele>12.666666666666668</ele><time>2026-03-24T17:21:52.999Z</time></trkpt><trkpt lat="44.830382187762176" lon="11.473558453409256"><ele>12.0</ele><time>2026-03-24T17:21:53.999Z</time></trkpt><trkpt lat="44.83022598894153" lon="11.473701982887626"><ele>12.0</ele><time>2026-03-24T17:21:54.999Z</time></trkpt><trkpt lat="44.8300663178825" lon="11.473850497647446"><ele>12.0</ele><time>2026-03-24T17:21:55.999Z</time></trkpt><trkpt lat="44.82990542319981" lon="11.473999101294476"><ele>12.0</ele><time>2026-03-24T17:21:56.999Z</time></trkpt><trkpt lat="44.82973795298997" lon="11.474154522382534"><ele>12.0</ele><time>2026-03-24T17:21:57.999Z</time></trkpt><trkpt lat="44.82956606107001" lon="11.474315923434219"><ele>12.0</ele><time>2026-03-24T17:21:58.999Z</time></trkpt><trkpt lat="44.82939368551507" lon="11.474473604894934"><ele>12.0</ele><time>2026-03-24T17:21:59.999Z</time></trkpt><trkpt lat="44.82922283502634" lon="11.47463534360212"><ele>12.0</ele><time>2026-03-24T17:22:00.999Z</time></trkpt><trkpt lat="44.829055383912" lon="11.474789230353764"><ele>12.0</ele><time>2026-03-24T17:22:01.999Z</time></trkpt><trkpt lat="44.828889082897675" lon="11.474941914436396"><ele>12.0</ele><time>2026-03-24T17:22:02.999Z</time></trkpt><trkpt lat="44.82872479357912" lon="11.475094822039752"><ele>12.0</ele><time>2026-03-24T17:22:03.999Z</time></trkpt><trkpt lat="44.82855812491049" lon="11.475249424285467"><ele>12.0</ele><time>2026-03-24T17:22:04.999Z</time></trkpt><trkpt lat="44.828388558439975" lon="11.47539709919936"><ele>12.0</ele><time>2026-03-24T17:22:05.999Z</time></trkpt><trkpt lat="44.82821599926877" lon="11.475547596515247"><ele>11.333333333333334</ele><time>2026-03-24T17:22:06.999Z</time></trkpt><trkpt lat="44.828043912446056" lon="11.475705735377968"><ele>10.666666666666668</ele><time>2026-03-24T17:22:07.999Z</time></trkpt><trkpt lat="44.827868748570644" lon="11.47586682631251"><ele>10.0</ele><time>2026-03-24T17:22:08.999Z</time></trkpt><trkpt lat="44.82769323929369" lon="11.476025624046834"><ele>10.333333333333334</ele><time>2026-03-24T17:22:09.999Z</time></trkpt><trkpt lat="44.827514746962486" lon="11.476187524774803"><ele>10.666666666666666</ele><time>2026-03-24T17:22:10.999Z</time></trkpt><trkpt lat="44.82733467806151" lon="11.476351650754353"><ele>11.0</ele><time>2026-03-24T17:22:11.999Z</time></trkpt><trkpt lat="44.82715229475017" lon="11.476514378383046"><ele>11.0</ele><time>2026-03-24T17:22:12.999Z</time></trkpt><trkpt lat="44.82697214700172" lon="11.476680252081302"><ele>11.0</ele><time>2026-03-24T17:22:13.999Z</time></trkpt><trkpt lat="44.826791209848864" lon="11.476843660953469"><ele>11.0</ele><time>2026-03-24T17:22:14.999Z</time></trkpt><trkpt lat="44.8266116533277" lon="11.477012880404148"><ele>10.666666666666666</ele><time>2026-03-24T17:22:15.999Z</time></trkpt><trkpt lat="44.826429994846336" lon="11.477181142063923"><ele>10.333333333333334</ele><time>2026-03-24T17:22:16.999Z</time></trkpt><trkpt lat="44.82625173159479" lon="11.4773522186095"><ele>10.0</ele><time>2026-03-24T17:22:17.999Z</time></trkpt><trkpt lat="44.8260713573274" lon="11.477512610566572"><ele>9.666666666666668</ele><time>2026-03-24T17:22:18.999Z</time></trkpt><trkpt lat="44.82589331447756" lon="11.477680142196911"><ele>9.333333333333334</ele><time>2026-03-24T17:22:19.999Z</time></trkpt><trkpt lat="44.8257135681223" lon="11.47784789375582"><ele>9.0</ele><time>2026-03-24T17:22:20.999Z</time></trkpt><trkpt lat="44.825534799296875" lon="11.47801714975536"><ele>9.0</ele><time>2026-03-24T17:22:21.999Z</time></trkpt><trkpt lat="44.825357029055866" lon="11.478182569901"><ele>9.0</ele><time>2026-03-24T17:22:22.999Z</time></trkpt><trkpt lat="44.82518123481556" lon="11.478351522097535"><ele>9.0</ele><time>2026-03-24T17:22:23.999Z</time></trkpt><trkpt lat="44.82500201121708" lon="11.478518818517724"><ele>8.666666666666666</ele><time>2026-03-24T17:22:24.999Z</time></trkpt><trkpt lat="44.82482909625987" lon="11.478679551816075"><ele>8.333333333333332</ele><time>2026-03-24T17:22:25.999Z</time></trkpt><trkpt lat="44.824663736092205" lon="11.47883153992969"><ele>8.0</ele><time>2026-03-24T17:22:27Z</time></trkpt><trkpt lat="44.82449670991734" lon="11.47895025160172"><ele>8.666666666666666</ele><time>2026-03-24T17:22:28Z</time></trkpt><trkpt lat="44.82432468838048" lon="11.479050438681385"><ele>9.333333333333334</ele><time>2026-03-24T17:22:29Z</time></trkpt><trkpt lat="44.824143505143674" lon="11.479131322712556"><ele>10.0</ele><time>2026-03-24T17:22:30Z</time></trkpt><trkpt lat="44.8239585458956" lon="11.479192159816723"><ele>10.333333333333334</ele><time>2026-03-24T17:22:31Z</time></trkpt><trkpt lat="44.82377053067549" lon="11.479235185030667"><ele>10.666666666666666</ele><time>2026-03-24T17:22:32Z</time></trkpt><trkpt lat="44.82358035780443" lon="11.479248470273847"><ele>11.0</ele><time>2026-03-24T17:22:33Z</time></trkpt><trkpt lat="44.82338690665166" lon="11.479236357616784"><ele>11.0</ele><time>2026-03-24T17:22:34Z</time></trkpt><trkpt lat="44.82318939896963" lon="11.479197732992333"><ele>11.0</ele><time>2026-03-24T17:22:35Z</time></trkpt><trkpt lat="44.82299020300103" lon="11.47914714566784"><ele>11.0</ele><time>2026-03-24T17:22:36Z</time></trkpt><trkpt lat="44.8228001100676" lon="11.479046942327832"><ele>10.333333333333332</ele><time>2026-03-24T17:22:37Z</time></trkpt><trkpt lat="44.82261929853895" lon="11.478965872511148"><ele>9.666666666666666</ele><time>2026-03-24T17:22:38Z</time></trkpt><trkpt lat="44.822426651186184" lon="11.47887764847471"><ele>9.0</ele><time>2026-03-24T17:22:39Z</time></trkpt><trkpt lat="44.822230147070876" lon="11.478824368029514"><ele>9.0</ele><time>2026-03-24T17:22:40Z</time></trkpt><trkpt lat="44.822039111765136" lon="11.478771460591476"><ele>9.0</ele><time>2026-03-24T17:22:41Z</time></trkpt><trkpt lat="44.82184943438772" lon="11.478746199792845"><ele>9.0</ele><time>2026-03-24T17:22:42Z</time></trkpt><trkpt lat="44.821655453118815" lon="11.47875008567807"><ele>8.666666666666666</ele><time>2026-03-24T17:22:43Z</time></trkpt><trkpt lat="44.82146335704821" lon="11.478779537278381"><ele>8.333333333333332</ele><time>2026-03-24T17:22:44Z</time></trkpt><trkpt lat="44.82127027205298" lon="11.478831178700787"><ele>8.0</ele><time>2026-03-24T17:22:45Z</time></trkpt><trkpt lat="44.82107909453275" lon="11.478903176612315"><ele>8.0</ele><time>2026-03-24T17:22:46Z</time></trkpt><trkpt lat="44.820889364930395" lon="11.479000341576485"><ele>8.0</ele><time>2026-03-24T17:22:47Z</time></trkpt><trkpt lat="44.820707830378716" lon="11.479121481179646"><ele>8.0</ele><time>2026-03-24T17:22:48Z</time></trkpt><trkpt lat="44.82053384176566" lon="11.479266447559661"><ele>8.0</ele><time>2026-03-24T17:22:49Z</time></trkpt><trkpt lat="44.8203673922009" lon="11.479432629125162"><ele>8.0</ele><time>2026-03-24T17:22:50Z</time></trkpt><trkpt lat="44.820209995091325" lon="11.479621693362912"><ele>8.0</ele><time>2026-03-24T17:22:51Z</time></trkpt><trkpt lat="44.820065276961905" lon="11.479833227691042"><ele>8.333333333333332</ele><time>2026-03-24T17:22:52Z</time></trkpt><trkpt lat="44.81993512895646" lon="11.480066750408508"><ele>8.666666666666666</ele><time>2026-03-24T17:22:53Z</time></trkpt><trkpt lat="44.81981666644902" lon="11.48031811004981"><ele>9.0</ele><time>2026-03-24T17:22:54Z</time></trkpt><trkpt lat="44.8197073310765" lon="11.480584756093338"><ele>9.5</ele><time>2026-03-24T17:22:55Z</time></trkpt><trkpt lat="44.81960011375047" lon="11.480863791130977"><ele>10.0</ele><time>2026-03-24T17:22:56Z</time></trkpt><trkpt lat="44.81948968713073" lon="11.481142487233713"><ele>10.0</ele><time>2026-03-24T17:22:57Z</time></trkpt><trkpt lat="44.819373931641664" lon="11.481422333073686"><ele>10.0</ele><time>2026-03-24T17:22:58Z</time></trkpt><trkpt lat="44.81925796769019" lon="11.481708642273938"><ele>9.5</ele><time>2026-03-24T17:22:59Z</time></trkpt><trkpt lat="44.81913958673937" lon="11.482000841816316"><ele>9.0</ele><time>2026-03-24T17:23:00Z</time></trkpt><trkpt lat="44.8190214745164" lon="11.482291501918967"><ele>9.0</ele><time>2026-03-24T17:23:01Z</time></trkpt><trkpt lat="44.81890307434186" lon="11.48258405386306"><ele>9.0</ele><time>2026-03-24T17:23:02Z</time></trkpt><trkpt lat="44.81878677257217" lon="11.482875778037592"><ele>9.5</ele><time>2026-03-24T17:23:03Z</time></trkpt><trkpt lat="44.81866869712104" lon="11.48316824836496"><ele>10.0</ele><time>2026-03-24T17:23:04Z</time></trkpt><trkpt lat="44.81855121117993" lon="11.48346199805213"><ele>10.0</ele><time>2026-03-24T17:23:05Z</time></trkpt><trkpt lat="44.81843272987828" lon="11.483753149593856"><ele>10.0</ele><time>2026-03-24T17:23:06Z</time></trkpt><trkpt lat="44.81832559096906" lon="11.484017205769742"><ele>10.0</ele><time>2026-03-24T17:23:07Z</time></trkpt><trkpt lat="44.81822422304224" lon="11.484261365863603"><ele>10.0</ele><time>2026-03-24T17:23:08Z</time></trkpt><trkpt lat="44.81812784270492" lon="11.48449318310656"><ele>10.0</ele><time>2026-03-24T17:23:09Z</time></trkpt><trkpt lat="44.81803442837499" lon="11.484717350530731"><ele>10.0</ele><time>2026-03-24T17:23:10Z</time></trkpt><trkpt lat="44.81794556663679" lon="11.484934186786067"><ele>10.0</ele><time>2026-03-24T17:23:11Z</time></trkpt><trkpt lat="44.817859068323585" lon="11.485147645139218"><ele>10.0</ele><time>2026-03-24T17:23:12Z</time></trkpt><trkpt lat="44.81777251083889" lon="11.485359197660172"><ele>10.0</ele><time>2026-03-24T17:23:13Z</time></trkpt><trkpt lat="44.81768604834033" lon="11.485574131965548"><ele>10.0</ele><time>2026-03-24T17:23:14Z</time></trkpt><trkpt lat="44.817601283401544" lon="11.485790898318324"><ele>10.0</ele><time>2026-03-24T17:23:15Z</time></trkpt><trkpt lat="44.81751548511606" lon="11.486007010353493"><ele>10.0</ele><time>2026-03-24T17:23:16Z</time></trkpt><trkpt lat="44.817431862142314" lon="11.486214070049954"><ele>10.0</ele><time>2026-03-24T17:23:17Z</time></trkpt><trkpt lat="44.81735505338492" lon="11.48640563403232"><ele>10.0</ele><time>2026-03-24T17:23:18Z</time></trkpt><trkpt lat="44.81727500287644" lon="11.486599032650014"><ele>9.75</ele><time>2026-03-24T17:23:19Z</time></trkpt><trkpt lat="44.81718372399175" lon="11.486779778657258"><ele>9.5</ele><time>2026-03-24T17:23:19.999Z</time></trkpt><trkpt lat="44.81708010449009" lon="11.486931530354322"><ele>9.25</ele><time>2026-03-24T17:23:20.999Z</time></trkpt><trkpt lat="44.81696576198924" lon="11.487049727105639"><ele>9.0</ele><time>2026-03-24T17:23:21.999Z</time></trkpt><trkpt lat="44.81683311480762" lon="11.487137738454575"><ele>9.0</ele><time>2026-03-24T17:23:22.999Z</time></trkpt><trkpt lat="44.81668685796216" lon="11.487197028979303"><ele>9.0</ele><time>2026-03-24T17:23:23.999Z</time></trkpt><trkpt lat="44.81653635022958" lon="11.487215410929544"><ele>9.0</ele><time>2026-03-24T17:23:24.999Z</time></trkpt><trkpt lat="44.816387050357605" lon="11.487200677054648"><ele>9.0</ele><time>2026-03-24T17:23:25.999Z</time></trkpt><trkpt lat="44.816243078955495" lon="11.487149843654494"><ele>9.0</ele><time>2026-03-24T17:23:26.999Z</time></trkpt><trkpt lat="44.81610370907463" lon="11.48705558881623"><ele>9.0</ele><time>2026-03-24T17:23:27.999Z</time></trkpt><trkpt lat="44.815971846667765" lon="11.486931514082167"><ele>9.0</ele><time>2026-03-24T17:23:28.999Z</time></trkpt><trkpt lat="44.81584105940547" lon="11.48676880594157"><ele>9.0</ele><time>2026-03-24T17:23:29.999Z</time></trkpt><trkpt lat="44.815710559089474" lon="11.486590485368874"><ele>9.0</ele><time>2026-03-24T17:23:30.999Z</time></trkpt><trkpt lat="44.815575189728264" lon="11.48639635913353"><ele>9.0</ele><time>2026-03-24T17:23:31.999Z</time></trkpt><trkpt lat="44.81543883366239" lon="11.486204253121766"><ele>9.0</ele><time>2026-03-24T17:23:32.999Z</time></trkpt><trkpt lat="44.81529975664452" lon="11.486012957843219"><ele>9.0</ele><time>2026-03-24T17:23:33.999Z</time></trkpt><trkpt lat="44.815157543660234" lon="11.485818830707432"><ele>9.0</ele><time>2026-03-24T17:23:34.999Z</time></trkpt><trkpt lat="44.81501801479634" lon="11.485625242355137"><ele>9.0</ele><time>2026-03-24T17:23:35.999Z</time></trkpt><trkpt lat="44.81489576914834" lon="11.485452938801897"><ele>9.0</ele><time>2026-03-24T17:23:36.999Z</time></trkpt><trkpt lat="44.81476349102848" lon="11.485273718377746"><ele>9.0</ele><time>2026-03-24T17:23:37.999Z</time></trkpt><trkpt lat="44.81462475468859" lon="11.485088224765594"><ele>9.0</ele><time>2026-03-24T17:23:38.999Z</time></trkpt><trkpt lat="44.81448335818517" lon="11.484895484056732"><ele>9.0</ele><time>2026-03-24T17:23:39.999Z</time></trkpt><trkpt lat="44.814343474525344" lon="11.484692690556638"><ele>8.666666666666666</ele><time>2026-03-24T17:23:40.999Z</time></trkpt><trkpt lat="44.81419342932843" lon="11.4844841570895"><ele>8.333333333333332</ele><time>2026-03-24T17:23:41.999Z</time></trkpt><trkpt lat="44.814035342482875" lon="11.484268297767484"><ele>8.0</ele><time>2026-03-24T17:23:42.999Z</time></trkpt><trkpt lat="44.81386639967616" lon="11.484036925115863"><ele>8.0</ele><time>2026-03-24T17:23:43.999Z</time></trkpt><trkpt lat="44.81368772185022" lon="11.483788196188003"><ele>8.0</ele><time>2026-03-24T17:23:44.999Z</time></trkpt><trkpt lat="44.81350049613219" lon="11.483532095698"><ele>8.5</ele><time>2026-03-24T17:23:45.999Z</time></trkpt><trkpt lat="44.813307606394005" lon="11.483268905358452"><ele>9.0</ele><time>2026-03-24T17:23:46.999Z</time></trkpt><trkpt lat="44.81310373214149" lon="11.482989399610473"><ele>8.5</ele><time>2026-03-24T17:23:47.999Z</time></trkpt><trkpt lat="44.81289630644881" lon="11.48270305081414"><ele>8.0</ele><time>2026-03-24T17:23:48.999Z</time></trkpt><trkpt lat="44.81270205294177" lon="11.482433945531627"><ele>8.5</ele><time>2026-03-24T17:23:49.999Z</time></trkpt><trkpt lat="44.812510674851104" lon="11.482171831096855"><ele>9.0</ele><time>2026-03-24T17:23:50.999Z</time></trkpt><trkpt lat="44.81232035130339" lon="11.481911557919412"><ele>9.0</ele><time>2026-03-24T17:23:51.999Z</time></trkpt><trkpt lat="44.81213150191291" lon="11.481648855853761"><ele>9.0</ele><time>2026-03-24T17:23:52.999Z</time></trkpt><trkpt lat="44.81194479652648" lon="11.481388927158926"><ele>8.0</ele><time>2026-03-24T17:23:53.999Z</time></trkpt><trkpt lat="44.81175892314312" lon="11.481131448952484"><ele>7.0</ele><time>2026-03-24T17:23:54.999Z</time></trkpt><trkpt lat="44.81156822079494" lon="11.480875084709204"><ele>7.0</ele><time>2026-03-24T17:23:55.999Z</time></trkpt><trkpt lat="44.81137605445867" lon="11.48061343099665"><ele>7.0</ele><time>2026-03-24T17:23:56.999Z</time></trkpt><trkpt lat="44.81118835772562" lon="11.480349697638625"><ele>7.5</ele><time>2026-03-24T17:23:57.999Z</time></trkpt><trkpt lat="44.81099397838391" lon="11.48008301133255"><ele>8.0</ele><time>2026-03-24T17:23:58.999Z</time></trkpt><trkpt lat="44.81079816133428" lon="11.479814814795352"><ele>8.5</ele><time>2026-03-24T17:23:59.999Z</time></trkpt><trkpt lat="44.810602401884005" lon="11.479543206052035"><ele>9.0</ele><time>2026-03-24T17:24:00.999Z</time></trkpt><trkpt lat="44.81040609984248" lon="11.479272441030096"><ele>9.0</ele><time>2026-03-24T17:24:01.999Z</time></trkpt><trkpt lat="44.81021962201926" lon="11.478983523843555"><ele>9.0</ele><time>2026-03-24T17:24:02.999Z</time></trkpt><trkpt lat="44.81002411265656" lon="11.478712094390575"><ele>8.5</ele><time>2026-03-24T17:24:03.999Z</time></trkpt><trkpt lat="44.80984224260364" lon="11.478459600683836"><ele>8.0</ele><time>2026-03-24T17:24:04.999Z</time></trkpt><trkpt lat="44.809663185998176" lon="11.478238604390734"><ele>8.0</ele><time>2026-03-24T17:24:05.999Z</time></trkpt><trkpt lat="44.809502405195225" lon="11.478014052197597"><ele>8.0</ele><time>2026-03-24T17:24:06.999Z</time></trkpt><trkpt lat="44.80934427409936" lon="11.477793574665526"><ele>8.0</ele><time>2026-03-24T17:24:07.999Z</time></trkpt><trkpt lat="44.80918512342064" lon="11.477581765229269"><ele>8.0</ele><time>2026-03-24T17:24:08.999Z</time></trkpt><trkpt lat="44.80903711075225" lon="11.477367955394595"><ele>8.0</ele><time>2026-03-24T17:24:09.999Z</time></trkpt><trkpt lat="44.808870203639025" lon="11.477185013810118"><ele>8.0</ele><time>2026-03-24T17:24:10.999Z</time></trkpt><trkpt lat="44.808689384314334" lon="11.477027545463486"><ele>8.0</ele><time>2026-03-24T17:24:11.999Z</time></trkpt><trkpt lat="44.808502818036935" lon="11.476893325571936"><ele>8.0</ele><time>2026-03-24T17:24:12.999Z</time></trkpt><trkpt lat="44.80830769784378" lon="11.476786924025799"><ele>8.0</ele><time>2026-03-24T17:24:13.999Z</time></trkpt><trkpt lat="44.80810188070762" lon="11.47669960124215"><ele>8.0</ele><time>2026-03-24T17:24:14.999Z</time></trkpt><trkpt lat="44.807891807935604" lon="11.47664063666286"><ele>8.0</ele><time>2026-03-24T17:24:15.999Z</time></trkpt><trkpt lat="44.80768152253802" lon="11.476610098730188"><ele>8.0</ele><time>2026-03-24T17:24:16.999Z</time></trkpt><trkpt lat="44.807468387849774" lon="11.476607844043103"><ele>7.666666666666666</ele><time>2026-03-24T17:24:17.999Z</time></trkpt><trkpt lat="44.8072547614246" lon="11.476634010393152"><ele>7.333333333333334</ele><time>2026-03-24T17:24:18.999Z</time></trkpt><trkpt lat="44.80704274258205" lon="11.476685011624083"><ele>7.0</ele><time>2026-03-24T17:24:19.999Z</time></trkpt><trkpt lat="44.8068373331552" lon="11.47678483508945"><ele>7.0</ele><time>2026-03-24T17:24:20.999Z</time></trkpt><trkpt lat="44.806628378234635" lon="11.476865459498475"><ele>7.0</ele><time>2026-03-24T17:24:21.999Z</time></trkpt><trkpt lat="44.80643770075016" lon="11.477024395052922"><ele>7.0</ele><time>2026-03-24T17:24:22.999Z</time></trkpt><trkpt lat="44.806238033395864" lon="11.47718822656475"><ele>7.0</ele><time>2026-03-24T17:24:23.999Z</time></trkpt><trkpt lat="44.80600498276165" lon="11.477342477039693"><ele>7.0</ele><time>2026-03-24T17:24:24.999Z</time></trkpt><trkpt lat="44.805765467864354" lon="11.477529306882987"><ele>7.5</ele><time>2026-03-24T17:24:25.999Z</time></trkpt><trkpt lat="44.80550983215201" lon="11.47773118749226"><ele>8.0</ele><time>2026-03-24T17:24:26.999Z</time></trkpt><trkpt lat="44.80524437408717" lon="11.477940825478651"><ele>7.5</ele><time>2026-03-24T17:24:27.999Z</time></trkpt><trkpt lat="44.8049755020705" lon="11.478178435076076"><ele>7.0</ele><time>2026-03-24T17:24:28.999Z</time></trkpt><trkpt lat="44.80471886041431" lon="11.478380589391247"><ele>7.0</ele><time>2026-03-24T17:24:29.999Z</time></trkpt><trkpt lat="44.80447422835627" lon="11.47857283212026"><ele>7.0</ele><time>2026-03-24T17:24:30.999Z</time></trkpt><trkpt lat="44.80423157136196" lon="11.478762052919418"><ele>7.5</ele><time>2026-03-24T17:24:31.999Z</time></trkpt><trkpt lat="44.803995894485205" lon="11.47894699464516"><ele>8.0</ele><time>2026-03-24T17:24:33Z</time></trkpt><trkpt lat="44.8037604293723" lon="11.479132658883554"><ele>8.0</ele><time>2026-03-24T17:24:34Z</time></trkpt><trkpt lat="44.80352156923574" lon="11.479317134233835"><ele>8.0</ele><time>2026-03-24T17:24:35Z</time></trkpt><trkpt lat="44.80329538072814" lon="11.479494657624501"><ele>7.5</ele><time>2026-03-24T17:24:36Z</time></trkpt><trkpt lat="44.80305909100852" lon="11.479674723501926"><ele>7.0</ele><time>2026-03-24T17:24:37Z</time></trkpt><trkpt lat="44.80282674862715" lon="11.479854550075748"><ele>7.0</ele><time>2026-03-24T17:24:38Z</time></trkpt><trkpt lat="44.80259827722326" lon="11.480033850613614"><ele>7.0</ele><time>2026-03-24T17:24:39Z</time></trkpt><trkpt lat="44.802372143046846" lon="11.480213966945115"><ele>7.0</ele><time>2026-03-24T17:24:40Z</time></trkpt><trkpt lat="44.802147690412184" lon="11.480395578848057"><ele>7.0</ele><time>2026-03-24T17:24:41Z</time></trkpt><trkpt lat="44.801938719450966" lon="11.480560289830704"><ele>7.666666666666667</ele><time>2026-03-24T17:24:42Z</time></trkpt><trkpt lat="44.801746496920536" lon="11.480708412244283"><ele>8.333333333333334</ele><time>2026-03-24T17:24:43Z</time></trkpt><trkpt lat="44.80155410688211" lon="11.480858927182759"><ele>9.0</ele><time>2026-03-24T17:24:44Z</time></trkpt><trkpt lat="44.80135803621636" lon="11.48101711119779"><ele>9.0</ele><time>2026-03-24T17:24:45Z</time></trkpt><trkpt lat="44.80115385636784" lon="11.481178665007"><ele>9.0</ele><time>2026-03-24T17:24:46Z</time></trkpt><trkpt lat="44.800942671843885" lon="11.481346150366305"><ele>9.0</ele><time>2026-03-24T17:24:47Z</time></trkpt><trkpt lat="44.80072531788546" lon="11.481522842313"><ele>9.0</ele><time>2026-03-24T17:24:48Z</time></trkpt><trkpt lat="44.80050267626313" lon="11.48170206963908"><ele>9.0</ele><time>2026-03-24T17:24:49Z</time></trkpt><trkpt lat="44.80027476499971" lon="11.481884596198014"><ele>9.0</ele><time>2026-03-24T17:24:50Z</time></trkpt><trkpt lat="44.800038495708044" lon="11.482072536931238"><ele>9.0</ele><time>2026-03-24T17:24:51Z</time></trkpt><trkpt lat="44.799798612018286" lon="11.482264136078179"><ele>9.0</ele><time>2026-03-24T17:24:52Z</time></trkpt><trkpt lat="44.79957377564639" lon="11.482442296131925"><ele>9.0</ele><time>2026-03-24T17:24:53Z</time></trkpt><trkpt lat="44.799370865708894" lon="11.482604955071327"><ele>9.0</ele><time>2026-03-24T17:24:54Z</time></trkpt><trkpt lat="44.799185380057224" lon="11.482756455838343"><ele>9.0</ele><time>2026-03-24T17:24:55Z</time></trkpt><trkpt lat="44.79900256453571" lon="11.482904772469288"><ele>8.666666666666666</ele><time>2026-03-24T17:24:56Z</time></trkpt><trkpt lat="44.79881268340741" lon="11.483057308669913"><ele>8.333333333333332</ele><time>2026-03-24T17:24:57Z</time></trkpt><trkpt lat="44.798618135346224" lon="11.483214443069159"><ele>8.0</ele><time>2026-03-24T17:24:58Z</time></trkpt><trkpt lat="44.798423920345094" lon="11.483375192131012"><ele>8.0</ele><time>2026-03-24T17:24:59Z</time></trkpt><trkpt lat="44.798224097196275" lon="11.48353845446733"><ele>8.0</ele><time>2026-03-24T17:25:00Z</time></trkpt><trkpt lat="44.79801616724604" lon="11.483710295003341"><ele>8.0</ele><time>2026-03-24T17:25:01Z</time></trkpt><trkpt lat="44.797812762831484" lon="11.483881221344305"><ele>8.0</ele><time>2026-03-24T17:25:02Z</time></trkpt><trkpt lat="44.79760953100102" lon="11.484048469856521"><ele>7.5</ele><time>2026-03-24T17:25:03Z</time></trkpt><trkpt lat="44.79741307871164" lon="11.484210419220124"><ele>7.0</ele><time>2026-03-24T17:25:04Z</time></trkpt><trkpt lat="44.79722202875134" lon="11.484369833900512"><ele>7.0</ele><time>2026-03-24T17:25:05Z</time></trkpt><trkpt lat="44.79703722413028" lon="11.484522294299662"><ele>7.0</ele><time>2026-03-24T17:25:06Z</time></trkpt><trkpt lat="44.79685308448336" lon="11.484671961973035"><ele>7.0</ele><time>2026-03-24T17:25:07Z</time></trkpt><trkpt lat="44.796668182931434" lon="11.484824445673965"><ele>6.333333333333334</ele><time>2026-03-24T17:25:08Z</time></trkpt><trkpt lat="44.7964844646628" lon="11.484974510011506"><ele>5.666666666666667</ele><time>2026-03-24T17:25:09Z</time></trkpt><trkpt lat="44.796296774677224" lon="11.485128593579494"><ele>5.0</ele><time>2026-03-24T17:25:10Z</time></trkpt><trkpt lat="44.79610876373178" lon="11.485287792071112"><ele>6.0</ele><time>2026-03-24T17:25:11Z</time></trkpt><trkpt lat="44.795915527960474" lon="11.485448967087112"><ele>7.0</ele><time>2026-03-24T17:25:12Z</time></trkpt><trkpt lat="44.795718159578215" lon="11.485610898320953"><ele>7.0</ele><time>2026-03-24T17:25:13Z</time></trkpt><trkpt lat="44.79552179396171" lon="11.48576810112724"><ele>7.0</ele><time>2026-03-24T17:25:14Z</time></trkpt><trkpt lat="44.795336759942245" lon="11.485922189183775"><ele>7.0</ele><time>2026-03-24T17:25:15Z</time></trkpt><trkpt lat="44.79515654172355" lon="11.486071869010114"><ele>7.666666666666667</ele><time>2026-03-24T17:25:16Z</time></trkpt><trkpt lat="44.79497555623106" lon="11.486221048986742"><ele>8.333333333333334</ele><time>2026-03-24T17:25:17Z</time></trkpt><trkpt lat="44.79479464466207" lon="11.486371258532973"><ele>9.0</ele><time>2026-03-24T17:25:18Z</time></trkpt><trkpt lat="44.794612567363416" lon="11.486522044836494"><ele>9.0</ele><time>2026-03-24T17:25:19Z</time></trkpt><trkpt lat="44.794428939882394" lon="11.486673568159764"><ele>9.0</ele><time>2026-03-24T17:25:20Z</time></trkpt><trkpt lat="44.79424083788714" lon="11.486825330759247"><ele>9.0</ele><time>2026-03-24T17:25:21Z</time></trkpt><trkpt lat="44.794053462000285" lon="11.48697866302478"><ele>9.0</ele><time>2026-03-24T17:25:22Z</time></trkpt><trkpt lat="44.793867941784356" lon="11.487133828336935"><ele>9.0</ele><time>2026-03-24T17:25:23Z</time></trkpt><trkpt lat="44.793678200705074" lon="11.487289334930658"><ele>9.0</ele><time>2026-03-24T17:25:24Z</time></trkpt><trkpt lat="44.79348854955818" lon="11.48745032897091"><ele>9.0</ele><time>2026-03-24T17:25:24.999Z</time></trkpt><trkpt lat="44.79329698506141" lon="11.487612380015047"><ele>9.0</ele><time>2026-03-24T17:25:25.999Z</time></trkpt><trkpt lat="44.793110627287106" lon="11.487772031820755"><ele>9.0</ele><time>2026-03-24T17:25:26.999Z</time></trkpt><trkpt lat="44.79293744927738" lon="11.487928057436603"><ele>9.0</ele><time>2026-03-24T17:25:27.999Z</time></trkpt><trkpt lat="44.7927569101992" lon="11.48808316955288"><ele>9.0</ele><time>2026-03-24T17:25:28.999Z</time></trkpt><trkpt lat="44.792571775876134" lon="11.488233898245639"><ele>9.0</ele><time>2026-03-24T17:25:29.999Z</time></trkpt><trkpt lat="44.792387308751934" lon="11.48838474844489"><ele>8.666666666666666</ele><time>2026-03-24T17:25:30.999Z</time></trkpt><trkpt lat="44.79220044469742" lon="11.488533004341539"><ele>8.333333333333332</ele><time>2026-03-24T17:25:31.999Z</time></trkpt><trkpt lat="44.79201301734199" lon="11.48868230877141"><ele>8.0</ele><time>2026-03-24T17:25:32.999Z</time></trkpt><trkpt lat="44.79182400852401" lon="11.488828848714366"><ele>7.666666666666666</ele><time>2026-03-24T17:25:33.999Z</time></trkpt><trkpt lat="44.79163843992577" lon="11.488974302045616"><ele>7.333333333333334</ele><time>2026-03-24T17:25:34.999Z</time></trkpt><trkpt lat="44.791465530740545" lon="11.489113881698806"><ele>7.0</ele><time>2026-03-24T17:25:35.999Z</time></trkpt><trkpt lat="44.791302536840696" lon="11.489243903845347"><ele>7.0</ele><time>2026-03-24T17:25:36.999Z</time></trkpt><trkpt lat="44.791148653473165" lon="11.48936681405764"><ele>7.0</ele><time>2026-03-24T17:25:37.999Z</time></trkpt><trkpt lat="44.79098745506101" lon="11.489489294661855"><ele>7.0</ele><time>2026-03-24T17:25:38.999Z</time></trkpt><trkpt lat="44.79082593449224" lon="11.489607038073961"><ele>7.333333333333334</ele><time>2026-03-24T17:25:39.999Z</time></trkpt><trkpt lat="44.790664453704395" lon="11.48971752908382"><ele>7.666666666666666</ele><time>2026-03-24T17:25:40.999Z</time></trkpt><trkpt lat="44.79049920438654" lon="11.489820952755414"><ele>8.0</ele><time>2026-03-24T17:25:41.999Z</time></trkpt><trkpt lat="44.7903255967435" lon="11.489920921740541"><ele>8.333333333333332</ele><time>2026-03-24T17:25:42.999Z</time></trkpt><trkpt lat="44.790146565197276" lon="11.490021019509381"><ele>8.666666666666666</ele><time>2026-03-24T17:25:43.999Z</time></trkpt><trkpt lat="44.78995536330232" lon="11.490129509422694"><ele>9.0</ele><time>2026-03-24T17:25:44.999Z</time></trkpt><trkpt lat="44.78975865962686" lon="11.490245245869145"><ele>9.0</ele><time>2026-03-24T17:25:45.999Z</time></trkpt><trkpt lat="44.789557106150454" lon="11.490366179107843"><ele>9.0</ele><time>2026-03-24T17:25:46.999Z</time></trkpt><trkpt lat="44.789351074808394" lon="11.490489372823449"><ele>9.0</ele><time>2026-03-24T17:25:47.999Z</time></trkpt><trkpt lat="44.78913991641399" lon="11.49061414294503"><ele>8.0</ele><time>2026-03-24T17:25:48.999Z</time></trkpt><trkpt lat="44.78892913783089" lon="11.4907431775239"><ele>7.0</ele><time>2026-03-24T17:25:49.999Z</time></trkpt><trkpt lat="44.78872000152493" lon="11.490879124437061"><ele>7.0</ele><time>2026-03-24T17:25:50.999Z</time></trkpt><trkpt lat="44.78850919191577" lon="11.490994076924144"><ele>7.0</ele><time>2026-03-24T17:25:51.999Z</time></trkpt><trkpt lat="44.788347106067775" lon="11.491165906537603"><ele>7.0</ele><time>2026-03-24T17:25:52.999Z</time></trkpt><trkpt lat="44.78819051795528" lon="11.491329028586117"><ele>7.666666666666667</ele><time>2026-03-24T17:25:53.999Z</time></trkpt><trkpt lat="44.78804274669366" lon="11.491484182585552"><ele>8.333333333333334</ele><time>2026-03-24T17:25:54.999Z</time></trkpt><trkpt lat="44.78788386017669" lon="11.491663394794838"><ele>9.0</ele><time>2026-03-24T17:25:55.999Z</time></trkpt><trkpt lat="44.787719809130664" lon="11.491852318038"><ele>8.333333333333334</ele><time>2026-03-24T17:25:56.999Z</time></trkpt><trkpt lat="44.78756084696645" lon="11.49206419913966"><ele>7.666666666666667</ele><time>2026-03-24T17:25:57.999Z</time></trkpt><trkpt lat="44.78737462327502" lon="11.49223895962397"><ele>7.0</ele><time>2026-03-24T17:25:58.999Z</time></trkpt><trkpt lat="44.787194903473065" lon="11.492426816788456"><ele>7.0</ele><time>2026-03-24T17:25:59.999Z</time></trkpt><trkpt lat="44.78700602824747" lon="11.492612813576955"><ele>7.0</ele><time>2026-03-24T17:26:00.999Z</time></trkpt><trkpt lat="44.78681240417486" lon="11.492792339827288"><ele>7.5</ele><time>2026-03-24T17:26:01.999Z</time></trkpt><trkpt lat="44.78661508388352" lon="11.492968749917504"><ele>8.0</ele><time>2026-03-24T17:26:02.999Z</time></trkpt><trkpt lat="44.78642210579395" lon="11.49312761176206"><ele>8.0</ele><time>2026-03-24T17:26:03.999Z</time></trkpt><trkpt lat="44.78624715972108" lon="11.493269151507402"><ele>8.0</ele><time>2026-03-24T17:26:04.999Z</time></trkpt><trkpt lat="44.78608461779607" lon="11.493400655672524"><ele>8.0</ele><time>2026-03-24T17:26:05.999Z</time></trkpt><trkpt lat="44.785945555496255" lon="11.49353569948263"><ele>7.666666666666666</ele><time>2026-03-24T17:26:06.999Z</time></trkpt><trkpt lat="44.78580275511832" lon="11.493651381496688"><ele>7.333333333333334</ele><time>2026-03-24T17:26:07.999Z</time></trkpt><trkpt lat="44.785667232067844" lon="11.493761316831444"><ele>7.0</ele><time>2026-03-24T17:26:08.999Z</time></trkpt><trkpt lat="44.785536202454345" lon="11.493838903503878"><ele>7.0</ele><time>2026-03-24T17:26:09.999Z</time></trkpt><trkpt lat="44.78542092145358" lon="11.493930672306156"><ele>7.0</ele><time>2026-03-24T17:26:10.999Z</time></trkpt><trkpt lat="44.78532303287063" lon="11.494015056484852"><ele>7.0</ele><time>2026-03-24T17:26:11.999Z</time></trkpt><trkpt lat="44.785239413298356" lon="11.494107307989813"><ele>7.0</ele><time>2026-03-24T17:26:12.999Z</time></trkpt><trkpt lat="44.785179059011405" lon="11.494222590658014"><ele>7.000000000000001</ele><time>2026-03-24T17:26:13.999Z</time></trkpt><trkpt lat="44.78510830262334" lon="11.49430933643277"><ele>7.0</ele><time>2026-03-24T17:26:14.999Z</time></trkpt><trkpt lat="44.785035663664495" lon="11.494368602016765"><ele>7.0</ele><time>2026-03-24T17:26:15.999Z</time></trkpt><trkpt lat="44.78496150155541" lon="11.494412514525962"><ele>7.0</ele><time>2026-03-24T17:26:16.999Z</time></trkpt><trkpt lat="44.784892136306915" lon="11.494445084332613"><ele>7.000000000000001</ele><time>2026-03-24T17:26:17.999Z</time></trkpt><trkpt lat="44.7848253007964" lon="11.494470306537128"><ele>7.0</ele><time>2026-03-24T17:26:18.999Z</time></trkpt><trkpt lat="44.784754614352615" lon="11.494490402599478"><ele>7.0</ele><time>2026-03-24T17:26:19.999Z</time></trkpt><trkpt lat="44.78461810879033" lon="11.494418612470927"><ele>6.999999999999999</ele><time>2026-03-24T17:26:21.999Z</time></trkpt><trkpt lat="44.78456176666852" lon="11.494352873587811"><ele>6.999999999999999</ele><time>2026-03-24T17:26:22.999Z</time></trkpt><trkpt lat="44.784497290517685" lon="11.494279349365547"><ele>7.0</ele><time>2026-03-24T17:26:23.999Z</time></trkpt><trkpt lat="44.78441662175086" lon="11.494187359779135"><ele>7.0</ele><time>2026-03-24T17:26:24.999Z</time></trkpt><trkpt lat="44.784306660113295" lon="11.494061351181482"><ele>7.0</ele><time>2026-03-24T17:26:25.999Z</time></trkpt><trkpt lat="44.78416894829414" lon="11.493903130358035"><ele>7.0</ele><time>2026-03-24T17:26:26.999Z</time></trkpt><trkpt lat="44.7840139910787" lon="11.493725096032524"><ele>7.0</ele><time>2026-03-24T17:26:27.999Z</time></trkpt><trkpt lat="44.78382791156708" lon="11.49353939892575"><ele>6.0</ele><time>2026-03-24T17:26:28.999Z</time></trkpt><trkpt lat="44.78363950581996" lon="11.49332192225926"><ele>5.0</ele><time>2026-03-24T17:26:29.999Z</time></trkpt><trkpt lat="44.783454379783855" lon="11.493099904257063"><ele>7.0</ele><time>2026-03-24T17:26:30.999Z</time></trkpt><trkpt lat="44.78326425967112" lon="11.49287869531753"><ele>9.0</ele><time>2026-03-24T17:26:31.999Z</time></trkpt><trkpt lat="44.783072604056755" lon="11.492658804812097"><ele>9.0</ele><time>2026-03-24T17:26:32.999Z</time></trkpt><trkpt lat="44.78287483526922" lon="11.492431557431933"><ele>9.0</ele><time>2026-03-24T17:26:33.999Z</time></trkpt><trkpt lat="44.782671021131755" lon="11.492199424167659"><ele>9.0</ele><time>2026-03-24T17:26:34.999Z</time></trkpt><trkpt lat="44.78248687959392" lon="11.49198910717885"><ele>9.0</ele><time>2026-03-24T17:26:35.999Z</time></trkpt><trkpt lat="44.78231768998144" lon="11.491797612352125"><ele>9.0</ele><time>2026-03-24T17:26:36.999Z</time></trkpt><trkpt lat="44.78215545607086" lon="11.491618748392815"><ele>9.0</ele><time>2026-03-24T17:26:37.999Z</time></trkpt><trkpt lat="44.78199452320492" lon="11.49144227656949"><ele>9.0</ele><time>2026-03-24T17:26:39Z</time></trkpt><trkpt lat="44.78183489823577" lon="11.491269618616279"><ele>9.0</ele><time>2026-03-24T17:26:40Z</time></trkpt><trkpt lat="44.78167326705681" lon="11.491095369975705"><ele>9.0</ele><time>2026-03-24T17:26:41Z</time></trkpt><trkpt lat="44.78151238114671" lon="11.490921200270932"><ele>9.0</ele><time>2026-03-24T17:26:42Z</time></trkpt><trkpt lat="44.78134999428869" lon="11.490747465796378"><ele>9.0</ele><time>2026-03-24T17:26:43Z</time></trkpt><trkpt lat="44.78118830148317" lon="11.49057179970429"><ele>9.0</ele><time>2026-03-24T17:26:44Z</time></trkpt><trkpt lat="44.78102493745676" lon="11.490395373861853"><ele>9.0</ele><time>2026-03-24T17:26:45Z</time></trkpt><trkpt lat="44.78085933675787" lon="11.490220135819527"><ele>9.666666666666666</ele><time>2026-03-24T17:26:46Z</time></trkpt><trkpt lat="44.78070274249815" lon="11.490023738692457"><ele>10.333333333333332</ele><time>2026-03-24T17:26:47Z</time></trkpt><trkpt lat="44.78053437806191" lon="11.489843640892675"><ele>11.0</ele><time>2026-03-24T17:26:48Z</time></trkpt><trkpt lat="44.78036653401486" lon="11.489662878288453"><ele>10.333333333333332</ele><time>2026-03-24T17:26:49Z</time></trkpt><trkpt lat="44.78019715069882" lon="11.489478800416373"><ele>9.666666666666666</ele><time>2026-03-24T17:26:50Z</time></trkpt><trkpt lat="44.78002736938806" lon="11.489294291609173"><ele>9.0</ele><time>2026-03-24T17:26:51Z</time></trkpt><trkpt lat="44.77986082993172" lon="11.489114320630653"><ele>9.0</ele><time>2026-03-24T17:26:52Z</time></trkpt><trkpt lat="44.77970153206865" lon="11.488942658703658"><ele>9.0</ele><time>2026-03-24T17:26:53Z</time></trkpt><trkpt lat="44.77955341253922" lon="11.488783043160517"><ele>9.0</ele><time>2026-03-24T17:26:54Z</time></trkpt><trkpt lat="44.77940808936635" lon="11.488626440235318"><ele>8.666666666666666</ele><time>2026-03-24T17:26:55Z</time></trkpt><trkpt lat="44.77927961225523" lon="11.488487991406158"><ele>8.333333333333332</ele><time>2026-03-24T17:26:56Z</time></trkpt><trkpt lat="44.779155242186654" lon="11.48835959046694"><ele>8.0</ele><time>2026-03-24T17:26:57Z</time></trkpt><trkpt lat="44.77902782710552" lon="11.488242726589144"><ele>8.0</ele><time>2026-03-24T17:26:58Z</time></trkpt><trkpt lat="44.77888344390927" lon="11.488154668257762"><ele>8.0</ele><time>2026-03-24T17:26:59Z</time></trkpt><trkpt lat="44.77872569667405" lon="11.488110037578158"><ele>8.0</ele><time>2026-03-24T17:27:00Z</time></trkpt><trkpt lat="44.77856021399222" lon="11.488122021775723"><ele>8.0</ele><time>2026-03-24T17:27:01Z</time></trkpt><trkpt lat="44.77837551630584" lon="11.488103971406026"><ele>8.0</ele><time>2026-03-24T17:27:02Z</time></trkpt><trkpt lat="44.778179884379" lon="11.488111717300468"><ele>8.0</ele><time>2026-03-24T17:27:03Z</time></trkpt><trkpt lat="44.77800255791787" lon="11.48811721362667"><ele>8.0</ele><time>2026-03-24T17:27:04Z</time></trkpt><trkpt lat="44.77784169728957" lon="11.488145519683606"><ele>8.0</ele><time>2026-03-24T17:27:05Z</time></trkpt><trkpt lat="44.77769372126083" lon="11.488151285707039"><ele>8.0</ele><time>2026-03-24T17:27:06Z</time></trkpt><trkpt lat="44.77755596986669" lon="11.488157728725282"><ele>8.0</ele><time>2026-03-24T17:27:07Z</time></trkpt><trkpt lat="44.777428598369966" lon="11.488158885774677"><ele>8.200000000000001</ele><time>2026-03-24T17:27:08Z</time></trkpt><trkpt lat="44.777312419481035" lon="11.48815601917266"><ele>8.4</ele><time>2026-03-24T17:27:09Z</time></trkpt><trkpt lat="44.777210625279906" lon="11.48815131229428"><ele>8.600000000000001</ele><time>2026-03-24T17:27:10Z</time></trkpt><trkpt lat="44.77712085269062" lon="11.488136745106477"><ele>8.8</ele><time>2026-03-24T17:27:11Z</time></trkpt><trkpt lat="44.777044039324196" lon="11.48809837360599"><ele>9.0</ele><time>2026-03-24T17:27:12Z</time></trkpt><trkpt lat="44.776982134663086" lon="11.488032269439422"><ele>9.0</ele><time>2026-03-24T17:27:13Z</time></trkpt><trkpt lat="44.77691500853191" lon="11.487936136088795"><ele>9.0</ele><time>2026-03-24T17:27:14Z</time></trkpt><trkpt lat="44.77685112566091" lon="11.487823715101234"><ele>9.0</ele><time>2026-03-24T17:27:15Z</time></trkpt><trkpt lat="44.776802085119655" lon="11.487706959632085"><ele>9.0</ele><time>2026-03-24T17:27:16Z</time></trkpt><trkpt lat="44.77676862547234" lon="11.48757803130513"><ele>9.0</ele><time>2026-03-24T17:27:17Z</time></trkpt><trkpt lat="44.776753233899555" lon="11.487443335530651"><ele>9.0</ele><time>2026-03-24T17:27:18Z</time></trkpt><trkpt lat="44.77675434274598" lon="11.487291195710386"><ele>9.0</ele><time>2026-03-24T17:27:19Z</time></trkpt><trkpt lat="44.776764403700476" lon="11.4871133022337"><ele>9.0</ele><time>2026-03-24T17:27:20Z</time></trkpt><trkpt lat="44.77676579953673" lon="11.486914723220146"><ele>9.0</ele><time>2026-03-24T17:27:21Z</time></trkpt><trkpt lat="44.77676370415172" lon="11.486686521790089"><ele>9.0</ele><time>2026-03-24T17:27:22Z</time></trkpt><trkpt lat="44.77676352657324" lon="11.486457373993902"><ele>9.0</ele><time>2026-03-24T17:27:23Z</time></trkpt><trkpt lat="44.77675987165389" lon="11.486244270663585"><ele>9.0</ele><time>2026-03-24T17:27:24Z</time></trkpt><trkpt lat="44.77675118603174" lon="11.486035033364866"><ele>9.0</ele><time>2026-03-24T17:27:25Z</time></trkpt><trkpt lat="44.77673930129759" lon="11.485831723075657"><ele>9.0</ele><time>2026-03-24T17:27:26Z</time></trkpt><trkpt lat="44.77672782117573" lon="11.485614132179144"><ele>9.0</ele><time>2026-03-24T17:27:27Z</time></trkpt><trkpt lat="44.77671691711848" lon="11.485398676987833"><ele>9.0</ele><time>2026-03-24T17:27:28Z</time></trkpt><trkpt lat="44.77670979844884" lon="11.485206955028108"><ele>9.0</ele><time>2026-03-24T17:27:29Z</time></trkpt><trkpt lat="44.776698388629484" lon="11.485032065973233"><ele>9.0</ele><time>2026-03-24T17:27:29.999Z</time></trkpt><trkpt lat="44.776690358326334" lon="11.484845957767538"><ele>9.0</ele><time>2026-03-24T17:27:30.999Z</time></trkpt><trkpt lat="44.7766830381856" lon="11.484633574606892"><ele>8.666666666666666</ele><time>2026-03-24T17:27:31.999Z</time></trkpt><trkpt lat="44.77668110733237" lon="11.484402239534933"><ele>8.333333333333332</ele><time>2026-03-24T17:27:32.999Z</time></trkpt><trkpt lat="44.776671928212515" lon="11.484135806382563"><ele>8.0</ele><time>2026-03-24T17:27:33.999Z</time></trkpt><trkpt lat="44.77667197417511" lon="11.483849932430015"><ele>8.333333333333332</ele><time>2026-03-24T17:27:34.999Z</time></trkpt><trkpt lat="44.77668309279231" lon="11.483539315162487"><ele>8.666666666666666</ele><time>2026-03-24T17:27:35.999Z</time></trkpt><trkpt lat="44.77670198542898" lon="11.483225307071317"><ele>9.0</ele><time>2026-03-24T17:27:36.999Z</time></trkpt><trkpt lat="44.7767276216796" lon="11.482919444029108"><ele>9.333333333333334</ele><time>2026-03-24T17:27:37.999Z</time></trkpt><trkpt lat="44.77675472501742" lon="11.48262618399803"><ele>9.666666666666668</ele><time>2026-03-24T17:27:38.999Z</time></trkpt><trkpt lat="44.77678408157645" lon="11.482324549979225"><ele>10.0</ele><time>2026-03-24T17:27:39.999Z</time></trkpt><trkpt lat="44.776819229025016" lon="11.482020582343045"><ele>9.333333333333334</ele><time>2026-03-24T17:27:40.999Z</time></trkpt><trkpt lat="44.77685833325039" lon="11.481723465806965"><ele>8.666666666666666</ele><time>2026-03-24T17:27:41.999Z</time></trkpt><trkpt lat="44.77690278486662" lon="11.481433997866885"><ele>8.0</ele><time>2026-03-24T17:27:42.999Z</time></trkpt><trkpt lat="44.77695043649151" lon="11.481152387802235"><ele>8.0</ele><time>2026-03-24T17:27:43.999Z</time></trkpt><trkpt lat="44.777006483547964" lon="11.480869893552079"><ele>8.0</ele><time>2026-03-24T17:27:44.999Z</time></trkpt><trkpt lat="44.77706957482471" lon="11.480582264561933"><ele>8.0</ele><time>2026-03-24T17:27:45.999Z</time></trkpt><trkpt lat="44.77713875883239" lon="11.480293191948606"><ele>8.0</ele><time>2026-03-24T17:27:46.999Z</time></trkpt><trkpt lat="44.77721361449062" lon="11.480009733801838"><ele>8.0</ele><time>2026-03-24T17:27:47.999Z</time></trkpt><trkpt lat="44.77729152980733" lon="11.479727622006148"><ele>8.0</ele><time>2026-03-24T17:27:48.999Z</time></trkpt><trkpt lat="44.77737714259991" lon="11.479444954813706"><ele>8.0</ele><time>2026-03-24T17:27:49.999Z</time></trkpt><trkpt lat="44.777469618138426" lon="11.479166441687386"><ele>8.0</ele><time>2026-03-24T17:27:50.999Z</time></trkpt><trkpt lat="44.77756572394581" lon="11.478889993935315"><ele>8.0</ele><time>2026-03-24T17:27:51.999Z</time></trkpt><trkpt lat="44.77766588079347" lon="11.47861994688423"><ele>7.666666666666666</ele><time>2026-03-24T17:27:52.999Z</time></trkpt><trkpt lat="44.777766138424376" lon="11.478363024522265"><ele>7.333333333333334</ele><time>2026-03-24T17:27:53.999Z</time></trkpt><trkpt lat="44.77787225997734" lon="11.478109614165392"><ele>7.0</ele><time>2026-03-24T17:27:54.999Z</time></trkpt><trkpt lat="44.777983507901425" lon="11.477860934153103"><ele>7.0</ele><time>2026-03-24T17:27:55.999Z</time></trkpt><trkpt lat="44.77810159801185" lon="11.477616254319463"><ele>7.0</ele><time>2026-03-24T17:27:56.999Z</time></trkpt><trkpt lat="44.77822279279047" lon="11.477375243502841"><ele>7.0</ele><time>2026-03-24T17:27:57.999Z</time></trkpt><trkpt lat="44.77834850780852" lon="11.477134921885249"><ele>7.0</ele><time>2026-03-24T17:27:58.999Z</time></trkpt><trkpt lat="44.778482465809425" lon="11.476893612991368"><ele>7.0</ele><time>2026-03-24T17:27:59.999Z</time></trkpt><trkpt lat="44.77862925480685" lon="11.476656905093018"><ele>7.0</ele><time>2026-03-24T17:28:00.999Z</time></trkpt><trkpt lat="44.778777329304546" lon="11.476418740040785"><ele>7.0</ele><time>2026-03-24T17:28:01.999Z</time></trkpt><trkpt lat="44.77893321372624" lon="11.476180034737943"><ele>7.0</ele><time>2026-03-24T17:28:02.999Z</time></trkpt><trkpt lat="44.77909183687843" lon="11.475942644833014"><ele>7.0</ele><time>2026-03-24T17:28:03.999Z</time></trkpt><trkpt lat="44.77925964549428" lon="11.475707544418219"><ele>7.0</ele><time>2026-03-24T17:28:04.999Z</time></trkpt><trkpt lat="44.77943082594966" lon="11.475475420305957"><ele>7.5</ele><time>2026-03-24T17:28:05.999Z</time></trkpt><trkpt lat="44.77960715578982" lon="11.475240240311283"><ele>8.0</ele><time>2026-03-24T17:28:06.999Z</time></trkpt><trkpt lat="44.779782719062865" lon="11.475012819655547"><ele>8.0</ele><time>2026-03-24T17:28:07.999Z</time></trkpt><trkpt lat="44.7799626060496" lon="11.474785457701593"><ele>8.0</ele><time>2026-03-24T17:28:08.999Z</time></trkpt><trkpt lat="44.78014401897518" lon="11.474554513586893"><ele>8.5</ele><time>2026-03-24T17:28:09.999Z</time></trkpt><trkpt lat="44.780329405474546" lon="11.474322629377983"><ele>9.0</ele><time>2026-03-24T17:28:10.999Z</time></trkpt><trkpt lat="44.78051943736182" lon="11.474091492051542"><ele>9.0</ele><time>2026-03-24T17:28:11.999Z</time></trkpt><trkpt lat="44.78070471221144" lon="11.47385890918159"><ele>9.0</ele><time>2026-03-24T17:28:12.999Z</time></trkpt><trkpt lat="44.780892542464755" lon="11.47362694668282"><ele>9.0</ele><time>2026-03-24T17:28:13.999Z</time></trkpt><trkpt lat="44.78107935605906" lon="11.47339704823096"><ele>9.0</ele><time>2026-03-24T17:28:14.999Z</time></trkpt><trkpt lat="44.781268180733555" lon="11.473167103211528"><ele>8.0</ele><time>2026-03-24T17:28:15.999Z</time></trkpt><trkpt lat="44.78145592860918" lon="11.472935292217386"><ele>7.0</ele><time>2026-03-24T17:28:16.999Z</time></trkpt><trkpt lat="44.781643032024384" lon="11.47270215879509"><ele>7.0</ele><time>2026-03-24T17:28:17.999Z</time></trkpt><trkpt lat="44.78183725296566" lon="11.472471779790075"><ele>7.0</ele><time>2026-03-24T17:28:18.999Z</time></trkpt><trkpt lat="44.782026260504566" lon="11.472237059980301"><ele>6.0</ele><time>2026-03-24T17:28:19.999Z</time></trkpt><trkpt lat="44.782216973686424" lon="11.472002193233614"><ele>5.0</ele><time>2026-03-24T17:28:20.999Z</time></trkpt><trkpt lat="44.78240681485398" lon="11.47176833017895"><ele>5.0</ele><time>2026-03-24T17:28:21.999Z</time></trkpt><trkpt lat="44.78259740382263" lon="11.471534432286543"><ele>5.0</ele><time>2026-03-24T17:28:22.999Z</time></trkpt><trkpt lat="44.78278819838129" lon="11.471296864728929"><ele>6.0</ele><time>2026-03-24T17:28:23.999Z</time></trkpt><trkpt lat="44.78297493409535" lon="11.471061874694527"><ele>7.0</ele><time>2026-03-24T17:28:24.999Z</time></trkpt><trkpt lat="44.783165567439134" lon="11.470824404792554"><ele>7.0</ele><time>2026-03-24T17:28:25.999Z</time></trkpt><trkpt lat="44.78335221302766" lon="11.470595942538719"><ele>7.0</ele><time>2026-03-24T17:28:26.999Z</time></trkpt><trkpt lat="44.78354213641464" lon="11.470367531662378"><ele>6.5</ele><time>2026-03-24T17:28:27.999Z</time></trkpt><trkpt lat="44.78372490956731" lon="11.470141262425196"><ele>6.0</ele><time>2026-03-24T17:28:28.999Z</time></trkpt><trkpt lat="44.78391507567419" lon="11.469905680564576"><ele>6.0</ele><time>2026-03-24T17:28:29.999Z</time></trkpt><trkpt lat="44.78410487273701" lon="11.469674964946144"><ele>6.0</ele><time>2026-03-24T17:28:30.999Z</time></trkpt><trkpt lat="44.78429519372356" lon="11.469441719749447"><ele>7.5</ele><time>2026-03-24T17:28:31.999Z</time></trkpt><trkpt lat="44.78448333382787" lon="11.469208728525095"><ele>9.0</ele><time>2026-03-24T17:28:32.999Z</time></trkpt><trkpt lat="44.78466863197169" lon="11.468975858801118"><ele>9.5</ele><time>2026-03-24T17:28:33.999Z</time></trkpt><trkpt lat="44.78485021854347" lon="11.468751169398548"><ele>10.0</ele><time>2026-03-24T17:28:34.999Z</time></trkpt><trkpt lat="44.78502993302341" lon="11.468527843284065"><ele>8.5</ele><time>2026-03-24T17:28:35.999Z</time></trkpt><trkpt lat="44.785207956687564" lon="11.468305572752831"><ele>7.0</ele><time>2026-03-24T17:28:36.999Z</time></trkpt><trkpt lat="44.78538319633094" lon="11.468084209079008"><ele>7.0</ele><time>2026-03-24T17:28:37.999Z</time></trkpt><trkpt lat="44.785561319299795" lon="11.467860842907614"><ele>7.0</ele><time>2026-03-24T17:28:38.999Z</time></trkpt><trkpt lat="44.785739885692195" lon="11.467631449686094"><ele>7.0</ele><time>2026-03-24T17:28:39.999Z</time></trkpt><trkpt lat="44.78592306543424" lon="11.467404160035997"><ele>7.0</ele><time>2026-03-24T17:28:40.999Z</time></trkpt><trkpt lat="44.78610193431068" lon="11.46717537839902"><ele>7.0</ele><time>2026-03-24T17:28:41.999Z</time></trkpt><trkpt lat="44.786279461978076" lon="11.466944217681696"><ele>7.0</ele><time>2026-03-24T17:28:42.999Z</time></trkpt><trkpt lat="44.786455169749885" lon="11.466708825053802"><ele>7.0</ele><time>2026-03-24T17:28:43.999Z</time></trkpt><trkpt lat="44.78662977116171" lon="11.466470996814909"><ele>7.0</ele><time>2026-03-24T17:28:45Z</time></trkpt><trkpt lat="44.78680111452927" lon="11.466234884566576"><ele>6.5</ele><time>2026-03-24T17:28:46Z</time></trkpt><trkpt lat="44.78697131355061" lon="11.465992348694012"><ele>6.0</ele><time>2026-03-24T17:28:47Z</time></trkpt><trkpt lat="44.7871457822613" lon="11.465739387709888"><ele>6.0</ele><time>2026-03-24T17:28:48Z</time></trkpt><trkpt lat="44.787311341795785" lon="11.46549522001236"><ele>6.0</ele><time>2026-03-24T17:28:49Z</time></trkpt><trkpt lat="44.78747433033171" lon="11.46524353983685"><ele>6.5</ele><time>2026-03-24T17:28:50Z</time></trkpt><trkpt lat="44.78763529945168" lon="11.464998076120944"><ele>7.0</ele><time>2026-03-24T17:28:51Z</time></trkpt><trkpt lat="44.787797472940724" lon="11.464737488672533"><ele>7.0</ele><time>2026-03-24T17:28:52Z</time></trkpt><trkpt lat="44.78796210646267" lon="11.46447419306212"><ele>7.0</ele><time>2026-03-24T17:28:53Z</time></trkpt><trkpt lat="44.78811858503219" lon="11.464205090082553"><ele>7.0</ele><time>2026-03-24T17:28:54Z</time></trkpt><trkpt lat="44.78827582707522" lon="11.463926394389032"><ele>7.0</ele><time>2026-03-24T17:28:55Z</time></trkpt><trkpt lat="44.78842746345367" lon="11.463642974773148"><ele>7.5</ele><time>2026-03-24T17:28:56Z</time></trkpt><trkpt lat="44.78857806022206" lon="11.463353783139974"><ele>8.0</ele><time>2026-03-24T17:28:57Z</time></trkpt><trkpt lat="44.78872575480555" lon="11.463059163601319"><ele>8.0</ele><time>2026-03-24T17:28:58Z</time></trkpt><trkpt lat="44.788868661030115" lon="11.462753610297682"><ele>8.0</ele><time>2026-03-24T17:28:59Z</time></trkpt><trkpt lat="44.78900601796174" lon="11.46244976205688"><ele>8.0</ele><time>2026-03-24T17:29:00Z</time></trkpt><trkpt lat="44.78914270908189" lon="11.462135890103578"><ele>8.0</ele><time>2026-03-24T17:29:01Z</time></trkpt><trkpt lat="44.78927717470909" lon="11.461815059109885"><ele>8.0</ele><time>2026-03-24T17:29:02Z</time></trkpt><trkpt lat="44.78940499395327" lon="11.461487394140217"><ele>8.0</ele><time>2026-03-24T17:29:03Z</time></trkpt><trkpt lat="44.78953350553767" lon="11.4611523839631"><ele>7.5</ele><time>2026-03-24T17:29:04Z</time></trkpt><trkpt lat="44.789656598881024" lon="11.460811497093838"><ele>7.0</ele><time>2026-03-24T17:29:05Z</time></trkpt><trkpt lat="44.78977470691456" lon="11.460466868726382"><ele>6.5</ele><time>2026-03-24T17:29:06Z</time></trkpt><trkpt lat="44.78989092418579" lon="11.460112460427364"><ele>6.0</ele><time>2026-03-24T17:29:07Z</time></trkpt><trkpt lat="44.79000212064806" lon="11.459747318924002"><ele>7.0</ele><time>2026-03-24T17:29:08Z</time></trkpt><trkpt lat="44.790108263442214" lon="11.459380794393942"><ele>8.0</ele><time>2026-03-24T17:29:09Z</time></trkpt><trkpt lat="44.79021262947353" lon="11.45901110332573"><ele>8.5</ele><time>2026-03-24T17:29:10Z</time></trkpt><trkpt lat="44.790311938970454" lon="11.458639624224414"><ele>9.0</ele><time>2026-03-24T17:29:11Z</time></trkpt><trkpt lat="44.79040334099029" lon="11.458263317955547"><ele>9.0</ele><time>2026-03-24T17:29:12Z</time></trkpt><trkpt lat="44.7904869779048" lon="11.457888867061605"><ele>9.0</ele><time>2026-03-24T17:29:13Z</time></trkpt><trkpt lat="44.790565151292284" lon="11.457515606714896"><ele>9.0</ele><time>2026-03-24T17:29:14Z</time></trkpt><trkpt lat="44.790638653359174" lon="11.457138318027258"><ele>9.0</ele><time>2026-03-24T17:29:15Z</time></trkpt><trkpt lat="44.790707478733395" lon="11.456759690597506"><ele>8.5</ele><time>2026-03-24T17:29:16Z</time></trkpt><trkpt lat="44.790767284600484" lon="11.456380609829905"><ele>8.0</ele><time>2026-03-24T17:29:17Z</time></trkpt><trkpt lat="44.790824051570226" lon="11.455993923749975"><ele>8.0</ele><time>2026-03-24T17:29:18Z</time></trkpt><trkpt lat="44.79087231215712" lon="11.45561132359904"><ele>8.0</ele><time>2026-03-24T17:29:19Z</time></trkpt><trkpt lat="44.790919980840854" lon="11.455222560415915"><ele>8.0</ele><time>2026-03-24T17:29:20Z</time></trkpt><trkpt lat="44.79096132331854" lon="11.454833420325345"><ele>8.0</ele><time>2026-03-24T17:29:21Z</time></trkpt><trkpt lat="44.79099584379154" lon="11.454444859294213"><ele>8.0</ele><time>2026-03-24T17:29:22Z</time></trkpt><trkpt lat="44.79102255591111" lon="11.454055976591103"><ele>8.0</ele><time>2026-03-24T17:29:23Z</time></trkpt><trkpt lat="44.79104280544605" lon="11.453667757507024"><ele>8.0</ele><time>2026-03-24T17:29:24Z</time></trkpt><trkpt lat="44.79106312348607" lon="11.453282597164522"><ele>8.0</ele><time>2026-03-24T17:29:25Z</time></trkpt><trkpt lat="44.79107959396554" lon="11.45290412715614"><ele>8.0</ele><time>2026-03-24T17:29:26Z</time></trkpt><trkpt lat="44.791093230633464" lon="11.452526196681635"><ele>8.0</ele><time>2026-03-24T17:29:27Z</time></trkpt><trkpt lat="44.79110356022726" lon="11.452151531288147"><ele>7.5</ele><time>2026-03-24T17:29:28Z</time></trkpt><trkpt lat="44.79110915776126" lon="11.451778019131874"><ele>7.0</ele><time>2026-03-24T17:29:29Z</time></trkpt><trkpt lat="44.791115358099674" lon="11.451395694793629"><ele>7.5</ele><time>2026-03-24T17:29:30Z</time></trkpt><trkpt lat="44.791119191589" lon="11.45101562227605"><ele>8.0</ele><time>2026-03-24T17:29:31Z</time></trkpt><trkpt lat="44.791121116056004" lon="11.450635712942312"><ele>8.0</ele><time>2026-03-24T17:29:32Z</time></trkpt><trkpt lat="44.7911217273322" lon="11.450253444569237"><ele>8.0</ele><time>2026-03-24T17:29:33Z</time></trkpt><trkpt lat="44.79112281588852" lon="11.449872398434762"><ele>8.0</ele><time>2026-03-24T17:29:34Z</time></trkpt><trkpt lat="44.79112175096536" lon="11.44948728759698"><ele>8.0</ele><time>2026-03-24T17:29:35Z</time></trkpt><trkpt lat="44.79112055008244" lon="11.449105100271186"><ele>8.5</ele><time>2026-03-24T17:29:36Z</time></trkpt><trkpt lat="44.79111846168465" lon="11.448720837955424"><ele>9.0</ele><time>2026-03-24T17:29:37Z</time></trkpt><trkpt lat="44.79111436708605" lon="11.448338604721238"><ele>8.5</ele><time>2026-03-24T17:29:37.999Z</time></trkpt><trkpt lat="44.791112902039636" lon="11.447956191628126"><ele>8.0</ele><time>2026-03-24T17:29:38.999Z</time></trkpt><trkpt lat="44.7911135335079" lon="11.447576003122089"><ele>8.0</ele><time>2026-03-24T17:29:39.999Z</time></trkpt><trkpt lat="44.79111180290479" lon="11.447196149556099"><ele>8.0</ele><time>2026-03-24T17:29:40.999Z</time></trkpt><trkpt lat="44.79111082064912" lon="11.446820441543725"><ele>8.5</ele><time>2026-03-24T17:29:41.999Z</time></trkpt><trkpt lat="44.79110771253734" lon="11.446441246256214"><ele>9.0</ele><time>2026-03-24T17:29:42.999Z</time></trkpt><trkpt lat="44.79110428792648" lon="11.446059109313456"><ele>9.0</ele><time>2026-03-24T17:29:43.999Z</time></trkpt><trkpt lat="44.79110225431164" lon="11.445669481053944"><ele>9.0</ele><time>2026-03-24T17:29:44.999Z</time></trkpt><trkpt lat="44.7910995194486" lon="11.44527356689324"><ele>9.5</ele><time>2026-03-24T17:29:45.999Z</time></trkpt><trkpt lat="44.791097422707224" lon="11.444873152092747"><ele>10.0</ele><time>2026-03-24T17:29:46.999Z</time></trkpt><trkpt lat="44.79109514938231" lon="11.444472143377011"><ele>10.0</ele><time>2026-03-24T17:29:47.999Z</time></trkpt><trkpt lat="44.79109435543249" lon="11.44407191616362"><ele>10.0</ele><time>2026-03-24T17:29:48.999Z</time></trkpt><trkpt lat="44.79109066131025" lon="11.443670302085797"><ele>10.0</ele><time>2026-03-24T17:29:49.999Z</time></trkpt><trkpt lat="44.79108887473984" lon="11.443273327648795"><ele>10.0</ele><time>2026-03-24T17:29:50.999Z</time></trkpt><trkpt lat="44.791087707296874" lon="11.442895608975412"><ele>10.5</ele><time>2026-03-24T17:29:51.999Z</time></trkpt><trkpt lat="44.79108629564346" lon="11.442548382579965"><ele>11.0</ele><time>2026-03-24T17:29:52.999Z</time></trkpt><trkpt lat="44.791085719700135" lon="11.442226936857901"><ele>10.666666666666666</ele><time>2026-03-24T17:29:53.999Z</time></trkpt><trkpt lat="44.791081439773855" lon="11.441917623009973"><ele>10.333333333333334</ele><time>2026-03-24T17:29:54.999Z</time></trkpt><trkpt lat="44.79108024027089" lon="11.44160375506273"><ele>10.0</ele><time>2026-03-24T17:29:55.999Z</time></trkpt><trkpt lat="44.791078996809695" lon="11.44129138725555"><ele>10.0</ele><time>2026-03-24T17:29:56.999Z</time></trkpt><trkpt lat="44.79107733178436" lon="11.440997530749955"><ele>10.0</ele><time>2026-03-24T17:29:57.999Z</time></trkpt><trkpt lat="44.79107952026278" lon="11.44071434860084"><ele>10.0</ele><time>2026-03-24T17:29:58.999Z</time></trkpt><trkpt lat="44.79107794254965" lon="11.440431064470522"><ele>10.0</ele><time>2026-03-24T17:29:59.999Z</time></trkpt><trkpt lat="44.79107542519379" lon="11.440147558843172"><ele>10.0</ele><time>2026-03-24T17:30:00.999Z</time></trkpt><trkpt lat="44.791074819129996" lon="11.439869293601404"><ele>10.0</ele><time>2026-03-24T17:30:01.999Z</time></trkpt><trkpt lat="44.791076703228825" lon="11.439591111317707"><ele>10.333333333333334</ele><time>2026-03-24T17:30:02.999Z</time></trkpt><trkpt lat="44.79107750457792" lon="11.439309802726326"><ele>10.666666666666666</ele><time>2026-03-24T17:30:03.999Z</time></trkpt><trkpt lat="44.791072283416966" lon="11.439032780591532"><ele>11.0</ele><time>2026-03-24T17:30:04.999Z</time></trkpt><trkpt lat="44.79106991226751" lon="11.438760877418538"><ele>10.333333333333332</ele><time>2026-03-24T17:30:05.999Z</time></trkpt><trkpt lat="44.79106706568554" lon="11.438495704548881"><ele>9.666666666666666</ele><time>2026-03-24T17:30:06.999Z</time></trkpt><trkpt lat="44.7910653871469" lon="11.438237006752956"><ele>9.0</ele><time>2026-03-24T17:30:07.999Z</time></trkpt><trkpt lat="44.79106387489093" lon="11.43798412238869"><ele>9.333333333333334</ele><time>2026-03-24T17:30:08.999Z</time></trkpt><trkpt lat="44.791063545866756" lon="11.4377392793886"><ele>9.666666666666668</ele><time>2026-03-24T17:30:09.999Z</time></trkpt><trkpt lat="44.79106085823527" lon="11.437502765068606"><ele>10.0</ele><time>2026-03-24T17:30:10.999Z</time></trkpt><trkpt lat="44.79105843112794" lon="11.437275239809747"><ele>9.333333333333334</ele><time>2026-03-24T17:30:11.999Z</time></trkpt><trkpt lat="44.7910556238978" lon="11.437057314456082"><ele>8.666666666666666</ele><time>2026-03-24T17:30:12.999Z</time></trkpt><trkpt lat="44.79105381665372" lon="11.43684141794329"><ele>8.0</ele><time>2026-03-24T17:30:13.999Z</time></trkpt><trkpt lat="44.79105225490122" lon="11.436623400907834"><ele>8.0</ele><time>2026-03-24T17:30:14.999Z</time></trkpt><trkpt lat="44.79105220027088" lon="11.436387257559478"><ele>8.0</ele><time>2026-03-24T17:30:15.999Z</time></trkpt><trkpt lat="44.79105002589152" lon="11.436138827066584"><ele>8.0</ele><time>2026-03-24T17:30:16.999Z</time></trkpt><trkpt lat="44.791047199316786" lon="11.435878575190904"><ele>8.666666666666666</ele><time>2026-03-24T17:30:17.999Z</time></trkpt><trkpt lat="44.79104465516376" lon="11.435606702476585"><ele>9.333333333333334</ele><time>2026-03-24T17:30:18.999Z</time></trkpt><trkpt lat="44.79104375702794" lon="11.435322354543153"><ele>10.0</ele><time>2026-03-24T17:30:19.999Z</time></trkpt><trkpt lat="44.791041473108194" lon="11.435028889034866"><ele>10.333333333333334</ele><time>2026-03-24T17:30:20.999Z</time></trkpt><trkpt lat="44.79103969809445" lon="11.434729306578339"><ele>10.666666666666666</ele><time>2026-03-24T17:30:21.999Z</time></trkpt><trkpt lat="44.79103720230983" lon="11.434427548612836"><ele>11.0</ele><time>2026-03-24T17:30:22.999Z</time></trkpt><trkpt lat="44.791034943224915" lon="11.434123073495014"><ele>11.0</ele><time>2026-03-24T17:30:23.999Z</time></trkpt><trkpt lat="44.791032599490585" lon="11.433839200932725"><ele>11.0</ele><time>2026-03-24T17:30:24.999Z</time></trkpt><trkpt lat="44.79103523114199" lon="11.43358150689306"><ele>11.0</ele><time>2026-03-24T17:30:25.999Z</time></trkpt><trkpt lat="44.79103617285538" lon="11.433338205904935"><ele>10.666666666666666</ele><time>2026-03-24T17:30:26.999Z</time></trkpt><trkpt lat="44.79103436067492" lon="11.433116284467266"><ele>10.333333333333334</ele><time>2026-03-24T17:30:27.999Z</time></trkpt><trkpt lat="44.791034258108525" lon="11.432909029692377"><ele>10.0</ele><time>2026-03-24T17:30:28.999Z</time></trkpt><trkpt lat="44.79103319848626" lon="11.432701059938797"><ele>10.0</ele><time>2026-03-24T17:30:29.999Z</time></trkpt><trkpt lat="44.79103215699945" lon="11.432509987290869"><ele>10.0</ele><time>2026-03-24T17:30:30.999Z</time></trkpt><trkpt lat="44.79103348207521" lon="11.432328374458033"><ele>10.0</ele><time>2026-03-24T17:30:31.999Z</time></trkpt><trkpt lat="44.79103449271812" lon="11.432160278576072"><ele>10.0</ele><time>2026-03-24T17:30:32.999Z</time></trkpt><trkpt lat="44.7910339795961" lon="11.431995965729786"><ele>10.0</ele><time>2026-03-24T17:30:33.999Z</time></trkpt><trkpt lat="44.791031921757046" lon="11.431832319512298"><ele>10.0</ele><time>2026-03-24T17:30:34.999Z</time></trkpt><trkpt lat="44.79102984630004" lon="11.431660488649797"><ele>10.0</ele><time>2026-03-24T17:30:35.999Z</time></trkpt><trkpt lat="44.7910260955448" lon="11.43147842335916"><ele>10.0</ele><time>2026-03-24T17:30:36.999Z</time></trkpt><trkpt lat="44.79102336320009" lon="11.431309611264998"><ele>9.75</ele><time>2026-03-24T17:30:37.999Z</time></trkpt><trkpt lat="44.79102175085608" lon="11.43115064144485"><ele>9.5</ele><time>2026-03-24T17:30:38.999Z</time></trkpt><trkpt lat="44.79102082880772" lon="11.430990134488798"><ele>9.25</ele><time>2026-03-24T17:30:39.999Z</time></trkpt><trkpt lat="44.79102140305853" lon="11.430823916398383"><ele>9.0</ele><time>2026-03-24T17:30:40.999Z</time></trkpt><trkpt lat="44.7910203839892" lon="11.430665726099292"><ele>9.0</ele><time>2026-03-24T17:30:41.999Z</time></trkpt><trkpt lat="44.791019266139116" lon="11.430514079935824"><ele>9.0</ele><time>2026-03-24T17:30:42.999Z</time></trkpt><trkpt lat="44.79101580500619" lon="11.4303701811778"><ele>9.0</ele><time>2026-03-24T17:30:43.999Z</time></trkpt><trkpt lat="44.79101437435806" lon="11.430216881494527"><ele>9.0</ele><time>2026-03-24T17:30:44.999Z</time></trkpt><trkpt lat="44.791014813042466" lon="11.430058296956574"><ele>9.0</ele><time>2026-03-24T17:30:45.999Z</time></trkpt><trkpt lat="44.79101422071761" lon="11.429897733362154"><ele>9.0</ele><time>2026-03-24T17:30:46.999Z</time></trkpt><trkpt lat="44.79101424955272" lon="11.429729776778009"><ele>9.0</ele><time>2026-03-24T17:30:47.999Z</time></trkpt><trkpt lat="44.791012412752245" lon="11.429559694905242"><ele>9.0</ele><time>2026-03-24T17:30:48.999Z</time></trkpt><trkpt lat="44.79101145818042" lon="11.429393246930799"><ele>9.0</ele><time>2026-03-24T17:30:49.999Z</time></trkpt><trkpt lat="44.79101110928068" lon="11.429236152078422"><ele>9.25</ele><time>2026-03-24T17:30:51Z</time></trkpt><trkpt lat="44.7910128074215" lon="11.429079455702752"><ele>9.5</ele><time>2026-03-24T17:30:52Z</time></trkpt><trkpt lat="44.79101566441324" lon="11.42892193016555"><ele>9.75</ele><time>2026-03-24T17:30:53Z</time></trkpt><trkpt lat="44.79102628810809" lon="11.428761905576843"><ele>10.0</ele><time>2026-03-24T17:30:54Z</time></trkpt><trkpt lat="44.791042745326415" lon="11.42859812967252"><ele>10.2</ele><time>2026-03-24T17:30:55Z</time></trkpt><trkpt lat="44.79106435970269" lon="11.428451125665168"><ele>10.4</ele><time>2026-03-24T17:30:56Z</time></trkpt><trkpt lat="44.79108732436918" lon="11.4283121073389"><ele>10.600000000000001</ele><time>2026-03-24T17:30:57Z</time></trkpt><trkpt lat="44.7911110853762" lon="11.4281793033804"><ele>10.8</ele><time>2026-03-24T17:30:58Z</time></trkpt><trkpt lat="44.791153714623384" lon="11.428052245939485"><ele>11.0</ele><time>2026-03-24T17:30:59Z</time></trkpt><trkpt lat="44.79120990418484" lon="11.427939431769982"><ele>11.200000000000001</ele><time>2026-03-24T17:31:00Z</time></trkpt><trkpt lat="44.791281701774516" lon="11.42783547724495"><ele>11.4</ele><time>2026-03-24T17:31:01Z</time></trkpt><trkpt lat="44.79135263953302" lon="11.427742770055211"><ele>11.6</ele><time>2026-03-24T17:31:02Z</time></trkpt><trkpt lat="44.791418933236294" lon="11.427646525822544"><ele>11.8</ele><time>2026-03-24T17:31:03Z</time></trkpt><trkpt lat="44.79147153587597" lon="11.42753346944611"><ele>12.0</ele><time>2026-03-24T17:31:04Z</time></trkpt><trkpt lat="44.791509649268946" lon="11.427406218032505"><ele>12.0</ele><time>2026-03-24T17:31:05Z</time></trkpt><trkpt lat="44.79153362811119" lon="11.427261996834343"><ele>12.0</ele><time>2026-03-24T17:31:06Z</time></trkpt><trkpt lat="44.79152948450551" lon="11.427110910841773"><ele>12.0</ele><time>2026-03-24T17:31:07Z</time></trkpt><trkpt lat="44.79150774419792" lon="11.426957589524942"><ele>12.0</ele><time>2026-03-24T17:31:08Z</time></trkpt><trkpt lat="44.79146602471553" lon="11.426808194998422"><ele>12.0</ele><time>2026-03-24T17:31:09Z</time></trkpt><trkpt lat="44.791400406813246" lon="11.42667590064054"><ele>11.75</ele><time>2026-03-24T17:31:10Z</time></trkpt><trkpt lat="44.79131921775966" lon="11.426559570773199"><ele>11.5</ele><time>2026-03-24T17:31:11Z</time></trkpt><trkpt lat="44.79121851121673" lon="11.42647319496726"><ele>11.25</ele><time>2026-03-24T17:31:12Z</time></trkpt><trkpt lat="44.79110778437563" lon="11.426416274958877"><ele>11.0</ele><time>2026-03-24T17:31:13Z</time></trkpt><trkpt lat="44.79099962475204" lon="11.42639740845859"><ele>11.0</ele><time>2026-03-24T17:31:14Z</time></trkpt><trkpt lat="44.790895149018745" lon="11.426405832449147"><ele>11.0</ele><time>2026-03-24T17:31:15Z</time></trkpt><trkpt lat="44.79078323466768" lon="11.426454568767822"><ele>11.0</ele><time>2026-03-24T17:31:16Z</time></trkpt><trkpt lat="44.790676787019954" lon="11.426528681707616"><ele>11.0</ele><time>2026-03-24T17:31:17Z</time></trkpt><trkpt lat="44.79058461778127" lon="11.426633442769495"><ele>11.0</ele><time>2026-03-24T17:31:18Z</time></trkpt><trkpt lat="44.790511247880936" lon="11.426763033305544"><ele>11.0</ele><time>2026-03-24T17:31:19Z</time></trkpt><trkpt lat="44.79045370771259" lon="11.426905633582404"><ele>11.0</ele><time>2026-03-24T17:31:20Z</time></trkpt><trkpt lat="44.79042651734063" lon="11.427045688112413"><ele>11.0</ele><time>2026-03-24T17:31:21Z</time></trkpt><trkpt lat="44.79042484014578" lon="11.427195829515858"><ele>11.0</ele><time>2026-03-24T17:31:22Z</time></trkpt><trkpt lat="44.79044372949262" lon="11.427357899598132"><ele>10.75</ele><time>2026-03-24T17:31:23Z</time></trkpt><trkpt lat="44.790482342413256" lon="11.427520624673193"><ele>10.5</ele><time>2026-03-24T17:31:24Z</time></trkpt><trkpt lat="44.790550593242564" lon="11.42767377862742"><ele>10.25</ele><time>2026-03-24T17:31:25Z</time></trkpt><trkpt lat="44.7906353711326" lon="11.427808612185105"><ele>10.0</ele><time>2026-03-24T17:31:26Z</time></trkpt><trkpt lat="44.7907249291564" lon="11.42791637066701"><ele>10.0</ele><time>2026-03-24T17:31:27Z</time></trkpt><trkpt lat="44.79082432583674" lon="11.427961468608446"><ele>10.0</ele><time>2026-03-24T17:31:28Z</time></trkpt><trkpt lat="44.79085800548949" lon="11.428134062711063"><ele>10.0</ele><time>2026-03-24T17:31:29Z</time></trkpt><trkpt lat="44.790897743715874" lon="11.42824997146087"><ele>10.0</ele><time>2026-03-24T17:31:30Z</time></trkpt><trkpt lat="44.79092215829172" lon="11.428384853418097"><ele>10.0</ele><time>2026-03-24T17:31:31Z</time></trkpt><trkpt lat="44.790944063328666" lon="11.428554318408386"><ele>10.0</ele><time>2026-03-24T17:31:32Z</time></trkpt><trkpt lat="44.79096564868296" lon="11.428742995572803"><ele>10.0</ele><time>2026-03-24T17:31:33Z</time></trkpt><trkpt lat="44.79098238660326" lon="11.42894927772835"><ele>10.0</ele><time>2026-03-24T17:31:34Z</time></trkpt><trkpt lat="44.790988857854224" lon="11.429176785188929"><ele>10.0</ele><time>2026-03-24T17:31:35Z</time></trkpt><trkpt lat="44.79098959231966" lon="11.429429274250792"><ele>9.666666666666668</ele><time>2026-03-24T17:31:36Z</time></trkpt><trkpt lat="44.790990417680554" lon="11.429688854646068"><ele>9.333333333333334</ele><time>2026-03-24T17:31:37Z</time></trkpt><trkpt lat="44.790991259779275" lon="11.42994042936981"><ele>9.0</ele><time>2026-03-24T17:31:38Z</time></trkpt><trkpt lat="44.790992430930196" lon="11.430182787231095"><ele>9.0</ele><time>2026-03-24T17:31:39Z</time></trkpt><trkpt lat="44.79099330582539" lon="11.430435873254138"><ele>9.0</ele><time>2026-03-24T17:31:40Z</time></trkpt><trkpt lat="44.79099443975495" lon="11.430711578587067"><ele>9.0</ele><time>2026-03-24T17:31:41Z</time></trkpt><trkpt lat="44.79099501552804" lon="11.431002217329482"><ele>9.333333333333334</ele><time>2026-03-24T17:31:42Z</time></trkpt><trkpt lat="44.79099499098263" lon="11.431305886176133"><ele>9.666666666666668</ele><time>2026-03-24T17:31:43Z</time></trkpt><trkpt lat="44.79099684652914" lon="11.431621964683037"><ele>10.0</ele><time>2026-03-24T17:31:43.999Z</time></trkpt><trkpt lat="44.79099834971585" lon="11.431951279129317"><ele>10.5</ele><time>2026-03-24T17:31:44.999Z</time></trkpt><trkpt lat="44.79100183341082" lon="11.432297634765225"><ele>11.0</ele><time>2026-03-24T17:31:45.999Z</time></trkpt><trkpt lat="44.79100471111388" lon="11.432659746673703"><ele>11.0</ele><time>2026-03-24T17:31:46.999Z</time></trkpt><trkpt lat="44.791005681168905" lon="11.433040449543975"><ele>11.0</ele><time>2026-03-24T17:31:47.999Z</time></trkpt><trkpt lat="44.791008979739644" lon="11.43343615968159"><ele>11.0</ele><time>2026-03-24T17:31:48.999Z</time></trkpt><trkpt lat="44.791012354579465" lon="11.433835948846916"><ele>11.0</ele><time>2026-03-24T17:31:49.999Z</time></trkpt><trkpt lat="44.79101537418854" lon="11.434253218461217"><ele>11.0</ele><time>2026-03-24T17:31:50.999Z</time></trkpt><trkpt lat="44.791016295107696" lon="11.434685617416912"><ele>11.0</ele><time>2026-03-24T17:31:51.999Z</time></trkpt><trkpt lat="44.79101714008714" lon="11.435130775813645"><ele>10.5</ele><time>2026-03-24T17:31:52.999Z</time></trkpt><trkpt lat="44.791019915297866" lon="11.435586470606202"><ele>10.0</ele><time>2026-03-24T17:31:53.999Z</time></trkpt><trkpt lat="44.79102439042624" lon="11.436045415217002"><ele>9.0</ele><time>2026-03-24T17:31:54.999Z</time></trkpt><trkpt lat="44.79102861687014" lon="11.436516040325793"><ele>8.0</ele><time>2026-03-24T17:31:55.999Z</time></trkpt><trkpt lat="44.791032415226425" lon="11.436995391936211"><ele>8.5</ele><time>2026-03-24T17:31:56.999Z</time></trkpt><trkpt lat="44.791034234850066" lon="11.437501050615557"><ele>9.0</ele><time>2026-03-24T17:31:57.999Z</time></trkpt><trkpt lat="44.791036023222254" lon="11.43800402955034"><ele>9.0</ele><time>2026-03-24T17:31:58.999Z</time></trkpt><trkpt lat="44.79103786140795" lon="11.43852171146624"><ele>9.0</ele><time>2026-03-24T17:31:59.999Z</time></trkpt><trkpt lat="44.791040464233376" lon="11.439050449764844"><ele>9.5</ele><time>2026-03-24T17:32:00.999Z</time></trkpt><trkpt lat="44.791040859420804" lon="11.439587608496277"><ele>10.0</ele><time>2026-03-24T17:32:01.999Z</time></trkpt><trkpt lat="44.79104199454609" lon="11.440094014598726"><ele>9.5</ele><time>2026-03-24T17:32:02.999Z</time></trkpt><trkpt lat="44.79104234776922" lon="11.440557828551254"><ele>9.0</ele><time>2026-03-24T17:32:03.999Z</time></trkpt><trkpt lat="44.79104280966148" lon="11.440996213030179"><ele>9.5</ele><time>2026-03-24T17:32:04.999Z</time></trkpt><trkpt lat="44.79104531571756" lon="11.441427026636118"><ele>10.0</ele><time>2026-03-24T17:32:05.999Z</time></trkpt><trkpt lat="44.79104659357011" lon="11.441839843154987"><ele>10.5</ele><time>2026-03-24T17:32:06.999Z</time></trkpt><trkpt lat="44.79104633367365" lon="11.442234556241415"><ele>11.0</ele><time>2026-03-24T17:32:07.999Z</time></trkpt><trkpt lat="44.791048608694986" lon="11.442619250888274"><ele>10.5</ele><time>2026-03-24T17:32:08.999Z</time></trkpt><trkpt lat="44.79104997750582" lon="11.442990997672279"><ele>10.0</ele><time>2026-03-24T17:32:09.999Z</time></trkpt><trkpt lat="44.79104991018793" lon="11.44335828329119"><ele>10.0</ele><time>2026-03-24T17:32:10.999Z</time></trkpt><trkpt lat="44.79104880542935" lon="11.443724991055229"><ele>10.0</ele><time>2026-03-24T17:32:11.999Z</time></trkpt><trkpt lat="44.79105277693902" lon="11.444086813181242"><ele>10.0</ele><time>2026-03-24T17:32:12.999Z</time></trkpt><trkpt lat="44.79105612375236" lon="11.4444493519452"><ele>10.0</ele><time>2026-03-24T17:32:13.999Z</time></trkpt><trkpt lat="44.79106089594263" lon="11.44481291265916"><ele>10.0</ele><time>2026-03-24T17:32:14.999Z</time></trkpt><trkpt lat="44.79106295700979" lon="11.445175508495405"><ele>10.0</ele><time>2026-03-24T17:32:15.999Z</time></trkpt><trkpt lat="44.791064418416106" lon="11.44554403281166"><ele>9.5</ele><time>2026-03-24T17:32:16.999Z</time></trkpt><trkpt lat="44.79106530305717" lon="11.445922593724218"><ele>9.0</ele><time>2026-03-24T17:32:17.999Z</time></trkpt><trkpt lat="44.79106835201447" lon="11.446311164645403"><ele>9.0</ele><time>2026-03-24T17:32:18.999Z</time></trkpt><trkpt lat="44.79106992877127" lon="11.446704270928626"><ele>9.0</ele><time>2026-03-24T17:32:19.999Z</time></trkpt><trkpt lat="44.79107095269905" lon="11.447099919076557"><ele>8.5</ele><time>2026-03-24T17:32:20.999Z</time></trkpt><trkpt lat="44.79107353076378" lon="11.447491860489025"><ele>8.0</ele><time>2026-03-24T17:32:21.999Z</time></trkpt><trkpt lat="44.79107575071735" lon="11.44788146487848"><ele>8.5</ele><time>2026-03-24T17:32:22.999Z</time></trkpt><trkpt lat="44.791076745507404" lon="11.44827228739882"><ele>9.0</ele><time>2026-03-24T17:32:23.999Z</time></trkpt><trkpt lat="44.79107808066506" lon="11.448654161669113"><ele>8.5</ele><time>2026-03-24T17:32:24.999Z</time></trkpt><trkpt lat="44.7910812763537" lon="11.449024406889992"><ele>8.0</ele><time>2026-03-24T17:32:25.999Z</time></trkpt><trkpt lat="44.79108311329327" lon="11.449362446423956"><ele>8.0</ele><time>2026-03-24T17:32:26.999Z</time></trkpt><trkpt lat="44.79108632926595" lon="11.449687084205614"><ele>8.0</ele><time>2026-03-24T17:32:27.999Z</time></trkpt><trkpt lat="44.791086574554704" lon="11.449989495735693"><ele>8.0</ele><time>2026-03-24T17:32:28.999Z</time></trkpt><trkpt lat="44.79108577523812" lon="11.450291864081132"><ele>8.0</ele><time>2026-03-24T17:32:29.999Z</time></trkpt><trkpt lat="44.79108236616084" lon="11.45060279780063"><ele>8.0</ele><time>2026-03-24T17:32:30.999Z</time></trkpt><trkpt lat="44.79108222631277" lon="11.450909473072606"><ele>8.0</ele><time>2026-03-24T17:32:31.999Z</time></trkpt><trkpt lat="44.791080397434456" lon="11.4512262984907"><ele>7.5</ele><time>2026-03-24T17:32:32.999Z</time></trkpt><trkpt lat="44.79107631675596" lon="11.451542630104525"><ele>7.0</ele><time>2026-03-24T17:32:33.999Z</time></trkpt><trkpt lat="44.7910711855842" lon="11.451860090803928"><ele>7.5</ele><time>2026-03-24T17:32:34.999Z</time></trkpt><trkpt lat="44.79106294488766" lon="11.452176992123709"><ele>8.0</ele><time>2026-03-24T17:32:35.999Z</time></trkpt><trkpt lat="44.791052778597354" lon="11.452498653659376"><ele>8.0</ele><time>2026-03-24T17:32:36.999Z</time></trkpt><trkpt lat="44.79104375494844" lon="11.452825906959045"><ele>8.0</ele><time>2026-03-24T17:32:37.999Z</time></trkpt><trkpt lat="44.79102987449108" lon="11.453174214737214"><ele>8.0</ele><time>2026-03-24T17:32:38.999Z</time></trkpt><trkpt lat="44.79101078856642" lon="11.45353565055142"><ele>8.0</ele><time>2026-03-24T17:32:39.999Z</time></trkpt><trkpt lat="44.790988880476455" lon="11.45390910627207"><ele>8.0</ele><time>2026-03-24T17:32:40.999Z</time></trkpt><trkpt lat="44.79096357709872" lon="11.454291283220462"><ele>8.0</ele><time>2026-03-24T17:32:41.999Z</time></trkpt><trkpt lat="44.79093327026904" lon="11.454681793071535"><ele>8.0</ele><time>2026-03-24T17:32:42.999Z</time></trkpt><trkpt lat="44.790896503236645" lon="11.455079157669276"><ele>8.0</ele><time>2026-03-24T17:32:43.999Z</time></trkpt><trkpt lat="44.79085165098217" lon="11.455483394576962"><ele>8.0</ele><time>2026-03-24T17:32:44.999Z</time></trkpt><trkpt lat="44.790800782247565" lon="11.455888717909183"><ele>8.0</ele><time>2026-03-24T17:32:45.999Z</time></trkpt><trkpt lat="44.790742108429136" lon="11.456297505305292"><ele>8.0</ele><time>2026-03-24T17:32:46.999Z</time></trkpt><trkpt lat="44.790677397748766" lon="11.456705129188958"><ele>8.0</ele><time>2026-03-24T17:32:47.999Z</time></trkpt><trkpt lat="44.79060494168831" lon="11.457112148500073"><ele>8.5</ele><time>2026-03-24T17:32:48.999Z</time></trkpt><trkpt lat="44.79052518517414" lon="11.457518668472751"><ele>9.0</ele><time>2026-03-24T17:32:49.999Z</time></trkpt><trkpt lat="44.79043343936925" lon="11.457925666109853"><ele>9.0</ele><time>2026-03-24T17:32:50.999Z</time></trkpt><trkpt lat="44.79033793579227" lon="11.458331829538082"><ele>9.0</ele><time>2026-03-24T17:32:51.999Z</time></trkpt><trkpt lat="44.79024157970212" lon="11.45873742143299"><ele>8.5</ele><time>2026-03-24T17:32:52.999Z</time></trkpt><trkpt lat="44.79013779542631" lon="11.459140093289768"><ele>8.0</ele><time>2026-03-24T17:32:53.999Z</time></trkpt><trkpt lat="44.79002864924884" lon="11.459539372931893"><ele>7.0</ele><time>2026-03-24T17:32:54.999Z</time></trkpt><trkpt lat="44.78991292777592" lon="11.45993065164365"><ele>6.0</ele><time>2026-03-24T17:32:55.999Z</time></trkpt><trkpt lat="44.7897905309173" lon="11.46031753738031"><ele>6.5</ele><time>2026-03-24T17:32:57Z</time></trkpt><trkpt lat="44.789664271526156" lon="11.460701438462701"><ele>7.0</ele><time>2026-03-24T17:32:58Z</time></trkpt><trkpt lat="44.78953178335281" lon="11.461079020180872"><ele>7.5</ele><time>2026-03-24T17:32:59Z</time></trkpt><trkpt lat="44.78939395340299" lon="11.461446998314463"><ele>8.0</ele><time>2026-03-24T17:33:00Z</time></trkpt><trkpt lat="44.78925059161118" lon="11.461812402469478"><ele>8.0</ele><time>2026-03-24T17:33:01Z</time></trkpt><trkpt lat="44.789088383609744" lon="11.462169198675468"><ele>8.0</ele><time>2026-03-24T17:33:02Z</time></trkpt><trkpt lat="44.78892262975977" lon="11.462540352306837"><ele>8.0</ele><time>2026-03-24T17:33:03Z</time></trkpt><trkpt lat="44.78875059931365" lon="11.462912883587462"><ele>8.0</ele><time>2026-03-24T17:33:04Z</time></trkpt><trkpt lat="44.78856880396483" lon="11.463290311093244"><ele>7.5</ele><time>2026-03-24T17:33:05Z</time></trkpt><trkpt lat="44.78837854724579" lon="11.463664459857243"><ele>7.0</ele><time>2026-03-24T17:33:06Z</time></trkpt><trkpt lat="44.78818217073912" lon="11.464034848292822"><ele>7.0</ele><time>2026-03-24T17:33:07Z</time></trkpt><trkpt lat="44.78797817542332" lon="11.464399939828075"><ele>7.0</ele><time>2026-03-24T17:33:08Z</time></trkpt><trkpt lat="44.787765316369956" lon="11.464760092599242"><ele>7.0</ele><time>2026-03-24T17:33:09Z</time></trkpt><trkpt lat="44.787544475773146" lon="11.465115450318594"><ele>7.0</ele><time>2026-03-24T17:33:10Z</time></trkpt><trkpt lat="44.78731830392439" lon="11.465460004789882"><ele>6.5</ele><time>2026-03-24T17:33:11Z</time></trkpt><trkpt lat="44.78708587083352" lon="11.465798976758405"><ele>6.0</ele><time>2026-03-24T17:33:12Z</time></trkpt><trkpt lat="44.78685197511869" lon="11.466138373223695"><ele>6.5</ele><time>2026-03-24T17:33:13Z</time></trkpt><trkpt lat="44.786607990940894" lon="11.466472459217501"><ele>7.0</ele><time>2026-03-24T17:33:14Z</time></trkpt><trkpt lat="44.78636128184941" lon="11.466804306123064"><ele>7.0</ele><time>2026-03-24T17:33:15Z</time></trkpt><trkpt lat="44.78611118297704" lon="11.467134825982072"><ele>7.0</ele><time>2026-03-24T17:33:16Z</time></trkpt><trkpt lat="44.78585733943563" lon="11.46746144565655"><ele>7.0</ele><time>2026-03-24T17:33:17Z</time></trkpt><trkpt lat="44.78560220569701" lon="11.467783108886332"><ele>7.0</ele><time>2026-03-24T17:33:18Z</time></trkpt><trkpt lat="44.785354319912585" lon="11.468093874826964"><ele>8.5</ele><time>2026-03-24T17:33:19Z</time></trkpt><trkpt lat="44.78511030250737" lon="11.468396817663582"><ele>10.0</ele><time>2026-03-24T17:33:20Z</time></trkpt><trkpt lat="44.78486978698995" lon="11.468691418075844"><ele>9.5</ele><time>2026-03-24T17:33:21Z</time></trkpt><trkpt lat="44.784653332126496" lon="11.468957886928074"><ele>9.0</ele><time>2026-03-24T17:33:22Z</time></trkpt><trkpt lat="44.78445215515737" lon="11.469205794633"><ele>8.5</ele><time>2026-03-24T17:33:23Z</time></trkpt><trkpt lat="44.78426358775815" lon="11.4694411777248"><ele>8.0</ele><time>2026-03-24T17:33:24Z</time></trkpt><trkpt lat="44.78409191409804" lon="11.46965241658778"><ele>7.0</ele><time>2026-03-24T17:33:25Z</time></trkpt><trkpt lat="44.783919324950766" lon="11.469859927218598"><ele>6.0</ele><time>2026-03-24T17:33:26Z</time></trkpt><trkpt lat="44.78374222373983" lon="11.4700763976448"><ele>6.0</ele><time>2026-03-24T17:33:27Z</time></trkpt><trkpt lat="44.783558034271955" lon="11.470301872524374"><ele>6.0</ele><time>2026-03-24T17:33:28Z</time></trkpt><trkpt lat="44.78336745258371" lon="11.470535556514257"><ele>6.5</ele><time>2026-03-24T17:33:29Z</time></trkpt><trkpt lat="44.78317450307392" lon="11.470773306312667"><ele>7.0</ele><time>2026-03-24T17:33:30Z</time></trkpt><trkpt lat="44.78297896726101" lon="11.471009136532384"><ele>7.0</ele><time>2026-03-24T17:33:31Z</time></trkpt><trkpt lat="44.782783178610984" lon="11.471245463862925"><ele>7.0</ele><time>2026-03-24T17:33:32Z</time></trkpt><trkpt lat="44.7825872538789" lon="11.47148820544467"><ele>6.0</ele><time>2026-03-24T17:33:33Z</time></trkpt><trkpt lat="44.7823956623059" lon="11.471732292405278"><ele>5.0</ele><time>2026-03-24T17:33:34Z</time></trkpt><trkpt lat="44.78220183547914" lon="11.4719772816599"><ele>5.5</ele><time>2026-03-24T17:33:35Z</time></trkpt><trkpt lat="44.782007463679086" lon="11.472219010772806"><ele>6.0</ele><time>2026-03-24T17:33:36Z</time></trkpt><trkpt lat="44.781813809126234" lon="11.472456872785342"><ele>6.5</ele><time>2026-03-24T17:33:37Z</time></trkpt><trkpt lat="44.78161641472969" lon="11.472695537155165"><ele>7.0</ele><time>2026-03-24T17:33:38Z</time></trkpt><trkpt lat="44.78142034457119" lon="11.47293550327991"><ele>8.0</ele><time>2026-03-24T17:33:39Z</time></trkpt><trkpt lat="44.78122339497046" lon="11.473185568935554"><ele>9.0</ele><time>2026-03-24T17:33:40Z</time></trkpt><trkpt lat="44.78102427676301" lon="11.473424671658753"><ele>9.0</ele><time>2026-03-24T17:33:41Z</time></trkpt><trkpt lat="44.780826688239834" lon="11.473671634770502"><ele>9.0</ele><time>2026-03-24T17:33:42Z</time></trkpt><trkpt lat="44.78063087083723" lon="11.473916778157779"><ele>9.0</ele><time>2026-03-24T17:33:43Z</time></trkpt><trkpt lat="44.780433940741865" lon="11.474163902026168"><ele>9.0</ele><time>2026-03-24T17:33:44Z</time></trkpt><trkpt lat="44.78023681257389" lon="11.474408521506579"><ele>8.5</ele><time>2026-03-24T17:33:45Z</time></trkpt><trkpt lat="44.78004313905202" lon="11.474649275705882"><ele>8.0</ele><time>2026-03-24T17:33:46Z</time></trkpt><trkpt lat="44.77984545581126" lon="11.474891684096784"><ele>8.0</ele><time>2026-03-24T17:33:47Z</time></trkpt><trkpt lat="44.77965284734659" lon="11.475132519064699"><ele>8.0</ele><time>2026-03-24T17:33:48Z</time></trkpt><trkpt lat="44.77946404874285" lon="11.475375177904965"><ele>7.5</ele><time>2026-03-24T17:33:49Z</time></trkpt><trkpt lat="44.77928099248451" lon="11.475615391640515"><ele>7.0</ele><time>2026-03-24T17:33:50Z</time></trkpt><trkpt lat="44.77910471321535" lon="11.475863565757727"><ele>7.0</ele><time>2026-03-24T17:33:51Z</time></trkpt><trkpt lat="44.77893465152121" lon="11.476110618468132"><ele>7.0</ele><time>2026-03-24T17:33:51.999Z</time></trkpt><trkpt lat="44.77877133415056" lon="11.476361480605966"><ele>7.0</ele><time>2026-03-24T17:33:52.999Z</time></trkpt><trkpt lat="44.77862240252958" lon="11.476606818239896"><ele>7.0</ele><time>2026-03-24T17:33:53.999Z</time></trkpt><trkpt lat="44.77847859302643" lon="11.47685292146328"><ele>7.0</ele><time>2026-03-24T17:33:54.999Z</time></trkpt><trkpt lat="44.77833748420525" lon="11.477100497196572"><ele>7.0</ele><time>2026-03-24T17:33:55.999Z</time></trkpt><trkpt lat="44.778205686232916" lon="11.477346745614897"><ele>7.0</ele><time>2026-03-24T17:33:56.999Z</time></trkpt><trkpt lat="44.77808558859209" lon="11.477588616175346"><ele>7.0</ele><time>2026-03-24T17:33:57.999Z</time></trkpt><trkpt lat="44.777971067865906" lon="11.477825709582449"><ele>7.0</ele><time>2026-03-24T17:33:58.999Z</time></trkpt><trkpt lat="44.77785792571331" lon="11.478071883890662"><ele>7.0</ele><time>2026-03-24T17:33:59.999Z</time></trkpt><trkpt lat="44.777747664461" lon="11.478330035739202"><ele>7.333333333333334</ele><time>2026-03-24T17:34:00.999Z</time></trkpt><trkpt lat="44.77764449116202" lon="11.478586237787432"><ele>7.666666666666666</ele><time>2026-03-24T17:34:01.999Z</time></trkpt><trkpt lat="44.77755027215395" lon="11.478840806336631"><ele>8.0</ele><time>2026-03-24T17:34:02.999Z</time></trkpt><trkpt lat="44.777458799889914" lon="11.479092060482891"><ele>8.0</ele><time>2026-03-24T17:34:03.999Z</time></trkpt><trkpt lat="44.77737339421245" lon="11.4793369206334"><ele>8.0</ele><time>2026-03-24T17:34:04.999Z</time></trkpt><trkpt lat="44.77729538363182" lon="11.479586715146961"><ele>8.0</ele><time>2026-03-24T17:34:05.999Z</time></trkpt><trkpt lat="44.77722193295983" lon="11.479850525212262"><ele>8.0</ele><time>2026-03-24T17:34:06.999Z</time></trkpt><trkpt lat="44.7771611007237" lon="11.480088736611597"><ele>8.0</ele><time>2026-03-24T17:34:07.999Z</time></trkpt><trkpt lat="44.77710303690748" lon="11.480318875597654"><ele>8.0</ele><time>2026-03-24T17:34:08.999Z</time></trkpt><trkpt lat="44.77704831739374" lon="11.480535918374915"><ele>8.0</ele><time>2026-03-24T17:34:09.999Z</time></trkpt><trkpt lat="44.77699544075895" lon="11.480768097328069"><ele>8.0</ele><time>2026-03-24T17:34:10.999Z</time></trkpt><trkpt lat="44.77694437484199" lon="11.48100653794644"><ele>8.0</ele><time>2026-03-24T17:34:11.999Z</time></trkpt><trkpt lat="44.77689724324665" lon="11.481248618779864"><ele>8.0</ele><time>2026-03-24T17:34:12.999Z</time></trkpt><trkpt lat="44.77685496055489" lon="11.481501789949261"><ele>8.0</ele><time>2026-03-24T17:34:13.999Z</time></trkpt><trkpt lat="44.77681622024517" lon="11.481754256146182"><ele>8.0</ele><time>2026-03-24T17:34:14.999Z</time></trkpt><trkpt lat="44.77678141924768" lon="11.482014344420712"><ele>8.666666666666666</ele><time>2026-03-24T17:34:15.999Z</time></trkpt><trkpt lat="44.77674784042407" lon="11.4822829397566"><ele>9.333333333333334</ele><time>2026-03-24T17:34:16.999Z</time></trkpt><trkpt lat="44.77671897814584" lon="11.482558147244543"><ele>10.0</ele><time>2026-03-24T17:34:17.999Z</time></trkpt><trkpt lat="44.77669251163334" lon="11.48283336111495"><ele>9.666666666666668</ele><time>2026-03-24T17:34:18.999Z</time></trkpt><trkpt lat="44.77666916040496" lon="11.483090367326213"><ele>9.333333333333334</ele><time>2026-03-24T17:34:19.999Z</time></trkpt><trkpt lat="44.77665624064662" lon="11.48333636421422"><ele>9.0</ele><time>2026-03-24T17:34:20.999Z</time></trkpt><trkpt lat="44.77664420987897" lon="11.483574403038075"><ele>8.666666666666666</ele><time>2026-03-24T17:34:21.999Z</time></trkpt><trkpt lat="44.77663266573673" lon="11.483824452282997"><ele>8.333333333333332</ele><time>2026-03-24T17:34:22.999Z</time></trkpt><trkpt lat="44.77661765089045" lon="11.484087773444468"><ele>8.0</ele><time>2026-03-24T17:34:23.999Z</time></trkpt><trkpt lat="44.77660055432327" lon="11.484364155668235"><ele>8.333333333333332</ele><time>2026-03-24T17:34:24.999Z</time></trkpt><trkpt lat="44.7765819397551" lon="11.484647805552115"><ele>8.666666666666666</ele><time>2026-03-24T17:34:25.999Z</time></trkpt><trkpt lat="44.77656718881296" lon="11.4849378962074"><ele>9.0</ele><time>2026-03-24T17:34:26.999Z</time></trkpt><trkpt lat="44.77656737351982" lon="11.485234089562477"><ele>9.0</ele><time>2026-03-24T17:34:27.999Z</time></trkpt><trkpt lat="44.77653048696621" lon="11.485502859617831"><ele>9.0</ele><time>2026-03-24T17:34:28.999Z</time></trkpt><trkpt lat="44.776512943717584" lon="11.485759280136161"><ele>9.0</ele><time>2026-03-24T17:34:29.999Z</time></trkpt><trkpt lat="44.776496426254134" lon="11.48599865721527"><ele>9.0</ele><time>2026-03-24T17:34:30.999Z</time></trkpt><trkpt lat="44.776480585864675" lon="11.486224497738101"><ele>9.0</ele><time>2026-03-24T17:34:31.999Z</time></trkpt><trkpt lat="44.776469332866185" lon="11.486442413070728"><ele>9.0</ele><time>2026-03-24T17:34:32.999Z</time></trkpt><trkpt lat="44.776464361222615" lon="11.486646706291406"><ele>9.0</ele><time>2026-03-24T17:34:33.999Z</time></trkpt><trkpt lat="44.77646363589361" lon="11.486831674143225"><ele>9.0</ele><time>2026-03-24T17:34:34.999Z</time></trkpt><trkpt lat="44.77646452423999" lon="11.487000215616442"><ele>9.0</ele><time>2026-03-24T17:34:35.999Z</time></trkpt><trkpt lat="44.77646617453697" lon="11.487147422509183"><ele>9.0</ele><time>2026-03-24T17:34:36.999Z</time></trkpt><trkpt lat="44.77646691864003" lon="11.487277343767188"><ele>9.0</ele><time>2026-03-24T17:34:37.999Z</time></trkpt><trkpt lat="44.77646566553259" lon="11.48739234996135"><ele>9.0</ele><time>2026-03-24T17:34:38.999Z</time></trkpt><trkpt lat="44.77646030508742" lon="11.487495777108352"><ele>9.0</ele><time>2026-03-24T17:34:39.999Z</time></trkpt><trkpt lat="44.77644146434819" lon="11.487603550630507"><ele>9.0</ele><time>2026-03-24T17:34:40.999Z</time></trkpt><trkpt lat="44.77640539708258" lon="11.487709335098943"><ele>9.0</ele><time>2026-03-24T17:34:41.999Z</time></trkpt><trkpt lat="44.77636032923627" lon="11.487809043072419"><ele>9.0</ele><time>2026-03-24T17:34:42.999Z</time></trkpt><trkpt lat="44.77630819305821" lon="11.487913926460715"><ele>9.0</ele><time>2026-03-24T17:34:43.999Z</time></trkpt><trkpt lat="44.776251861265415" lon="11.488020093990096"><ele>9.0</ele><time>2026-03-24T17:34:44.999Z</time></trkpt><trkpt lat="44.77623513356347" lon="11.488160515239738"><ele>9.0</ele><time>2026-03-24T17:34:45.999Z</time></trkpt><trkpt lat="44.776242962047306" lon="11.488292860760929"><ele>9.0</ele><time>2026-03-24T17:34:46.999Z</time></trkpt><trkpt lat="44.77627799151574" lon="11.488423523446267"><ele>9.0</ele><time>2026-03-24T17:34:47.999Z</time></trkpt><trkpt lat="44.77633625821971" lon="11.488540100344293"><ele>9.0</ele><time>2026-03-24T17:34:48.999Z</time></trkpt><trkpt lat="44.77640483271543" lon="11.48863511802585"><ele>9.0</ele><time>2026-03-24T17:34:49.999Z</time></trkpt><trkpt lat="44.77650739069706" lon="11.488666574671882"><ele>9.0</ele><time>2026-03-24T17:34:50.999Z</time></trkpt><trkpt lat="44.776602972691364" lon="11.488687581074334"><ele>9.0</ele><time>2026-03-24T17:34:51.999Z</time></trkpt><trkpt lat="44.77670145082939" lon="11.488672348327118"><ele>9.0</ele><time>2026-03-24T17:34:52.999Z</time></trkpt><trkpt lat="44.776801862352606" lon="11.488634343988364"><ele>9.0</ele><time>2026-03-24T17:34:53.999Z</time></trkpt><trkpt lat="44.77689748029618" lon="11.48855047520964"><ele>9.0</ele><time>2026-03-24T17:34:54.999Z</time></trkpt><trkpt lat="44.77696181800368" lon="11.488443322385827"><ele>9.0</ele><time>2026-03-24T17:34:55.999Z</time></trkpt><trkpt lat="44.77697777717407" lon="11.488313900983647"><ele>9.0</ele><time>2026-03-24T17:34:56.999Z</time></trkpt><trkpt lat="44.77710367359665" lon="11.488270635834452"><ele>9.0</ele><time>2026-03-24T17:34:57.999Z</time></trkpt><trkpt lat="44.7772154826926" lon="11.488217944527456"><ele>9.0</ele><time>2026-03-24T17:34:58.999Z</time></trkpt><trkpt lat="44.77734932681235" lon="11.488191100662664"><ele>9.0</ele><time>2026-03-24T17:34:59.999Z</time></trkpt><trkpt lat="44.777505958795274" lon="11.488185294729435"><ele>9.0</ele><time>2026-03-24T17:35:00.999Z</time></trkpt><trkpt lat="44.77768310035786" lon="11.488186807266102"><ele>9.0</ele><time>2026-03-24T17:35:01.999Z</time></trkpt><trkpt lat="44.77789244755577" lon="11.488182865153188"><ele>8.666666666666666</ele><time>2026-03-24T17:35:03Z</time></trkpt><trkpt lat="44.77810524931969" lon="11.488175937263987"><ele>8.333333333333332</ele><time>2026-03-24T17:35:04Z</time></trkpt><trkpt lat="44.778281979506424" lon="11.488167907508764"><ele>8.0</ele><time>2026-03-24T17:35:05Z</time></trkpt><trkpt lat="44.778459270913935" lon="11.488156994798603"><ele>8.0</ele><time>2026-03-24T17:35:06Z</time></trkpt><trkpt lat="44.778625311456985" lon="11.488153645196892"><ele>8.0</ele><time>2026-03-24T17:35:07Z</time></trkpt><trkpt lat="44.77876708181684" lon="11.488169607677177"><ele>8.0</ele><time>2026-03-24T17:35:08Z</time></trkpt><trkpt lat="44.77889512539019" lon="11.488216070580343"><ele>8.0</ele><time>2026-03-24T17:35:09Z</time></trkpt><trkpt lat="44.77900894431016" lon="11.488284486340422"><ele>8.0</ele><time>2026-03-24T17:35:10Z</time></trkpt><trkpt lat="44.77911969426359" lon="11.488387682060765"><ele>8.0</ele><time>2026-03-24T17:35:11Z</time></trkpt><trkpt lat="44.7792375245763" lon="11.48851785122036"><ele>8.0</ele><time>2026-03-24T17:35:12Z</time></trkpt><trkpt lat="44.779358583128385" lon="11.48865357575912"><ele>8.0</ele><time>2026-03-24T17:35:13Z</time></trkpt><trkpt lat="44.779481952962335" lon="11.48878917104061"><ele>8.333333333333332</ele><time>2026-03-24T17:35:14Z</time></trkpt><trkpt lat="44.77960227289808" lon="11.488917737405792"><ele>8.666666666666666</ele><time>2026-03-24T17:35:15Z</time></trkpt><trkpt lat="44.77972327465929" lon="11.489040317139935"><ele>9.0</ele><time>2026-03-24T17:35:16Z</time></trkpt><trkpt lat="44.7798555029516" lon="11.489173805140474"><ele>9.0</ele><time>2026-03-24T17:35:17Z</time></trkpt><trkpt lat="44.77999197243392" lon="11.489313704344465"><ele>9.0</ele><time>2026-03-24T17:35:18Z</time></trkpt><trkpt lat="44.78012970136725" lon="11.489463127845857"><ele>9.0</ele><time>2026-03-24T17:35:19Z</time></trkpt><trkpt lat="44.78026205903076" lon="11.48960443514633"><ele>9.666666666666666</ele><time>2026-03-24T17:35:20Z</time></trkpt><trkpt lat="44.78039744064833" lon="11.48974665590192"><ele>10.333333333333332</ele><time>2026-03-24T17:35:21Z</time></trkpt><trkpt lat="44.7805533509192" lon="11.489903871645819"><ele>11.0</ele><time>2026-03-24T17:35:22Z</time></trkpt><trkpt lat="44.78072651186141" lon="11.490108196845943"><ele>11.0</ele><time>2026-03-24T17:35:23Z</time></trkpt><trkpt lat="44.7809400495291" lon="11.490312353234"><ele>11.0</ele><time>2026-03-24T17:35:24Z</time></trkpt><trkpt lat="44.781152010607904" lon="11.49055328566142"><ele>10.0</ele><time>2026-03-24T17:35:25Z</time></trkpt><trkpt lat="44.78133846324632" lon="11.490759526102888"><ele>9.0</ele><time>2026-03-24T17:35:26Z</time></trkpt><trkpt lat="44.78152112414014" lon="11.490956717320449"><ele>9.0</ele><time>2026-03-24T17:35:27Z</time></trkpt><trkpt lat="44.781699867525944" lon="11.491153749081853"><ele>9.0</ele><time>2026-03-24T17:35:28Z</time></trkpt><trkpt lat="44.781861905389704" lon="11.491333805485532"><ele>9.0</ele><time>2026-03-24T17:35:29Z</time></trkpt><trkpt lat="44.7820125832456" lon="11.491500831274017"><ele>9.0</ele><time>2026-03-24T17:35:30Z</time></trkpt><trkpt lat="44.78215174052092" lon="11.491657319542508"><ele>9.0</ele><time>2026-03-24T17:35:31Z</time></trkpt><trkpt lat="44.78228375656327" lon="11.491806628653283"><ele>9.0</ele><time>2026-03-24T17:35:32Z</time></trkpt><trkpt lat="44.78241336201346" lon="11.491952089465919"><ele>9.0</ele><time>2026-03-24T17:35:33Z</time></trkpt><trkpt lat="44.78254470140297" lon="11.492102815445602"><ele>9.0</ele><time>2026-03-24T17:35:34Z</time></trkpt><trkpt lat="44.78267844539778" lon="11.492255076044097"><ele>9.0</ele><time>2026-03-24T17:35:35Z</time></trkpt><trkpt lat="44.78281167396343" lon="11.49240525915096"><ele>9.0</ele><time>2026-03-24T17:35:36Z</time></trkpt><trkpt lat="44.78293262542403" lon="11.492540258477277"><ele>9.0</ele><time>2026-03-24T17:35:37Z</time></trkpt><trkpt lat="44.783044390973714" lon="11.492668514301705"><ele>9.0</ele><time>2026-03-24T17:35:38Z</time></trkpt><trkpt lat="44.78314861917684" lon="11.492788362915359"><ele>9.0</ele><time>2026-03-24T17:35:39Z</time></trkpt><trkpt lat="44.78325189966428" lon="11.492908996129593"><ele>9.0</ele><time>2026-03-24T17:35:40Z</time></trkpt><trkpt lat="44.78335952591631" lon="11.493029351925966"><ele>9.0</ele><time>2026-03-24T17:35:41Z</time></trkpt><trkpt lat="44.783465881567416" lon="11.49315522490677"><ele>9.0</ele><time>2026-03-24T17:35:42Z</time></trkpt><trkpt lat="44.78357667494535" lon="11.493283159348023"><ele>9.0</ele><time>2026-03-24T17:35:43Z</time></trkpt><trkpt lat="44.78369178660368" lon="11.49341467009245"><ele>8.5</ele><time>2026-03-24T17:35:44Z</time></trkpt><trkpt lat="44.78379779934343" lon="11.493538324919736"><ele>8.0</ele><time>2026-03-24T17:35:45Z</time></trkpt><trkpt lat="44.78389927687786" lon="11.493654585368848"><ele>7.5</ele><time>2026-03-24T17:35:46Z</time></trkpt><trkpt lat="44.784000295078606" lon="11.493765870840909"><ele>7.0</ele><time>2026-03-24T17:35:47Z</time></trkpt><trkpt lat="44.7841001693434" lon="11.49388174836344"><ele>7.0</ele><time>2026-03-24T17:35:48Z</time></trkpt><trkpt lat="44.78419749269429" lon="11.493992668987428"><ele>6.999999999999999</ele><time>2026-03-24T17:35:49Z</time></trkpt><trkpt lat="44.78428834617184" lon="11.494098605909588"><ele>6.999999999999999</ele><time>2026-03-24T17:35:50Z</time></trkpt><trkpt lat="44.78436603814852" lon="11.494183978967316"><ele>7.0</ele><time>2026-03-24T17:35:51Z</time></trkpt><trkpt lat="44.78443344902989" lon="11.49426115999499"><ele>7.0</ele><time>2026-03-24T17:35:52Z</time></trkpt><trkpt lat="44.784492631769574" lon="11.494331477911267"><ele>7.000000000000001</ele><time>2026-03-24T17:35:53Z</time></trkpt><trkpt lat="44.784542243139086" lon="11.494387095139494"><ele>7.0</ele><time>2026-03-24T17:35:54Z</time></trkpt><trkpt lat="44.78462864242389" lon="11.494489592427259"><ele>7.0</ele><time>2026-03-24T17:35:55.999Z</time></trkpt><trkpt lat="44.78466058217791" lon="11.494569929525465"><ele>7.0</ele><time>2026-03-24T17:35:56.999Z</time></trkpt><trkpt lat="44.784683887912884" lon="11.494663514578768"><ele>7.000000000000001</ele><time>2026-03-24T17:35:57.999Z</time></trkpt><trkpt lat="44.78470483856223" lon="11.494765910048898"><ele>7.0</ele><time>2026-03-24T17:35:58.999Z</time></trkpt><trkpt lat="44.78473149569798" lon="11.494861564122095"><ele>7.166666666666667</ele><time>2026-03-24T17:35:59.999Z</time></trkpt><trkpt lat="44.78476619524477" lon="11.494951770773616"><ele>7.333333333333334</ele><time>2026-03-24T17:36:00.999Z</time></trkpt><trkpt lat="44.784813901212814" lon="11.495019831829339"><ele>7.5</ele><time>2026-03-24T17:36:01.999Z</time></trkpt><trkpt lat="44.78489383895694" lon="11.495050900836581"><ele>7.666666666666666</ele><time>2026-03-24T17:36:02.999Z</time></trkpt><trkpt lat="44.784969034534136" lon="11.495055092887844"><ele>7.833333333333333</ele><time>2026-03-24T17:36:03.999Z</time></trkpt><trkpt lat="44.78504745573897" lon="11.495015548278428"><ele>8.0</ele><time>2026-03-24T17:36:04.999Z</time></trkpt><trkpt lat="44.78511088616655" lon="11.494948158120842"><ele>7.999999999999999</ele><time>2026-03-24T17:36:05.999Z</time></trkpt><trkpt lat="44.78515581610996" lon="11.494843528622017"><ele>8.0</ele><time>2026-03-24T17:36:06.999Z</time></trkpt><trkpt lat="44.785175831043276" lon="11.494725550311953"><ele>8.0</ele><time>2026-03-24T17:36:07.999Z</time></trkpt><trkpt lat="44.78514025543869" lon="11.494608982249543"><ele>8.0</ele><time>2026-03-24T17:36:08.999Z</time></trkpt><trkpt lat="44.785138570551716" lon="11.494503270235363"><ele>7.999999999999999</ele><time>2026-03-24T17:36:09.999Z</time></trkpt><trkpt lat="44.78515754580001" lon="11.49439828840166"><ele>8.0</ele><time>2026-03-24T17:36:10.999Z</time></trkpt><trkpt lat="44.78519597391621" lon="11.494287466565002"><ele>7.833333333333333</ele><time>2026-03-24T17:36:11.999Z</time></trkpt><trkpt lat="44.785252205918894" lon="11.49417928660423"><ele>7.666666666666666</ele><time>2026-03-24T17:36:12.999Z</time></trkpt><trkpt lat="44.78532147632121" lon="11.494094438278799"><ele>7.5</ele><time>2026-03-24T17:36:13.999Z</time></trkpt><trkpt lat="44.78539516006631" lon="11.494020756499195"><ele>7.333333333333334</ele><time>2026-03-24T17:36:14.999Z</time></trkpt><trkpt lat="44.7854761606059" lon="11.493956869462982"><ele>7.166666666666667</ele><time>2026-03-24T17:36:15.999Z</time></trkpt><trkpt lat="44.78554385385302" lon="11.49390393885221"><ele>7.0</ele><time>2026-03-24T17:36:16.999Z</time></trkpt><trkpt lat="44.785609716489226" lon="11.493854631355681"><ele>7.0</ele><time>2026-03-24T17:36:17.999Z</time></trkpt><trkpt lat="44.78568359941255" lon="11.493795917024414"><ele>6.999999999999999</ele><time>2026-03-24T17:36:18.999Z</time></trkpt><trkpt lat="44.78575790637675" lon="11.493736823755162"><ele>6.999999999999999</ele><time>2026-03-24T17:36:19.999Z</time></trkpt><trkpt lat="44.78583341936666" lon="11.493673141649628"><ele>7.0</ele><time>2026-03-24T17:36:20.999Z</time></trkpt><trkpt lat="44.78592009933094" lon="11.493594570631842"><ele>7.0</ele><time>2026-03-24T17:36:21.999Z</time></trkpt><trkpt lat="44.78601989876396" lon="11.493513587813881"><ele>7.25</ele><time>2026-03-24T17:36:22.999Z</time></trkpt><trkpt lat="44.7861269961918" lon="11.493431668261797"><ele>7.5</ele><time>2026-03-24T17:36:23.999Z</time></trkpt><trkpt lat="44.78623941544277" lon="11.493340817968965"><ele>7.75</ele><time>2026-03-24T17:36:24.999Z</time></trkpt><trkpt lat="44.78634488461442" lon="11.493254402549866"><ele>8.0</ele><time>2026-03-24T17:36:25.999Z</time></trkpt><trkpt lat="44.7864504962338" lon="11.493170177008338"><ele>8.0</ele><time>2026-03-24T17:36:26.999Z</time></trkpt><trkpt lat="44.78656151205619" lon="11.493080038627399"><ele>8.0</ele><time>2026-03-24T17:36:27.999Z</time></trkpt><trkpt lat="44.78667464815611" lon="11.492982259143753"><ele>8.0</ele><time>2026-03-24T17:36:28.999Z</time></trkpt><trkpt lat="44.786788666146315" lon="11.49288116227891"><ele>8.0</ele><time>2026-03-24T17:36:29.999Z</time></trkpt><trkpt lat="44.78690235280174" lon="11.492775653477901"><ele>7.75</ele><time>2026-03-24T17:36:30.999Z</time></trkpt><trkpt lat="44.78701734384234" lon="11.4926673615042"><ele>7.5</ele><time>2026-03-24T17:36:31.999Z</time></trkpt><trkpt lat="44.78713441424844" lon="11.492556621247621"><ele>7.25</ele><time>2026-03-24T17:36:32.999Z</time></trkpt><trkpt lat="44.78725691805161" lon="11.492435170490152"><ele>7.0</ele><time>2026-03-24T17:36:33.999Z</time></trkpt><trkpt lat="44.787379484295606" lon="11.49230934766096"><ele>7.0</ele><time>2026-03-24T17:36:34.999Z</time></trkpt><trkpt lat="44.78749480939767" lon="11.492181397965581"><ele>7.0</ele><time>2026-03-24T17:36:35.999Z</time></trkpt><trkpt lat="44.78760677223283" lon="11.492052895865253"><ele>7.0</ele><time>2026-03-24T17:36:36.999Z</time></trkpt><trkpt lat="44.787722538165504" lon="11.491923158160493"><ele>7.0</ele><time>2026-03-24T17:36:37.999Z</time></trkpt><trkpt lat="44.78783467616184" lon="11.491795725485705"><ele>7.5</ele><time>2026-03-24T17:36:38.999Z</time></trkpt><trkpt lat="44.78793994857734" lon="11.491672199554348"><ele>8.0</ele><time>2026-03-24T17:36:39.999Z</time></trkpt><trkpt lat="44.788047662464194" lon="11.491547204416607"><ele>8.5</ele><time>2026-03-24T17:36:40.999Z</time></trkpt><trkpt lat="44.788157938777985" lon="11.491422334331777"><ele>9.0</ele><time>2026-03-24T17:36:41.999Z</time></trkpt><trkpt lat="44.788271461410105" lon="11.491301009751325"><ele>8.5</ele><time>2026-03-24T17:36:42.999Z</time></trkpt><trkpt lat="44.78838292464932" lon="11.491185610999013"><ele>8.0</ele><time>2026-03-24T17:36:43.999Z</time></trkpt><trkpt lat="44.78850324453134" lon="11.491074914598036"><ele>7.5</ele><time>2026-03-24T17:36:44.999Z</time></trkpt><trkpt lat="44.788630307305276" lon="11.490976682624867"><ele>7.0</ele><time>2026-03-24T17:36:45.999Z</time></trkpt><trkpt lat="44.78876202909023" lon="11.490884933523375"><ele>7.0</ele><time>2026-03-24T17:36:46.999Z</time></trkpt><trkpt lat="44.78889303322413" lon="11.490798878444794"><ele>7.0</ele><time>2026-03-24T17:36:47.999Z</time></trkpt><trkpt lat="44.78901766622043" lon="11.490717759343346"><ele>7.0</ele><time>2026-03-24T17:36:48.999Z</time></trkpt><trkpt lat="44.789146107449014" lon="11.49063723680017"><ele>7.0</ele><time>2026-03-24T17:36:49.999Z</time></trkpt><trkpt lat="44.789279784797344" lon="11.490556274242682"><ele>7.25</ele><time>2026-03-24T17:36:50.999Z</time></trkpt><trkpt lat="44.78940886578943" lon="11.490479446727589"><ele>7.5</ele><time>2026-03-24T17:36:51.999Z</time></trkpt><trkpt lat="44.78953907309772" lon="11.490401852069153"><ele>7.75</ele><time>2026-03-24T17:36:52.999Z</time></trkpt><trkpt lat="44.789671237093884" lon="11.49032283188578"><ele>8.0</ele><time>2026-03-24T17:36:53.999Z</time></trkpt><trkpt lat="44.78980432263261" lon="11.490246797251965"><ele>8.0</ele><time>2026-03-24T17:36:54.999Z</time></trkpt><trkpt lat="44.78994234002282" lon="11.49016579525046"><ele>8.0</ele><time>2026-03-24T17:36:55.999Z</time></trkpt><trkpt lat="44.79007851939241" lon="11.490086117902473"><ele>8.0</ele><time>2026-03-24T17:36:56.999Z</time></trkpt><trkpt lat="44.79021092408478" lon="11.490013914877265"><ele>8.0</ele><time>2026-03-24T17:36:57.999Z</time></trkpt><trkpt lat="44.79033851002216" lon="11.489941828307687"><ele>8.0</ele><time>2026-03-24T17:36:58.999Z</time></trkpt><trkpt lat="44.79046313292823" lon="11.489870832727322"><ele>8.0</ele><time>2026-03-24T17:36:59.999Z</time></trkpt><trkpt lat="44.79059081354016" lon="11.489793124706653"><ele>8.0</ele><time>2026-03-24T17:37:00.999Z</time></trkpt><trkpt lat="44.79072084133278" lon="11.4897110831173"><ele>8.0</ele><time>2026-03-24T17:37:01.999Z</time></trkpt><trkpt lat="44.790851481152075" lon="11.489624837661909"><ele>7.75</ele><time>2026-03-24T17:37:02.999Z</time></trkpt><trkpt lat="44.79097852829458" lon="11.48953278758875"><ele>7.5</ele><time>2026-03-24T17:37:03.999Z</time></trkpt><trkpt lat="44.791106049871495" lon="11.489435953272402"><ele>7.25</ele><time>2026-03-24T17:37:04.999Z</time></trkpt><trkpt lat="44.79123569425768" lon="11.489335970569266"><ele>7.0</ele><time>2026-03-24T17:37:05.999Z</time></trkpt><trkpt lat="44.79135879681451" lon="11.489241017155061"><ele>7.0</ele><time>2026-03-24T17:37:06.999Z</time></trkpt><trkpt lat="44.79147370143861" lon="11.48915269163181"><ele>7.0</ele><time>2026-03-24T17:37:07.999Z</time></trkpt><trkpt lat="44.79159396269084" lon="11.489056257001424"><ele>7.0</ele><time>2026-03-24T17:37:09Z</time></trkpt><trkpt lat="44.79171208054563" lon="11.488961410212355"><ele>7.0</ele><time>2026-03-24T17:37:10Z</time></trkpt><trkpt lat="44.79183802995543" lon="11.488862787141729"><ele>7.333333333333334</ele><time>2026-03-24T17:37:11Z</time></trkpt><trkpt lat="44.79196874272368" lon="11.488758208813909"><ele>7.666666666666666</ele><time>2026-03-24T17:37:12Z</time></trkpt><trkpt lat="44.792104097336825" lon="11.488650419456244"><ele>8.0</ele><time>2026-03-24T17:37:13Z</time></trkpt><trkpt lat="44.792244277710296" lon="11.488537278847732"><ele>8.0</ele><time>2026-03-24T17:37:14Z</time></trkpt><trkpt lat="44.79239837865133" lon="11.48841675672441"><ele>8.0</ele><time>2026-03-24T17:37:15Z</time></trkpt><trkpt lat="44.79255389729919" lon="11.488281962739851"><ele>8.0</ele><time>2026-03-24T17:37:16Z</time></trkpt><trkpt lat="44.79270107546811" lon="11.488162397184611"><ele>8.333333333333332</ele><time>2026-03-24T17:37:17Z</time></trkpt><trkpt lat="44.79283723799283" lon="11.488049208272209"><ele>8.666666666666666</ele><time>2026-03-24T17:37:18Z</time></trkpt><trkpt lat="44.792975457191844" lon="11.487926481329836"><ele>9.0</ele><time>2026-03-24T17:37:19Z</time></trkpt><trkpt lat="44.79311815923037" lon="11.487807231359987"><ele>9.0</ele><time>2026-03-24T17:37:20Z</time></trkpt><trkpt lat="44.7932593704135" lon="11.487684762724506"><ele>9.0</ele><time>2026-03-24T17:37:21Z</time></trkpt><trkpt lat="44.79340262024596" lon="11.487561791693963"><ele>9.0</ele><time>2026-03-24T17:37:22Z</time></trkpt><trkpt lat="44.79355168051357" lon="11.487437447105203"><ele>8.666666666666666</ele><time>2026-03-24T17:37:23Z</time></trkpt><trkpt lat="44.79369805908783" lon="11.4873143884903"><ele>8.333333333333332</ele><time>2026-03-24T17:37:24Z</time></trkpt><trkpt lat="44.793841025035164" lon="11.487192465258422"><ele>8.0</ele><time>2026-03-24T17:37:25Z</time></trkpt><trkpt lat="44.793981562395345" lon="11.487077041761648"><ele>8.0</ele><time>2026-03-24T17:37:26Z</time></trkpt><trkpt lat="44.79412206573725" lon="11.486959590155244"><ele>8.0</ele><time>2026-03-24T17:37:27Z</time></trkpt><trkpt lat="44.794261982937584" lon="11.486839539328425"><ele>8.0</ele><time>2026-03-24T17:37:28Z</time></trkpt><trkpt lat="44.794405782028356" lon="11.48672049370778"><ele>8.333333333333332</ele><time>2026-03-24T17:37:29Z</time></trkpt><trkpt lat="44.79455486633799" lon="11.486600866830278"><ele>8.666666666666666</ele><time>2026-03-24T17:37:30Z</time></trkpt><trkpt lat="44.794705474598295" lon="11.486478714941748"><ele>9.0</ele><time>2026-03-24T17:37:31Z</time></trkpt><trkpt lat="44.79485322013439" lon="11.48635807523839"><ele>9.0</ele><time>2026-03-24T17:37:32Z</time></trkpt><trkpt lat="44.795001146853394" lon="11.486232896439615"><ele>9.0</ele><time>2026-03-24T17:37:33Z</time></trkpt><trkpt lat="44.79514972695151" lon="11.486108289537933"><ele>9.0</ele><time>2026-03-24T17:37:34Z</time></trkpt><trkpt lat="44.79529416240205" lon="11.485989548650112"><ele>8.333333333333334</ele><time>2026-03-24T17:37:35Z</time></trkpt><trkpt lat="44.79544099437819" lon="11.485868517361826"><ele>7.666666666666667</ele><time>2026-03-24T17:37:36Z</time></trkpt><trkpt lat="44.79558956259612" lon="11.48574895947178"><ele>7.0</ele><time>2026-03-24T17:37:37Z</time></trkpt><trkpt lat="44.79573793076765" lon="11.485629364317116"><ele>7.0</ele><time>2026-03-24T17:37:38Z</time></trkpt><trkpt lat="44.79588310468216" lon="11.48551051906569"><ele>7.0</ele><time>2026-03-24T17:37:39Z</time></trkpt><trkpt lat="44.7960241982889" lon="11.48539426738674"><ele>7.0</ele><time>2026-03-24T17:37:40Z</time></trkpt><trkpt lat="44.79616486370617" lon="11.485277487133915"><ele>6.333333333333334</ele><time>2026-03-24T17:37:41Z</time></trkpt><trkpt lat="44.79630505182034" lon="11.485161686671628"><ele>5.666666666666667</ele><time>2026-03-24T17:37:42Z</time></trkpt><trkpt lat="44.79645319543434" lon="11.48504209345991"><ele>5.0</ele><time>2026-03-24T17:37:43Z</time></trkpt><trkpt lat="44.79660378878246" lon="11.484920923018237"><ele>5.0</ele><time>2026-03-24T17:37:44Z</time></trkpt><trkpt lat="44.7967528703646" lon="11.48480144891188"><ele>5.0</ele><time>2026-03-24T17:37:45Z</time></trkpt><trkpt lat="44.796899949535785" lon="11.484680042973956"><ele>5.0</ele><time>2026-03-24T17:37:46Z</time></trkpt><trkpt lat="44.79704619198041" lon="11.484556990747736"><ele>5.666666666666667</ele><time>2026-03-24T17:37:47Z</time></trkpt><trkpt lat="44.797191103407506" lon="11.484434829836609"><ele>6.333333333333334</ele><time>2026-03-24T17:37:48Z</time></trkpt><trkpt lat="44.7973354677365" lon="11.484315543904128"><ele>7.0</ele><time>2026-03-24T17:37:49Z</time></trkpt><trkpt lat="44.797480175667225" lon="11.484195648316113"><ele>7.0</ele><time>2026-03-24T17:37:50Z</time></trkpt><trkpt lat="44.797624397727006" lon="11.484076259302867"><ele>7.0</ele><time>2026-03-24T17:37:51Z</time></trkpt><trkpt lat="44.79776728319793" lon="11.483959978948647"><ele>7.0</ele><time>2026-03-24T17:37:52Z</time></trkpt><trkpt lat="44.79791106987936" lon="11.483843454256231"><ele>7.333333333333334</ele><time>2026-03-24T17:37:53Z</time></trkpt><trkpt lat="44.79805267279035" lon="11.48372740900897"><ele>7.666666666666666</ele><time>2026-03-24T17:37:54Z</time></trkpt><trkpt lat="44.798195789450446" lon="11.483610107242479"><ele>8.0</ele><time>2026-03-24T17:37:55Z</time></trkpt><trkpt lat="44.798338109832926" lon="11.483493439381991"><ele>8.0</ele><time>2026-03-24T17:37:56Z</time></trkpt><trkpt lat="44.79847961504434" lon="11.483376663063563"><ele>8.0</ele><time>2026-03-24T17:37:57Z</time></trkpt><trkpt lat="44.79862102090022" lon="11.483260687522499"><ele>8.0</ele><time>2026-03-24T17:37:58Z</time></trkpt><trkpt lat="44.79876190854758" lon="11.483145299256996"><ele>7.666666666666666</ele><time>2026-03-24T17:37:59Z</time></trkpt><trkpt lat="44.79890208442984" lon="11.483030602150148"><ele>7.333333333333334</ele><time>2026-03-24T17:38:00Z</time></trkpt><trkpt lat="44.799041448878526" lon="11.482918132776186"><ele>7.0</ele><time>2026-03-24T17:38:00.999Z</time></trkpt><trkpt lat="44.799184424395335" lon="11.482802835606806"><ele>7.0</ele><time>2026-03-24T17:38:01.999Z</time></trkpt><trkpt lat="44.799327908449584" lon="11.482687506827858"><ele>7.0</ele><time>2026-03-24T17:38:02.999Z</time></trkpt><trkpt lat="44.79947069229635" lon="11.48257224932927"><ele>7.0</ele><time>2026-03-24T17:38:03.999Z</time></trkpt><trkpt lat="44.79961238025484" lon="11.482457762486156"><ele>7.666666666666667</ele><time>2026-03-24T17:38:04.999Z</time></trkpt><trkpt lat="44.799750763485775" lon="11.482343570738548"><ele>8.333333333333334</ele><time>2026-03-24T17:38:05.999Z</time></trkpt><trkpt lat="44.79989244432202" lon="11.482227091864921"><ele>9.0</ele><time>2026-03-24T17:38:06.999Z</time></trkpt><trkpt lat="44.8000375006479" lon="11.482107342884843"><ele>9.0</ele><time>2026-03-24T17:38:07.999Z</time></trkpt><trkpt lat="44.80018429588361" lon="11.481988908038067"><ele>9.0</ele><time>2026-03-24T17:38:08.999Z</time></trkpt><trkpt lat="44.80033112523408" lon="11.4818722485472"><ele>9.0</ele><time>2026-03-24T17:38:09.999Z</time></trkpt><trkpt lat="44.80047458309632" lon="11.481755699627302"><ele>9.0</ele><time>2026-03-24T17:38:10.999Z</time></trkpt><trkpt lat="44.80061923218954" lon="11.48163876446044"><ele>9.0</ele><time>2026-03-24T17:38:11.999Z</time></trkpt><trkpt lat="44.80076938960689" lon="11.481520554776054"><ele>9.0</ele><time>2026-03-24T17:38:12.999Z</time></trkpt><trkpt lat="44.8009311597159" lon="11.481393843621357"><ele>9.0</ele><time>2026-03-24T17:38:13.999Z</time></trkpt><trkpt lat="44.8011057535455" lon="11.481250080170732"><ele>9.0</ele><time>2026-03-24T17:38:14.999Z</time></trkpt><trkpt lat="44.80128973600899" lon="11.48109626932648"><ele>9.0</ele><time>2026-03-24T17:38:15.999Z</time></trkpt><trkpt lat="44.801488863607354" lon="11.480932326413816"><ele>9.0</ele><time>2026-03-24T17:38:16.999Z</time></trkpt><trkpt lat="44.801711698845445" lon="11.480753710174444"><ele>9.0</ele><time>2026-03-24T17:38:17.999Z</time></trkpt><trkpt lat="44.80194809026017" lon="11.48056477129851"><ele>8.0</ele><time>2026-03-24T17:38:18.999Z</time></trkpt><trkpt lat="44.802192305336085" lon="11.480371244491824"><ele>7.0</ele><time>2026-03-24T17:38:19.999Z</time></trkpt><trkpt lat="44.80243699930012" lon="11.480180497054922"><ele>7.0</ele><time>2026-03-24T17:38:20.999Z</time></trkpt><trkpt lat="44.80267431097278" lon="11.479998058916516"><ele>7.0</ele><time>2026-03-24T17:38:21.999Z</time></trkpt><trkpt lat="44.80292002369281" lon="11.479816569588266"><ele>7.0</ele><time>2026-03-24T17:38:22.999Z</time></trkpt><trkpt lat="44.80316480347797" lon="11.479632968364411"><ele>7.0</ele><time>2026-03-24T17:38:23.999Z</time></trkpt><trkpt lat="44.803411340911914" lon="11.479444926933658"><ele>7.5</ele><time>2026-03-24T17:38:24.999Z</time></trkpt><trkpt lat="44.80366139353302" lon="11.479249467107552"><ele>8.0</ele><time>2026-03-24T17:38:25.999Z</time></trkpt><trkpt lat="44.80391196755937" lon="11.479052593546738"><ele>8.0</ele><time>2026-03-24T17:38:26.999Z</time></trkpt><trkpt lat="44.80416374278293" lon="11.478856402027384"><ele>8.0</ele><time>2026-03-24T17:38:27.999Z</time></trkpt><trkpt lat="44.804415474494064" lon="11.478661329768892"><ele>7.5</ele><time>2026-03-24T17:38:28.999Z</time></trkpt><trkpt lat="44.8046650792823" lon="11.478464805543744"><ele>7.0</ele><time>2026-03-24T17:38:29.999Z</time></trkpt><trkpt lat="44.80491658656338" lon="11.478267242483579"><ele>7.5</ele><time>2026-03-24T17:38:30.999Z</time></trkpt><trkpt lat="44.80516549657846" lon="11.478072260987568"><ele>8.0</ele><time>2026-03-24T17:38:31.999Z</time></trkpt><trkpt lat="44.805397413404975" lon="11.47789078957078"><ele>8.0</ele><time>2026-03-24T17:38:32.999Z</time></trkpt><trkpt lat="44.805610737538224" lon="11.477720478358659"><ele>8.0</ele><time>2026-03-24T17:38:33.999Z</time></trkpt><trkpt lat="44.80580043030596" lon="11.477571301176315"><ele>8.0</ele><time>2026-03-24T17:38:34.999Z</time></trkpt><trkpt lat="44.80598001697707" lon="11.47742753473944"><ele>8.0</ele><time>2026-03-24T17:38:35.999Z</time></trkpt><trkpt lat="44.80615243871903" lon="11.477289811674552"><ele>8.0</ele><time>2026-03-24T17:38:36.999Z</time></trkpt><trkpt lat="44.806316569187636" lon="11.477163009051429"><ele>8.0</ele><time>2026-03-24T17:38:37.999Z</time></trkpt><trkpt lat="44.80648680352774" lon="11.477032948997541"><ele>8.0</ele><time>2026-03-24T17:38:38.999Z</time></trkpt><trkpt lat="44.806660281004234" lon="11.476909080399281"><ele>8.0</ele><time>2026-03-24T17:38:39.999Z</time></trkpt><trkpt lat="44.806842632237874" lon="11.476810585012467"><ele>7.666666666666666</ele><time>2026-03-24T17:38:40.999Z</time></trkpt><trkpt lat="44.807039651710525" lon="11.47673348354148"><ele>7.333333333333334</ele><time>2026-03-24T17:38:41.999Z</time></trkpt><trkpt lat="44.807248375911364" lon="11.476679074736111"><ele>7.0</ele><time>2026-03-24T17:38:42.999Z</time></trkpt><trkpt lat="44.80746658296832" lon="11.476648541422211"><ele>7.333333333333334</ele><time>2026-03-24T17:38:43.999Z</time></trkpt><trkpt lat="44.807687224838354" lon="11.476646628923335"><ele>7.666666666666666</ele><time>2026-03-24T17:38:44.999Z</time></trkpt><trkpt lat="44.807901998183524" lon="11.476698096671074"><ele>8.0</ele><time>2026-03-24T17:38:45.999Z</time></trkpt><trkpt lat="44.80811657965798" lon="11.476759708829402"><ele>8.0</ele><time>2026-03-24T17:38:46.999Z</time></trkpt><trkpt lat="44.80832233235442" lon="11.476846640817103"><ele>8.0</ele><time>2026-03-24T17:38:47.999Z</time></trkpt><trkpt lat="44.808518619059036" lon="11.476967409290587"><ele>8.0</ele><time>2026-03-24T17:38:48.999Z</time></trkpt><trkpt lat="44.80871189979574" lon="11.477109739765117"><ele>8.0</ele><time>2026-03-24T17:38:49.999Z</time></trkpt><trkpt lat="44.808899008060855" lon="11.477281401121397"><ele>8.0</ele><time>2026-03-24T17:38:50.999Z</time></trkpt><trkpt lat="44.8090844049377" lon="11.477484232836872"><ele>8.0</ele><time>2026-03-24T17:38:51.999Z</time></trkpt><trkpt lat="44.809263583077254" lon="11.477721338239327"><ele>8.0</ele><time>2026-03-24T17:38:52.999Z</time></trkpt><trkpt lat="44.809439429883525" lon="11.477969428171514"><ele>8.0</ele><time>2026-03-24T17:38:53.999Z</time></trkpt><trkpt lat="44.809618073779134" lon="11.478222233718812"><ele>8.0</ele><time>2026-03-24T17:38:54.999Z</time></trkpt><trkpt lat="44.80979990139773" lon="11.478473906498008"><ele>8.0</ele><time>2026-03-24T17:38:55.999Z</time></trkpt><trkpt lat="44.80998038811171" lon="11.478722571414048"><ele>8.0</ele><time>2026-03-24T17:38:56.999Z</time></trkpt><trkpt lat="44.810169282944116" lon="11.478980714164305"><ele>8.5</ele><time>2026-03-24T17:38:57.999Z</time></trkpt><trkpt lat="44.81035459200293" lon="11.479233824718097"><ele>9.0</ele><time>2026-03-24T17:38:58.999Z</time></trkpt><trkpt lat="44.81053667537859" lon="11.479487950985613"><ele>9.5</ele><time>2026-03-24T17:38:59.999Z</time></trkpt><trkpt lat="44.81071702923922" lon="11.479740222945177"><ele>10.0</ele><time>2026-03-24T17:39:00.999Z</time></trkpt><trkpt lat="44.81089450610497" lon="11.479990294836204"><ele>9.0</ele><time>2026-03-24T17:39:01.999Z</time></trkpt><trkpt lat="44.811071315734985" lon="11.480238055382689"><ele>8.0</ele><time>2026-03-24T17:39:02.999Z</time></trkpt><trkpt lat="44.81124741815183" lon="11.480482595706723"><ele>7.5</ele><time>2026-03-24T17:39:03.999Z</time></trkpt><trkpt lat="44.8114248435014" lon="11.480728607572273"><ele>7.0</ele><time>2026-03-24T17:39:04.999Z</time></trkpt><trkpt lat="44.811598835164155" lon="11.480969358977694"><ele>7.0</ele><time>2026-03-24T17:39:05.999Z</time></trkpt><trkpt lat="44.81177730903196" lon="11.481209065191491"><ele>7.0</ele><time>2026-03-24T17:39:06.999Z</time></trkpt><trkpt lat="44.81195281747878" lon="11.481451850057324"><ele>8.0</ele><time>2026-03-24T17:39:07.999Z</time></trkpt><trkpt lat="44.812127207148855" lon="11.481687591938751"><ele>9.0</ele><time>2026-03-24T17:39:08.999Z</time></trkpt><trkpt lat="44.81230286873302" lon="11.481922608179385"><ele>9.5</ele><time>2026-03-24T17:39:09.999Z</time></trkpt><trkpt lat="44.81247903686527" lon="11.482154637895443"><ele>10.0</ele><time>2026-03-24T17:39:10.999Z</time></trkpt><trkpt lat="44.81264200587425" lon="11.482405536783052"><ele>9.0</ele><time>2026-03-24T17:39:11.999Z</time></trkpt><trkpt lat="44.81281380929485" lon="11.482642907485964"><ele>8.0</ele><time>2026-03-24T17:39:12.999Z</time></trkpt><trkpt lat="44.81298861730078" lon="11.482884429161542"><ele>8.5</ele><time>2026-03-24T17:39:13.999Z</time></trkpt><trkpt lat="44.81317551193784" lon="11.48312144983525"><ele>9.0</ele><time>2026-03-24T17:39:15Z</time></trkpt><trkpt lat="44.81335103180207" lon="11.483373895542769"><ele>8.5</ele><time>2026-03-24T17:39:16Z</time></trkpt><trkpt lat="44.813531172127384" lon="11.48362689901375"><ele>8.0</ele><time>2026-03-24T17:39:17Z</time></trkpt><trkpt lat="44.813708980421254" lon="11.48386931148229"><ele>8.0</ele><time>2026-03-24T17:39:18Z</time></trkpt><trkpt lat="44.81388386313998" lon="11.484108698506954"><ele>8.0</ele><time>2026-03-24T17:39:19Z</time></trkpt><trkpt lat="44.81406031126534" lon="11.484353516420695"><ele>8.0</ele><time>2026-03-24T17:39:20Z</time></trkpt><trkpt lat="44.81423337144133" lon="11.484594722791872"><ele>8.0</ele><time>2026-03-24T17:39:21Z</time></trkpt><trkpt lat="44.814406823183944" lon="11.484831278302691"><ele>8.5</ele><time>2026-03-24T17:39:22Z</time></trkpt><trkpt lat="44.814577834319856" lon="11.485060568492353"><ele>9.0</ele><time>2026-03-24T17:39:23Z</time></trkpt><trkpt lat="44.81474808831907" lon="11.485295933278183"><ele>9.0</ele><time>2026-03-24T17:39:24Z</time></trkpt><trkpt lat="44.81490932797832" lon="11.485527665803236"><ele>9.0</ele><time>2026-03-24T17:39:25Z</time></trkpt><trkpt lat="44.815067857657965" lon="11.485753252199702"><ele>9.0</ele><time>2026-03-24T17:39:26Z</time></trkpt><trkpt lat="44.81522079068347" lon="11.485968052025216"><ele>9.0</ele><time>2026-03-24T17:39:27Z</time></trkpt><trkpt lat="44.815360016402046" lon="11.48616350043698"><ele>9.0</ele><time>2026-03-24T17:39:28Z</time></trkpt><trkpt lat="44.815490798195675" lon="11.486346821824359"><ele>9.0</ele><time>2026-03-24T17:39:29Z</time></trkpt><trkpt lat="44.81561443944625" lon="11.486520478714331"><ele>9.0</ele><time>2026-03-24T17:39:30Z</time></trkpt><trkpt lat="44.81573050376966" lon="11.486674396080785"><ele>9.0</ele><time>2026-03-24T17:39:31Z</time></trkpt><trkpt lat="44.81583354116494" lon="11.486816518377227"><ele>9.0</ele><time>2026-03-24T17:39:32Z</time></trkpt><trkpt lat="44.81593693221158" lon="11.486946449407675"><ele>9.0</ele><time>2026-03-24T17:39:33Z</time></trkpt><trkpt lat="44.816055083054195" lon="11.487059830894813"><ele>9.0</ele><time>2026-03-24T17:39:34Z</time></trkpt><trkpt lat="44.8161814257222" lon="11.487147056596633"><ele>9.0</ele><time>2026-03-24T17:39:35Z</time></trkpt><trkpt lat="44.81631517781227" lon="11.487207306253685"><ele>9.0</ele><time>2026-03-24T17:39:36Z</time></trkpt><trkpt lat="44.81646475814874" lon="11.487231932647315"><ele>9.0</ele><time>2026-03-24T17:39:37Z</time></trkpt><trkpt lat="44.816614278861515" lon="11.487225200081486"><ele>9.0</ele><time>2026-03-24T17:39:38Z</time></trkpt><trkpt lat="44.81675969806006" lon="11.48718486249795"><ele>9.0</ele><time>2026-03-24T17:39:39Z</time></trkpt><trkpt lat="44.81690134297595" lon="11.487114379307659"><ele>9.0</ele><time>2026-03-24T17:39:40Z</time></trkpt><trkpt lat="44.8170309594856" lon="11.487005431364757"><ele>9.0</ele><time>2026-03-24T17:39:41Z</time></trkpt><trkpt lat="44.81715086792298" lon="11.486865254775983"><ele>9.0</ele><time>2026-03-24T17:39:42Z</time></trkpt><trkpt lat="44.817260423136254" lon="11.486677409728268"><ele>9.0</ele><time>2026-03-24T17:39:43Z</time></trkpt><trkpt lat="44.81736191694978" lon="11.48645732188803"><ele>9.0</ele><time>2026-03-24T17:39:44Z</time></trkpt><trkpt lat="44.817464034598295" lon="11.486213694737268"><ele>9.0</ele><time>2026-03-24T17:39:45Z</time></trkpt><trkpt lat="44.817570888805555" lon="11.485947095140222"><ele>9.0</ele><time>2026-03-24T17:39:46Z</time></trkpt><trkpt lat="44.81768605269163" lon="11.485667490398548"><ele>9.0</ele><time>2026-03-24T17:39:47Z</time></trkpt><trkpt lat="44.81780555478274" lon="11.485389153800895"><ele>9.5</ele><time>2026-03-24T17:39:48Z</time></trkpt><trkpt lat="44.817924948163764" lon="11.485104418082273"><ele>10.0</ele><time>2026-03-24T17:39:49Z</time></trkpt><trkpt lat="44.818040297381245" lon="11.484817025120051"><ele>10.0</ele><time>2026-03-24T17:39:50Z</time></trkpt><trkpt lat="44.818151821794714" lon="11.48453357349692"><ele>10.0</ele><time>2026-03-24T17:39:51Z</time></trkpt><trkpt lat="44.81826747350417" lon="11.484247721603376"><ele>10.0</ele><time>2026-03-24T17:39:52Z</time></trkpt><trkpt lat="44.81838536851083" lon="11.483958020045696"><ele>10.0</ele><time>2026-03-24T17:39:53Z</time></trkpt><trkpt lat="44.81850052618142" lon="11.483671496526462"><ele>10.0</ele><time>2026-03-24T17:39:54Z</time></trkpt><trkpt lat="44.81861398207585" lon="11.483392898324137"><ele>10.0</ele><time>2026-03-24T17:39:55Z</time></trkpt><trkpt lat="44.81872516093976" lon="11.483121750037107"><ele>9.666666666666668</ele><time>2026-03-24T17:39:56Z</time></trkpt><trkpt lat="44.818836831474805" lon="11.482848961315234"><ele>9.333333333333334</ele><time>2026-03-24T17:39:57Z</time></trkpt><trkpt lat="44.81894571215398" lon="11.482569918980257"><ele>9.0</ele><time>2026-03-24T17:39:58Z</time></trkpt><trkpt lat="44.81905591233143" lon="11.482291551473844"><ele>8.5</ele><time>2026-03-24T17:39:59Z</time></trkpt><trkpt lat="44.81917136861022" lon="11.482009867381375"><ele>8.0</ele><time>2026-03-24T17:40:00Z</time></trkpt><trkpt lat="44.81928088300241" lon="11.481732107350556"><ele>9.0</ele><time>2026-03-24T17:40:01Z</time></trkpt><trkpt lat="44.819394090309714" lon="11.481449843225057"><ele>10.0</ele><time>2026-03-24T17:40:02Z</time></trkpt><trkpt lat="44.81950745742249" lon="11.481169232987005"><ele>10.0</ele><time>2026-03-24T17:40:03Z</time></trkpt><trkpt lat="44.81962138559222" lon="11.480892117535255"><ele>10.0</ele><time>2026-03-24T17:40:04Z</time></trkpt><trkpt lat="44.81973107735604" lon="11.480620662134797"><ele>10.0</ele><time>2026-03-24T17:40:05Z</time></trkpt><trkpt lat="44.819828427786" lon="11.48037828336934"><ele>9.666666666666668</ele><time>2026-03-24T17:40:06Z</time></trkpt><trkpt lat="44.81992318470661" lon="11.480154150745184"><ele>9.333333333333334</ele><time>2026-03-24T17:40:07Z</time></trkpt><trkpt lat="44.82001906326389" lon="11.479949704079797"><ele>9.0</ele><time>2026-03-24T17:40:08Z</time></trkpt><trkpt lat="44.82013404675408" lon="11.479759293182916"><ele>8.666666666666666</ele><time>2026-03-24T17:40:08.999Z</time></trkpt><trkpt lat="44.8202685238982" lon="11.479576398116087"><ele>8.333333333333332</ele><time>2026-03-24T17:40:09.999Z</time></trkpt><trkpt lat="44.82042064460847" lon="11.479409442351997"><ele>8.0</ele><time>2026-03-24T17:40:10.999Z</time></trkpt><trkpt lat="44.82057967208463" lon="11.479255851353832"><ele>8.0</ele><time>2026-03-24T17:40:11.999Z</time></trkpt><trkpt lat="44.82075454110133" lon="11.479117389135565"><ele>8.0</ele><time>2026-03-24T17:40:12.999Z</time></trkpt><trkpt lat="44.82094293774305" lon="11.478999108972532"><ele>8.0</ele><time>2026-03-24T17:40:13.999Z</time></trkpt><trkpt lat="44.82113880566653" lon="11.478907760272547"><ele>8.0</ele><time>2026-03-24T17:40:14.999Z</time></trkpt><trkpt lat="44.82134541040221" lon="11.478849938252445"><ele>8.0</ele><time>2026-03-24T17:40:15.999Z</time></trkpt><trkpt lat="44.82155679078753" lon="11.478806831476419"><ele>8.0</ele><time>2026-03-24T17:40:16.999Z</time></trkpt><trkpt lat="44.82175687846914" lon="11.478789280976038"><ele>8.333333333333332</ele><time>2026-03-24T17:40:17.999Z</time></trkpt><trkpt lat="44.82195335270031" lon="11.47879368667976"><ele>8.666666666666666</ele><time>2026-03-24T17:40:18.999Z</time></trkpt><trkpt lat="44.82215474332198" lon="11.47883763307858"><ele>9.0</ele><time>2026-03-24T17:40:19.999Z</time></trkpt><trkpt lat="44.82235599493981" lon="11.478905507075716"><ele>9.0</ele><time>2026-03-24T17:40:20.999Z</time></trkpt><trkpt lat="44.82255041565235" lon="11.478993509737453"><ele>9.0</ele><time>2026-03-24T17:40:21.999Z</time></trkpt><trkpt lat="44.82274408954638" lon="11.479084042050289"><ele>9.0</ele><time>2026-03-24T17:40:22.999Z</time></trkpt><trkpt lat="44.82292482435238" lon="11.479158086578074"><ele>9.666666666666666</ele><time>2026-03-24T17:40:23.999Z</time></trkpt><trkpt lat="44.82310037389795" lon="11.479218418701006"><ele>10.333333333333332</ele><time>2026-03-24T17:40:24.999Z</time></trkpt><trkpt lat="44.82328297118" lon="11.479265415469404"><ele>11.0</ele><time>2026-03-24T17:40:25.999Z</time></trkpt><trkpt lat="44.823467276788634" lon="11.47928635015727"><ele>11.333333333333332</ele><time>2026-03-24T17:40:26.999Z</time></trkpt><trkpt lat="44.823653348772595" lon="11.479287566605638"><ele>11.666666666666666</ele><time>2026-03-24T17:40:27.999Z</time></trkpt><trkpt lat="44.823841091329804" lon="11.47926902975358"><ele>12.0</ele><time>2026-03-24T17:40:28.999Z</time></trkpt><trkpt lat="44.824030949893064" lon="11.47922457250288"><ele>12.0</ele><time>2026-03-24T17:40:29.999Z</time></trkpt><trkpt lat="44.82422001500377" lon="11.479155398283037"><ele>12.0</ele><time>2026-03-24T17:40:30.999Z</time></trkpt><trkpt lat="44.82440470199729" lon="11.479061642262531"><ele>12.0</ele><time>2026-03-24T17:40:31.999Z</time></trkpt><trkpt lat="44.82459912783006" lon="11.478936520010881"><ele>11.0</ele><time>2026-03-24T17:40:32.999Z</time></trkpt><trkpt lat="44.82479836706774" lon="11.478774160219585"><ele>10.0</ele><time>2026-03-24T17:40:33.999Z</time></trkpt><trkpt lat="44.82500526616744" lon="11.478587236285644"><ele>9.5</ele><time>2026-03-24T17:40:34.999Z</time></trkpt><trkpt lat="44.82522634640919" lon="11.478375022740192"><ele>9.0</ele><time>2026-03-24T17:40:35.999Z</time></trkpt><trkpt lat="44.82544997596657" lon="11.478175409949348"><ele>9.0</ele><time>2026-03-24T17:40:36.999Z</time></trkpt><trkpt lat="44.825665130082434" lon="11.477978565562308"><ele>9.0</ele><time>2026-03-24T17:40:37.999Z</time></trkpt><trkpt lat="44.82588497129642" lon="11.477779990228562"><ele>9.5</ele><time>2026-03-24T17:40:38.999Z</time></trkpt><trkpt lat="44.82610322342848" lon="11.477581703178817"><ele>10.0</ele><time>2026-03-24T17:40:39.999Z</time></trkpt><trkpt lat="44.82631705281771" lon="11.477385725137678"><ele>10.0</ele><time>2026-03-24T17:40:40.999Z</time></trkpt><trkpt lat="44.82651792011737" lon="11.477199191147239"><ele>10.0</ele><time>2026-03-24T17:40:41.999Z</time></trkpt><trkpt lat="44.82670242670866" lon="11.477026785316971"><ele>10.333333333333334</ele><time>2026-03-24T17:40:42.999Z</time></trkpt><trkpt lat="44.82688500403981" lon="11.476860293061488"><ele>10.666666666666666</ele><time>2026-03-24T17:40:43.999Z</time></trkpt><trkpt lat="44.827065794956944" lon="11.47669323586695"><ele>11.0</ele><time>2026-03-24T17:40:44.999Z</time></trkpt><trkpt lat="44.827239822137614" lon="11.4765301653269"><ele>11.0</ele><time>2026-03-24T17:40:45.999Z</time></trkpt><trkpt lat="44.827414643672036" lon="11.476371328768318"><ele>11.0</ele><time>2026-03-24T17:40:46.999Z</time></trkpt><trkpt lat="44.82758935247765" lon="11.476214006384694"><ele>11.0</ele><time>2026-03-24T17:40:47.999Z</time></trkpt><trkpt lat="44.82776558387444" lon="11.476054942686037"><ele>10.666666666666666</ele><time>2026-03-24T17:40:48.999Z</time></trkpt><trkpt lat="44.8279405628993" lon="11.475895197704551"><ele>10.333333333333334</ele><time>2026-03-24T17:40:49.999Z</time></trkpt><trkpt lat="44.82811572251087" lon="11.47573410081825"><ele>10.0</ele><time>2026-03-24T17:40:50.999Z</time></trkpt><trkpt lat="44.82828975512789" lon="11.47557496054"><ele>10.666666666666668</ele><time>2026-03-24T17:40:51.999Z</time></trkpt><trkpt lat="44.82846327938306" lon="11.475414428485461"><ele>11.333333333333334</ele><time>2026-03-24T17:40:52.999Z</time></trkpt><trkpt lat="44.828634872494355" lon="11.475257120718359"><ele>12.0</ele><time>2026-03-24T17:40:53.999Z</time></trkpt><trkpt lat="44.82880441393463" lon="11.475098049923353"><ele>12.0</ele><time>2026-03-24T17:40:54.999Z</time></trkpt><trkpt lat="44.82897126266468" lon="11.474943603647683"><ele>12.0</ele><time>2026-03-24T17:40:55.999Z</time></trkpt><trkpt lat="44.82914043913178" lon="11.474786840243615"><ele>12.0</ele><time>2026-03-24T17:40:56.999Z</time></trkpt><trkpt lat="44.82931266935523" lon="11.474627568899528"><ele>12.0</ele><time>2026-03-24T17:40:57.999Z</time></trkpt><trkpt lat="44.82948728198757" lon="11.474467614244112"><ele>12.0</ele><time>2026-03-24T17:40:58.999Z</time></trkpt><trkpt lat="44.82966235207414" lon="11.474307065609674"><ele>12.0</ele><time>2026-03-24T17:40:59.999Z</time></trkpt><trkpt lat="44.829834422045074" lon="11.474147035110983"><ele>12.0</ele><time>2026-03-24T17:41:00.999Z</time></trkpt><trkpt lat="44.829994512435164" lon="11.473996122164474"><ele>12.0</ele><time>2026-03-24T17:41:01.999Z</time></trkpt><trkpt lat="44.83015363339906" lon="11.4738477272525"><ele>12.0</ele><time>2026-03-24T17:41:02.999Z</time></trkpt><trkpt lat="44.83030977762507" lon="11.473706536879927"><ele>12.0</ele><time>2026-03-24T17:41:03.999Z</time></trkpt><trkpt lat="44.83046119468919" lon="11.473567253671527"><ele>12.0</ele><time>2026-03-24T17:41:04.999Z</time></trkpt><trkpt lat="44.83061088028271" lon="11.473426942016511"><ele>12.0</ele><time>2026-03-24T17:41:05.999Z</time></trkpt><trkpt lat="44.83074958606106" lon="11.473295025965102"><ele>12.0</ele><time>2026-03-24T17:41:06.999Z</time></trkpt><trkpt lat="44.83088146679225" lon="11.47317239380053"><ele>12.0</ele><time>2026-03-24T17:41:07.999Z</time></trkpt><trkpt lat="44.831009082020444" lon="11.47305576846384"><ele>12.0</ele><time>2026-03-24T17:41:08.999Z</time></trkpt><trkpt lat="44.83112866060499" lon="11.47294606679125"><ele>12.5</ele><time>2026-03-24T17:41:09.999Z</time></trkpt><trkpt lat="44.83124122944579" lon="11.472841155322872"><ele>13.0</ele><time>2026-03-24T17:41:10.999Z</time></trkpt><trkpt lat="44.83134833629604" lon="11.472742139052897"><ele>13.5</ele><time>2026-03-24T17:41:11.999Z</time></trkpt><trkpt lat="44.831449826399776" lon="11.472648504214689"><ele>14.0</ele><time>2026-03-24T17:41:12.999Z</time></trkpt><trkpt lat="44.83154173466095" lon="11.47256163595524"><ele>14.0</ele><time>2026-03-24T17:41:13.999Z</time></trkpt><trkpt lat="44.8316308106141" lon="11.472478027063321"><ele>13.999999999999998</ele><time>2026-03-24T17:41:14.999Z</time></trkpt><trkpt lat="44.831721438634695" lon="11.472393418543192"><ele>13.999999999999998</ele><time>2026-03-24T17:41:15.999Z</time></trkpt><trkpt lat="44.83181419076921" lon="11.472303855825361"><ele>14.0</ele><time>2026-03-24T17:41:16.999Z</time></trkpt><trkpt lat="44.83190318335121" lon="11.47221809623937"><ele>14.0</ele><time>2026-03-24T17:41:17.999Z</time></trkpt><trkpt lat="44.831983180433575" lon="11.472139067169692"><ele>14.166666666666668</ele><time>2026-03-24T17:41:18.999Z</time></trkpt><trkpt lat="44.83206161430623" lon="11.472063283991991"><ele>14.333333333333334</ele><time>2026-03-24T17:41:19.999Z</time></trkpt><trkpt lat="44.83214342354662" lon="11.471987238079823"><ele>14.5</ele><time>2026-03-24T17:41:21Z</time></trkpt><trkpt lat="44.83222120591452" lon="11.471916115646104"><ele>14.666666666666668</ele><time>2026-03-24T17:41:22Z</time></trkpt><trkpt lat="44.83228990081777" lon="11.471856167570584"><ele>14.833333333333334</ele><time>2026-03-24T17:41:23Z</time></trkpt><trkpt lat="44.83235871281528" lon="11.471818131490263"><ele>15.0</ele><time>2026-03-24T17:41:24Z</time></trkpt><trkpt lat="44.83242574465433" lon="11.471791181004546"><ele>15.0</ele><time>2026-03-24T17:41:25Z</time></trkpt><trkpt lat="44.832552366728706" lon="11.471784116658794"><ele>15.0</ele><time>2026-03-24T17:41:27Z</time></trkpt><trkpt lat="44.832614297129915" lon="11.471757663730848"><ele>15.0</ele><time>2026-03-24T17:41:28Z</time></trkpt><trkpt lat="44.83267838324022" lon="11.471764971801964"><ele>15.0</ele><time>2026-03-24T17:41:29Z</time></trkpt><trkpt lat="44.83273788249346" lon="11.471866610712965"><ele>15.0</ele><time>2026-03-24T17:41:30Z</time></trkpt><trkpt lat="44.832808125321705" lon="11.471899842805936"><ele>15.0</ele><time>2026-03-24T17:41:31Z</time></trkpt><trkpt lat="44.83286652839948" lon="11.471997172996003"><ele>15.0</ele><time>2026-03-24T17:41:32Z</time></trkpt><trkpt lat="44.83292436345853" lon="11.472092125555811"><ele>15.0</ele><time>2026-03-24T17:41:33Z</time></trkpt><trkpt lat="44.8329824263684" lon="11.472199672125663"><ele>15.0</ele><time>2026-03-24T17:41:34Z</time></trkpt><trkpt lat="44.833035735967336" lon="11.47231129005901"><ele>15.0</ele><time>2026-03-24T17:41:35Z</time></trkpt><trkpt lat="44.83308260116696" lon="11.472417869195151"><ele>15.0</ele><time>2026-03-24T17:41:36Z</time></trkpt><trkpt lat="44.833124119126936" lon="11.472516784833388"><ele>14.833333333333334</ele><time>2026-03-24T17:41:37Z</time></trkpt><trkpt lat="44.833161895434536" lon="11.472607486937743"><ele>14.666666666666668</ele><time>2026-03-24T17:41:38Z</time></trkpt><trkpt lat="44.833198354096865" lon="11.472692989534359"><ele>14.5</ele><time>2026-03-24T17:41:39Z</time></trkpt><trkpt lat="44.83323335615124" lon="11.472776421467444"><ele>14.333333333333334</ele><time>2026-03-24T17:41:40Z</time></trkpt><trkpt lat="44.833265803414136" lon="11.472855152189952"><ele>14.166666666666668</ele><time>2026-03-24T17:41:41Z</time></trkpt><trkpt lat="44.833326298823856" lon="11.473004982189748"><ele>14.0</ele><time>2026-03-24T17:41:43Z</time></trkpt><trkpt lat="44.83338453191873" lon="11.473146634678914"><ele>14.0</ele><time>2026-03-24T17:41:45Z</time></trkpt><trkpt lat="44.83344023627669" lon="11.47328881581554"><ele>14.0</ele><time>2026-03-24T17:41:47Z</time></trkpt><trkpt lat="44.833494842411916" lon="11.473431097193032"><ele>14.0</ele><time>2026-03-24T17:41:49Z</time></trkpt><trkpt lat="44.83354507393434" lon="11.47357173731932"><ele>14.0</ele><time>2026-03-24T17:41:51Z</time></trkpt><trkpt lat="44.833586522454375" lon="11.473718271670446"><ele>14.166666666666668</ele><time>2026-03-24T17:41:53Z</time></trkpt><trkpt lat="44.83361634182952" lon="11.473832190279166"><ele>14.333333333333334</ele><time>2026-03-24T17:41:55Z</time></trkpt><trkpt lat="44.8336427236117" lon="11.473913641204534"><ele>14.5</ele><time>2026-03-24T17:41:57Z</time></trkpt><trkpt lat="44.83369897894653" lon="11.474005907983782"><ele>14.666666666666668</ele><time>2026-03-24T17:42:19.999Z</time></trkpt><trkpt lat="44.833741577539875" lon="11.474144373571681"><ele>14.833333333333334</ele><time>2026-03-24T17:42:21.999Z</time></trkpt><trkpt lat="44.833780067909764" lon="11.47424994982856"><ele>15.0</ele><time>2026-03-24T17:42:23.999Z</time></trkpt><trkpt lat="44.8338118477379" lon="11.47433711956484"><ele>15.0</ele><time>2026-03-24T17:42:26.999Z</time></trkpt><trkpt lat="44.833928822189904" lon="11.47427332347047"><ele>15.0</ele><time>2026-03-24T17:42:29.999Z</time></trkpt><trkpt lat="44.83386153214466" lon="11.474130456224731"><ele>15.0</ele><time>2026-03-24T17:42:31.999Z</time></trkpt><trkpt lat="44.833858767146985" lon="11.474036640368094"><ele>15.0</ele><time>2026-03-24T17:42:35.999Z</time></trkpt></trkseg></trk></gpx>